PWSweather.com
Personal Weather Stations
Station Observations
KMNHANSK2
Andys Live Weather Stations, Hanska, MN 56041

Andys Live Weather StationsHanska, MN 56041

Lat: 44.170119, Lon: -94.381619

Elevation: 1004

Station Type: Davis Instruments Vantage Pro2 Plus

http://www.madeliasliveweather.com/thompsonfarms/

High Low Average
Temperature 43.1°F6.2°C 24.7°F-4.1°C 31.2°F-0.4°C
Dew Point 31.8°F-0.1°C 21.3°F-5.9°C 24.8°F-4.0°C
Winds 30.0 mph 48.3 kmh Calm Calm 12.0 mph WNW19.3 kmh WNW
Wind Gusts 37.0 mph59.5 kmh 2.0 mph3.2 kmh 20.0 mph32.2 kmh
Humidity 91% 55% 78%
Pressure 30.29 in1025.7 mb 30.06 in1017.9 mb -
Precipitation 0.00 in0.0 mm - -
Hour Temp Dew Point Humidity Winds Wind Gusts Pressure Precip Precip Rate Daily Precip Total
12:00 AM 26.9°F-2.8°C 22.4°F-5.3°C 83% 26.0 mph NW41.8 kmh NW 31.0 mph49.9 kmh 30.06 in1017.9 mb 0.00 in0.0 mm 0.00 in/hr0.0 mm/hr 0.00 in0.0 mm
12:01 AM 26.9°F-2.8°C 22.4°F-5.3°C 83% 23.0 mph NW37.0 kmh NW 32.0 mph51.5 kmh 30.06 in1017.9 mb 0.00 in0.0 mm 0.00 in/hr0.0 mm/hr 0.00 in0.0 mm
12:03 AM 26.8°F-2.9°C 22.1°F-5.5°C 82% 20.0 mph NW32.2 kmh NW 32.0 mph51.5 kmh 30.06 in1017.9 mb 0.00 in0.0 mm 0.00 in/hr0.0 mm/hr 0.00 in0.0 mm
12:04 AM 26.8°F-2.9°C 22.1°F-5.5°C 82% 25.0 mph NW40.2 kmh NW 32.0 mph51.5 kmh 30.06 in1017.9 mb 0.00 in0.0 mm 0.00 in/hr0.0 mm/hr 0.00 in0.0 mm
12:06 AM 26.8°F-2.9°C 21.8°F-5.7°C 81% 23.0 mph NW37.0 kmh NW 32.0 mph51.5 kmh 30.06 in1017.9 mb 0.00 in0.0 mm 0.00 in/hr0.0 mm/hr 0.00 in0.0 mm
12:07 AM 26.7°F-2.9°C 21.7°F-5.7°C 81% 22.0 mph NW35.4 kmh NW 32.0 mph51.5 kmh 30.06 in1017.9 mb 0.00 in0.0 mm 0.00 in/hr0.0 mm/hr 0.00 in0.0 mm
12:09 AM 26.8°F-2.9°C 22.1°F-5.5°C 82% 15.0 mph NW24.1 kmh NW 32.0 mph51.5 kmh 30.06 in1017.9 mb 0.00 in0.0 mm 0.00 in/hr0.0 mm/hr 0.00 in0.0 mm
12:10 AM 26.8°F-2.9°C 22.1°F-5.5°C 82% 22.0 mph NW35.4 kmh NW 32.0 mph51.5 kmh 30.06 in1017.9 mb 0.00 in0.0 mm 0.00 in/hr0.0 mm/hr 0.00 in0.0 mm
12:11 AM 26.8°F-2.9°C 21.8°F-5.7°C 81% 22.0 mph NW35.4 kmh NW 32.0 mph51.5 kmh 30.06 in1017.9 mb 0.00 in0.0 mm 0.00 in/hr0.0 mm/hr 0.00 in0.0 mm
12:12 AM 26.7°F-2.9°C 21.7°F-5.7°C 81% 19.0 mph NW30.6 kmh NW 32.0 mph51.5 kmh 30.06 in1017.9 mb 0.00 in0.0 mm 0.00 in/hr0.0 mm/hr 0.00 in0.0 mm
12:13 AM 26.7°F-2.9°C 21.7°F-5.7°C 81% 22.0 mph NW35.4 kmh NW 32.0 mph51.5 kmh 30.06 in1017.9 mb 0.00 in0.0 mm 0.00 in/hr0.0 mm/hr 0.00 in0.0 mm
12:14 AM 26.7°F-2.9°C 21.7°F-5.7°C 81% 27.0 mph NW43.5 kmh NW 32.0 mph51.5 kmh 30.06 in1017.9 mb 0.00 in0.0 mm 0.00 in/hr0.0 mm/hr 0.00 in0.0 mm
12:16 AM 26.7°F-2.9°C 21.4°F-5.9°C 80% 22.0 mph NW35.4 kmh NW 32.0 mph51.5 kmh 30.06 in1017.9 mb 0.00 in0.0 mm 0.00 in/hr0.0 mm/hr 0.00 in0.0 mm
12:17 AM 26.7°F-2.9°C 21.7°F-5.7°C 81% 24.0 mph NW38.6 kmh NW 32.0 mph51.5 kmh 30.06 in1017.9 mb 0.00 in0.0 mm 0.00 in/hr0.0 mm/hr 0.00 in0.0 mm
12:19 AM 26.7°F-2.9°C 21.4°F-5.9°C 80% 25.0 mph NW40.2 kmh NW 32.0 mph51.5 kmh 30.06 in1017.9 mb 0.00 in0.0 mm 0.00 in/hr0.0 mm/hr 0.00 in0.0 mm
12:20 AM 26.7°F-2.9°C 21.4°F-5.9°C 80% 23.0 mph NW37.0 kmh NW 32.0 mph51.5 kmh 30.06 in1017.9 mb 0.00 in0.0 mm 0.00 in/hr0.0 mm/hr 0.00 in0.0 mm
12:22 AM 26.6°F-3.0°C 21.3°F-5.9°C 80% 27.0 mph NW43.5 kmh NW 32.0 mph51.5 kmh 30.07 in1018.3 mb 0.00 in0.0 mm 0.00 in/hr0.0 mm/hr 0.00 in0.0 mm
12:23 AM 26.6°F-3.0°C 21.3°F-5.9°C 80% 20.0 mph NW32.2 kmh NW 32.0 mph51.5 kmh 30.07 in1018.3 mb 0.00 in0.0 mm 0.00 in/hr0.0 mm/hr 0.00 in0.0 mm
12:25 AM 26.6°F-3.0°C 21.3°F-5.9°C 80% 22.0 mph NW35.4 kmh NW 32.0 mph51.5 kmh 30.07 in1018.3 mb 0.00 in0.0 mm 0.00 in/hr0.0 mm/hr 0.00 in0.0 mm
12:27 AM 26.6°F-3.0°C 21.6°F-5.8°C 81% 25.0 mph NW40.2 kmh NW 32.0 mph51.5 kmh 30.07 in1018.3 mb 0.00 in0.0 mm 0.00 in/hr0.0 mm/hr 0.00 in0.0 mm
12:28 AM 26.6°F-3.0°C 21.3°F-5.9°C 80% 20.0 mph NW32.2 kmh NW 32.0 mph51.5 kmh 30.07 in1018.3 mb 0.00 in0.0 mm 0.00 in/hr0.0 mm/hr 0.00 in0.0 mm
12:30 AM 26.6°F-3.0°C 21.3°F-5.9°C 80% 20.0 mph NW32.2 kmh NW 21.0 mph33.8 kmh 30.07 in1018.3 mb 0.00 in0.0 mm 0.00 in/hr0.0 mm/hr 0.00 in0.0 mm
12:31 AM 26.6°F-3.0°C 21.3°F-5.9°C 80% 23.0 mph NW37.0 kmh NW 26.0 mph41.8 kmh 30.07 in1018.3 mb 0.00 in0.0 mm 0.00 in/hr0.0 mm/hr 0.00 in0.0 mm
12:33 AM 26.6°F-3.0°C 21.3°F-5.9°C 80% 27.0 mph NW43.5 kmh NW 32.0 mph51.5 kmh 30.08 in1018.6 mb 0.00 in0.0 mm 0.00 in/hr0.0 mm/hr 0.00 in0.0 mm
12:35 AM 26.6°F-3.0°C 21.6°F-5.8°C 81% 27.0 mph NW43.5 kmh NW 33.0 mph53.1 kmh 30.08 in1018.6 mb 0.00 in0.0 mm 0.00 in/hr0.0 mm/hr 0.00 in0.0 mm
12:36 AM 26.6°F-3.0°C 21.3°F-5.9°C 80% 24.0 mph NW38.6 kmh NW 37.0 mph59.5 kmh 30.08 in1018.6 mb 0.00 in0.0 mm 0.00 in/hr0.0 mm/hr 0.00 in0.0 mm
12:37 AM 26.6°F-3.0°C 21.6°F-5.8°C 81% 27.0 mph WNW43.5 kmh WNW 37.0 mph59.5 kmh 30.08 in1018.6 mb 0.00 in0.0 mm 0.00 in/hr0.0 mm/hr 0.00 in0.0 mm
12:39 AM 26.6°F-3.0°C 21.6°F-5.8°C 81% 22.0 mph NW35.4 kmh NW 37.0 mph59.5 kmh 30.08 in1018.6 mb 0.00 in0.0 mm 0.00 in/hr0.0 mm/hr 0.00 in0.0 mm
12:40 AM 26.6°F-3.0°C 21.6°F-5.8°C 81% 23.0 mph NW37.0 kmh NW 37.0 mph59.5 kmh 30.08 in1018.6 mb 0.00 in0.0 mm 0.00 in/hr0.0 mm/hr 0.00 in0.0 mm
12:41 AM 26.6°F-3.0°C 21.6°F-5.8°C 81% 20.0 mph NW32.2 kmh NW 37.0 mph59.5 kmh 30.08 in1018.6 mb 0.00 in0.0 mm 0.00 in/hr0.0 mm/hr 0.00 in0.0 mm
12:42 AM 26.6°F-3.0°C 21.6°F-5.8°C 81% 21.0 mph NW33.8 kmh NW 37.0 mph59.5 kmh 30.08 in1018.6 mb 0.00 in0.0 mm 0.00 in/hr0.0 mm/hr 0.00 in0.0 mm
12:44 AM 26.6°F-3.0°C 21.9°F-5.6°C 82% 19.0 mph NW30.6 kmh NW 37.0 mph59.5 kmh 30.08 in1018.6 mb 0.00 in0.0 mm 0.00 in/hr0.0 mm/hr 0.00 in0.0 mm
12:45 AM 26.5°F-3.1°C 21.8°F-5.7°C 82% 23.0 mph NW37.0 kmh NW 37.0 mph59.5 kmh 30.08 in1018.6 mb 0.00 in0.0 mm 0.00 in/hr0.0 mm/hr 0.00 in0.0 mm
12:46 AM 26.6°F-3.0°C 21.9°F-5.6°C 82% 16.0 mph NW25.7 kmh NW 37.0 mph59.5 kmh 30.08 in1018.6 mb 0.00 in0.0 mm 0.00 in/hr0.0 mm/hr 0.00 in0.0 mm
12:48 AM 26.6°F-3.0°C 21.9°F-5.6°C 82% 19.0 mph NW30.6 kmh NW 37.0 mph59.5 kmh 30.08 in1018.6 mb 0.00 in0.0 mm 0.00 in/hr0.0 mm/hr 0.00 in0.0 mm
12:50 AM 26.5°F-3.1°C 21.8°F-5.7°C 82% 21.0 mph NW33.8 kmh NW 37.0 mph59.5 kmh 30.09 in1019.0 mb 0.00 in0.0 mm 0.00 in/hr0.0 mm/hr 0.00 in0.0 mm
12:51 AM 26.5°F-3.1°C 21.8°F-5.7°C 82% 28.0 mph WNW45.1 kmh WNW 37.0 mph59.5 kmh 30.08 in1018.6 mb 0.00 in0.0 mm 0.00 in/hr0.0 mm/hr 0.00 in0.0 mm
12:53 AM 26.5°F-3.1°C 21.8°F-5.7°C 82% 21.0 mph NW33.8 kmh NW 37.0 mph59.5 kmh 30.09 in1019.0 mb 0.00 in0.0 mm 0.00 in/hr0.0 mm/hr 0.00 in0.0 mm
12:55 AM 26.5°F-3.1°C 22.1°F-5.5°C 83% 19.0 mph NW30.6 kmh NW 37.0 mph59.5 kmh 30.09 in1019.0 mb 0.00 in0.0 mm 0.00 in/hr0.0 mm/hr 0.00 in0.0 mm
12:56 AM 26.5°F-3.1°C 22.1°F-5.5°C 83% 18.0 mph NW29.0 kmh NW 37.0 mph59.5 kmh 30.09 in1019.0 mb 0.00 in0.0 mm 0.00 in/hr0.0 mm/hr 0.00 in0.0 mm
12:58 AM 26.5°F-3.1°C 22.1°F-5.5°C 83% 22.0 mph NW35.4 kmh NW 37.0 mph59.5 kmh 30.09 in1019.0 mb 0.00 in0.0 mm 0.00 in/hr0.0 mm/hr 0.00 in0.0 mm
12:59 AM 26.5°F-3.1°C 22.1°F-5.5°C 83% 23.0 mph NW37.0 kmh NW 37.0 mph59.5 kmh 30.10 in1019.3 mb 0.00 in0.0 mm 0.00 in/hr0.0 mm/hr 0.00 in0.0 mm
01:00 AM 26.5°F-3.1°C 22.1°F-5.5°C 83% 15.0 mph NW24.1 kmh NW 23.0 mph37.0 kmh 30.09 in1019.0 mb 0.00 in0.0 mm 0.00 in/hr0.0 mm/hr 0.00 in0.0 mm
01:02 AM 26.4°F-3.1°C 22.0°F-5.6°C 83% 21.0 mph NW33.8 kmh NW 25.0 mph40.2 kmh 30.09 in1019.0 mb 0.00 in0.0 mm 0.00 in/hr0.0 mm/hr 0.00 in0.0 mm
01:03 AM 26.4°F-3.1°C 22.0°F-5.6°C 83% 20.0 mph NW32.2 kmh NW 25.0 mph40.2 kmh 30.09 in1019.0 mb 0.00 in0.0 mm 0.00 in/hr0.0 mm/hr 0.00 in0.0 mm
01:05 AM 26.4°F-3.1°C 22.0°F-5.6°C 83% 24.0 mph NW38.6 kmh NW 26.0 mph41.8 kmh 30.09 in1019.0 mb 0.00 in0.0 mm 0.00 in/hr0.0 mm/hr 0.00 in0.0 mm
01:06 AM 26.3°F-3.2°C 21.9°F-5.6°C 83% 21.0 mph NW33.8 kmh NW 26.0 mph41.8 kmh 30.10 in1019.3 mb 0.00 in0.0 mm 0.00 in/hr0.0 mm/hr 0.00 in0.0 mm
01:08 AM 26.3°F-3.2°C 21.9°F-5.6°C 83% 21.0 mph NW33.8 kmh NW 26.0 mph41.8 kmh 30.10 in1019.3 mb 0.00 in0.0 mm 0.00 in/hr0.0 mm/hr 0.00 in0.0 mm
01:10 AM 26.2°F-3.2°C 21.8°F-5.7°C 83% 28.0 mph NW45.1 kmh NW 28.0 mph45.1 kmh 30.10 in1019.3 mb 0.00 in0.0 mm 0.00 in/hr0.0 mm/hr 0.00 in0.0 mm
01:11 AM 26.2°F-3.2°C 21.8°F-5.7°C 83% 18.0 mph NW29.0 kmh NW 28.0 mph45.1 kmh 30.10 in1019.3 mb 0.00 in0.0 mm 0.00 in/hr0.0 mm/hr 0.00 in0.0 mm
01:12 AM 26.2°F-3.2°C 21.8°F-5.7°C 83% 17.0 mph NW27.4 kmh NW 28.0 mph45.1 kmh 30.10 in1019.3 mb 0.00 in0.0 mm 0.00 in/hr0.0 mm/hr 0.00 in0.0 mm
01:14 AM 26.2°F-3.2°C 22.0°F-5.6°C 84% 15.0 mph NW24.1 kmh NW 28.0 mph45.1 kmh 30.10 in1019.3 mb 0.00 in0.0 mm 0.00 in/hr0.0 mm/hr 0.00 in0.0 mm
01:15 AM 26.1°F-3.3°C 21.9°F-5.6°C 84% 22.0 mph WNW35.4 kmh WNW 28.0 mph45.1 kmh 30.11 in1019.6 mb 0.00 in0.0 mm 0.00 in/hr0.0 mm/hr 0.00 in0.0 mm
01:17 AM 26.1°F-3.3°C 21.9°F-5.6°C 84% 18.0 mph NW29.0 kmh NW 28.0 mph45.1 kmh 30.10 in1019.3 mb 0.00 in0.0 mm 0.00 in/hr0.0 mm/hr 0.00 in0.0 mm
01:18 AM 26.0°F-3.3°C 21.8°F-5.7°C 84% 20.0 mph NW32.2 kmh NW 28.0 mph45.1 kmh 30.10 in1019.3 mb 0.00 in0.0 mm 0.00 in/hr0.0 mm/hr 0.00 in0.0 mm
01:19 AM 26.0°F-3.3°C 21.8°F-5.7°C 84% 20.0 mph WNW32.2 kmh WNW 28.0 mph45.1 kmh 30.11 in1019.6 mb 0.00 in0.0 mm 0.00 in/hr0.0 mm/hr 0.00 in0.0 mm
01:20 AM 26.0°F-3.3°C 22.1°F-5.5°C 85% 17.0 mph NW27.4 kmh NW 28.0 mph45.1 kmh 30.11 in1019.6 mb 0.00 in0.0 mm 0.00 in/hr0.0 mm/hr 0.00 in0.0 mm
01:22 AM 26.0°F-3.3°C 22.1°F-5.5°C 85% 21.0 mph WNW33.8 kmh WNW 28.0 mph45.1 kmh 30.11 in1019.6 mb 0.00 in0.0 mm 0.00 in/hr0.0 mm/hr 0.00 in0.0 mm
01:24 AM 25.9°F-3.4°C 22.0°F-5.6°C 85% 19.0 mph WNW30.6 kmh WNW 28.0 mph45.1 kmh 30.11 in1019.6 mb 0.00 in0.0 mm 0.00 in/hr0.0 mm/hr 0.00 in0.0 mm
01:25 AM 25.8°F-3.4°C 21.9°F-5.6°C 85% 15.0 mph NW24.1 kmh NW 28.0 mph45.1 kmh 30.11 in1019.6 mb 0.00 in0.0 mm 0.00 in/hr0.0 mm/hr 0.00 in0.0 mm
01:27 AM 25.8°F-3.4°C 21.9°F-5.6°C 85% 15.0 mph NW24.1 kmh NW 28.0 mph45.1 kmh 30.11 in1019.6 mb 0.00 in0.0 mm 0.00 in/hr0.0 mm/hr 0.00 in0.0 mm
01:29 AM 25.8°F-3.4°C 21.9°F-5.6°C 85% 16.0 mph NW25.7 kmh NW 28.0 mph45.1 kmh 30.11 in1019.6 mb 0.00 in0.0 mm 0.00 in/hr0.0 mm/hr 0.00 in0.0 mm
01:30 AM 25.8°F-3.4°C 21.9°F-5.6°C 85% 16.0 mph NW25.7 kmh NW 28.0 mph45.1 kmh 30.11 in1019.6 mb 0.00 in0.0 mm 0.00 in/hr0.0 mm/hr 0.00 in0.0 mm
01:31 AM 25.7°F-3.5°C 21.8°F-5.7°C 85% 20.0 mph NW32.2 kmh NW 22.0 mph35.4 kmh 30.12 in1020.0 mb 0.00 in0.0 mm 0.00 in/hr0.0 mm/hr 0.00 in0.0 mm
01:33 AM 25.7°F-3.5°C 21.8°F-5.7°C 85% 17.0 mph NW27.4 kmh NW 22.0 mph35.4 kmh 30.12 in1020.0 mb 0.00 in0.0 mm 0.00 in/hr0.0 mm/hr 0.00 in0.0 mm
01:35 AM 25.7°F-3.5°C 22.1°F-5.5°C 86% 14.0 mph NW22.5 kmh NW 23.0 mph37.0 kmh 30.12 in1020.0 mb 0.00 in0.0 mm 0.00 in/hr0.0 mm/hr 0.00 in0.0 mm
01:36 AM 25.7°F-3.5°C 22.1°F-5.5°C 86% 19.0 mph NW30.6 kmh NW 23.0 mph37.0 kmh 30.12 in1020.0 mb 0.00 in0.0 mm 0.00 in/hr0.0 mm/hr 0.00 in0.0 mm
01:38 AM 25.6°F-3.6°C 22.0°F-5.6°C 86% 15.0 mph NW24.1 kmh NW 23.0 mph37.0 kmh 30.12 in1020.0 mb 0.00 in0.0 mm 0.00 in/hr0.0 mm/hr 0.00 in0.0 mm
01:39 AM 25.6°F-3.6°C 22.0°F-5.6°C 86% 18.0 mph NW29.0 kmh NW 23.0 mph37.0 kmh 30.12 in1020.0 mb 0.00 in0.0 mm 0.00 in/hr0.0 mm/hr 0.00 in0.0 mm
01:40 AM 25.6°F-3.6°C 22.0°F-5.6°C 86% 16.0 mph NW25.7 kmh NW 23.0 mph37.0 kmh 30.12 in1020.0 mb 0.00 in0.0 mm 0.00 in/hr0.0 mm/hr 0.00 in0.0 mm
01:41 AM 25.6°F-3.6°C 22.0°F-5.6°C 86% 19.0 mph WNW30.6 kmh WNW 23.0 mph37.0 kmh 30.12 in1020.0 mb 0.00 in0.0 mm 0.00 in/hr0.0 mm/hr 0.00 in0.0 mm
01:43 AM 25.6°F-3.6°C 22.0°F-5.6°C 86% 18.0 mph NW29.0 kmh NW 23.0 mph37.0 kmh 30.12 in1020.0 mb 0.00 in0.0 mm 0.00 in/hr0.0 mm/hr 0.00 in0.0 mm
01:44 AM 25.6°F-3.6°C 22.0°F-5.6°C 86% 17.0 mph WNW27.4 kmh WNW 23.0 mph37.0 kmh 30.12 in1020.0 mb 0.00 in0.0 mm 0.00 in/hr0.0 mm/hr 0.00 in0.0 mm
01:45 AM 25.6°F-3.6°C 22.0°F-5.6°C 86% 18.0 mph NW29.0 kmh NW 23.0 mph37.0 kmh 30.12 in1020.0 mb 0.00 in0.0 mm 0.00 in/hr0.0 mm/hr 0.00 in0.0 mm
01:46 AM 25.6°F-3.6°C 22.0°F-5.6°C 86% 13.0 mph NW20.9 kmh NW 23.0 mph37.0 kmh 30.12 in1020.0 mb 0.00 in0.0 mm 0.00 in/hr0.0 mm/hr 0.00 in0.0 mm
01:47 AM 25.6°F-3.6°C 22.0°F-5.6°C 86% 18.0 mph WNW29.0 kmh WNW 23.0 mph37.0 kmh 30.11 in1019.6 mb 0.00 in0.0 mm 0.00 in/hr0.0 mm/hr 0.00 in0.0 mm
01:48 AM 25.5°F-3.6°C 21.9°F-5.6°C 86% 16.0 mph NW25.7 kmh NW 23.0 mph37.0 kmh 30.12 in1020.0 mb 0.00 in0.0 mm 0.00 in/hr0.0 mm/hr 0.00 in0.0 mm
01:50 AM 25.5°F-3.6°C 21.9°F-5.6°C 86% 18.0 mph NW29.0 kmh NW 23.0 mph37.0 kmh 30.12 in1020.0 mb 0.00 in0.0 mm 0.00 in/hr0.0 mm/hr 0.00 in0.0 mm
01:52 AM 25.5°F-3.6°C 21.9°F-5.6°C 86% 17.0 mph NW27.4 kmh NW 23.0 mph37.0 kmh 30.12 in1020.0 mb 0.00 in0.0 mm 0.00 in/hr0.0 mm/hr 0.00 in0.0 mm
01:53 AM 25.5°F-3.6°C 21.9°F-5.6°C 86% 16.0 mph NW25.7 kmh NW 23.0 mph37.0 kmh 30.12 in1020.0 mb 0.00 in0.0 mm 0.00 in/hr0.0 mm/hr 0.00 in0.0 mm
01:55 AM 25.5°F-3.6°C 21.9°F-5.6°C 86% 21.0 mph NW33.8 kmh NW 23.0 mph37.0 kmh 30.12 in1020.0 mb 0.00 in0.0 mm 0.00 in/hr0.0 mm/hr 0.00 in0.0 mm
01:56 AM 25.5°F-3.6°C 21.9°F-5.6°C 86% 20.0 mph WNW32.2 kmh WNW 23.0 mph37.0 kmh 30.12 in1020.0 mb 0.00 in0.0 mm 0.00 in/hr0.0 mm/hr 0.00 in0.0 mm
01:58 AM 25.5°F-3.6°C 21.9°F-5.6°C 86% 17.0 mph NW27.4 kmh NW 23.0 mph37.0 kmh 30.12 in1020.0 mb 0.00 in0.0 mm 0.00 in/hr0.0 mm/hr 0.00 in0.0 mm
01:59 AM 25.5°F-3.6°C 21.9°F-5.6°C 86% 24.0 mph NW38.6 kmh NW 24.0 mph38.6 kmh 30.12 in1020.0 mb 0.00 in0.0 mm 0.00 in/hr0.0 mm/hr 0.00 in0.0 mm
02:00 AM 25.5°F-3.6°C 21.9°F-5.6°C 86% 17.0 mph NW27.4 kmh NW 24.0 mph38.6 kmh 30.12 in1020.0 mb 0.00 in0.0 mm 0.00 in/hr0.0 mm/hr 0.00 in0.0 mm
02:02 AM 25.5°F-3.6°C 21.9°F-5.6°C 86% 17.0 mph NW27.4 kmh NW 20.0 mph32.2 kmh 30.12 in1020.0 mb 0.00 in0.0 mm 0.00 in/hr0.0 mm/hr 0.00 in0.0 mm
02:04 AM 25.5°F-3.6°C 22.2°F-5.4°C 87% 19.0 mph WNW30.6 kmh WNW 20.0 mph32.2 kmh 30.12 in1020.0 mb 0.00 in0.0 mm 0.00 in/hr0.0 mm/hr 0.00 in0.0 mm
02:05 AM 25.5°F-3.6°C 22.2°F-5.4°C 87% 23.0 mph NW37.0 kmh NW 24.0 mph38.6 kmh 30.12 in1020.0 mb 0.00 in0.0 mm 0.00 in/hr0.0 mm/hr 0.00 in0.0 mm
02:06 AM 25.4°F-3.7°C 21.8°F-5.7°C 86% 16.0 mph NW25.7 kmh NW 24.0 mph38.6 kmh 30.12 in1020.0 mb 0.00 in0.0 mm 0.00 in/hr0.0 mm/hr 0.00 in0.0 mm
02:08 AM 25.4°F-3.7°C 21.8°F-5.7°C 86% 15.0 mph NW24.1 kmh NW 24.0 mph38.6 kmh 30.12 in1020.0 mb 0.00 in0.0 mm 0.00 in/hr0.0 mm/hr 0.00 in0.0 mm
02:10 AM 25.5°F-3.6°C 22.2°F-5.4°C 87% 18.0 mph NW29.0 kmh NW 24.0 mph38.6 kmh 30.12 in1020.0 mb 0.00 in0.0 mm 0.00 in/hr0.0 mm/hr 0.00 in0.0 mm
02:11 AM 25.4°F-3.7°C 22.1°F-5.5°C 87% 17.0 mph NW27.4 kmh NW 24.0 mph38.6 kmh 30.12 in1020.0 mb 0.00 in0.0 mm 0.00 in/hr0.0 mm/hr 0.00 in0.0 mm
02:13 AM 25.4°F-3.7°C 22.1°F-5.5°C 87% 13.0 mph NW20.9 kmh NW 24.0 mph38.6 kmh 30.12 in1020.0 mb 0.00 in0.0 mm 0.00 in/hr0.0 mm/hr 0.00 in0.0 mm
02:14 AM 25.4°F-3.7°C 22.1°F-5.5°C 87% 15.0 mph NW24.1 kmh NW 24.0 mph38.6 kmh 30.12 in1020.0 mb 0.00 in0.0 mm 0.00 in/hr0.0 mm/hr 0.00 in0.0 mm
02:15 AM 25.4°F-3.7°C 22.1°F-5.5°C 87% 17.0 mph NW27.4 kmh NW 24.0 mph38.6 kmh 30.12 in1020.0 mb 0.00 in0.0 mm 0.00 in/hr0.0 mm/hr 0.00 in0.0 mm
02:16 AM 25.4°F-3.7°C 22.1°F-5.5°C 87% 12.0 mph NW19.3 kmh NW 24.0 mph38.6 kmh 30.12 in1020.0 mb 0.00 in0.0 mm 0.00 in/hr0.0 mm/hr 0.00 in0.0 mm
02:17 AM 25.4°F-3.7°C 22.1°F-5.5°C 87% 13.0 mph NW20.9 kmh NW 24.0 mph38.6 kmh 30.12 in1020.0 mb 0.00 in0.0 mm 0.00 in/hr0.0 mm/hr 0.00 in0.0 mm
02:18 AM 25.4°F-3.7°C 22.1°F-5.5°C 87% 17.0 mph NW27.4 kmh NW 24.0 mph38.6 kmh 30.12 in1020.0 mb 0.00 in0.0 mm 0.00 in/hr0.0 mm/hr 0.00 in0.0 mm
02:20 AM 25.4°F-3.7°C 22.1°F-5.5°C 87% 16.0 mph NW25.7 kmh NW 24.0 mph38.6 kmh 30.12 in1020.0 mb 0.00 in0.0 mm 0.00 in/hr0.0 mm/hr 0.00 in0.0 mm
02:21 AM 25.4°F-3.7°C 22.1°F-5.5°C 87% 14.0 mph NW22.5 kmh NW 24.0 mph38.6 kmh 30.12 in1020.0 mb 0.00 in0.0 mm 0.00 in/hr0.0 mm/hr 0.00 in0.0 mm
02:23 AM 25.4°F-3.7°C 22.1°F-5.5°C 87% 14.0 mph NW22.5 kmh NW 24.0 mph38.6 kmh 30.12 in1020.0 mb 0.00 in0.0 mm 0.00 in/hr0.0 mm/hr 0.00 in0.0 mm
02:24 AM 25.5°F-3.6°C 22.2°F-5.4°C 87% 13.0 mph NW20.9 kmh NW 24.0 mph38.6 kmh 30.12 in1020.0 mb 0.00 in0.0 mm 0.00 in/hr0.0 mm/hr 0.00 in0.0 mm
02:26 AM 25.5°F-3.6°C 22.2°F-5.4°C 87% 15.0 mph NW24.1 kmh NW 24.0 mph38.6 kmh 30.12 in1020.0 mb 0.00 in0.0 mm 0.00 in/hr0.0 mm/hr 0.00 in0.0 mm
02:28 AM 25.5°F-3.6°C 22.2°F-5.4°C 87% 14.0 mph NW22.5 kmh NW 24.0 mph38.6 kmh 30.12 in1020.0 mb 0.00 in0.0 mm 0.00 in/hr0.0 mm/hr 0.00 in0.0 mm
02:29 AM 25.5°F-3.6°C 22.2°F-5.4°C 87% 13.0 mph NW20.9 kmh NW 24.0 mph38.6 kmh 30.12 in1020.0 mb 0.00 in0.0 mm 0.00 in/hr0.0 mm/hr 0.00 in0.0 mm
02:30 AM 25.5°F-3.6°C 22.2°F-5.4°C 87% 15.0 mph WNW24.1 kmh WNW 24.0 mph38.6 kmh 30.12 in1020.0 mb 0.00 in0.0 mm 0.00 in/hr0.0 mm/hr 0.00 in0.0 mm
02:31 AM 25.5°F-3.6°C 22.2°F-5.4°C 87% 18.0 mph NW29.0 kmh NW 19.0 mph30.6 kmh 30.12 in1020.0 mb 0.00 in0.0 mm 0.00 in/hr0.0 mm/hr 0.00 in0.0 mm
02:33 AM 25.5°F-3.6°C 22.2°F-5.4°C 87% 16.0 mph NW25.7 kmh NW 19.0 mph30.6 kmh 30.12 in1020.0 mb 0.00 in0.0 mm 0.00 in/hr0.0 mm/hr 0.00 in0.0 mm
02:34 AM 25.5°F-3.6°C 22.2°F-5.4°C 87% 16.0 mph NW25.7 kmh NW 19.0 mph30.6 kmh 30.12 in1020.0 mb 0.00 in0.0 mm 0.00 in/hr0.0 mm/hr 0.00 in0.0 mm
02:35 AM 25.6°F-3.6°C 22.3°F-5.4°C 87% 16.0 mph NW25.7 kmh NW 21.0 mph33.8 kmh 30.12 in1020.0 mb 0.00 in0.0 mm 0.00 in/hr0.0 mm/hr 0.00 in0.0 mm
02:37 AM 25.6°F-3.6°C 22.3°F-5.4°C 87% 15.0 mph WNW24.1 kmh WNW 21.0 mph33.8 kmh 30.12 in1020.0 mb 0.00 in0.0 mm 0.00 in/hr0.0 mm/hr 0.00 in0.0 mm
02:38 AM 25.6°F-3.6°C 22.3°F-5.4°C 87% 18.0 mph NW29.0 kmh NW 21.0 mph33.8 kmh 30.12 in1020.0 mb 0.00 in0.0 mm 0.00 in/hr0.0 mm/hr 0.00 in0.0 mm
02:40 AM 25.7°F-3.5°C 22.4°F-5.3°C 87% 17.0 mph NW27.4 kmh NW 21.0 mph33.8 kmh 30.12 in1020.0 mb 0.00 in0.0 mm 0.00 in/hr0.0 mm/hr 0.00 in0.0 mm
02:41 AM 25.7°F-3.5°C 22.4°F-5.3°C 87% 14.0 mph NW22.5 kmh NW 21.0 mph33.8 kmh 30.12 in1020.0 mb 0.00 in0.0 mm 0.00 in/hr0.0 mm/hr 0.00 in0.0 mm
02:43 AM 25.7°F-3.5°C 22.4°F-5.3°C 87% 12.0 mph NW19.3 kmh NW 21.0 mph33.8 kmh 30.12 in1020.0 mb 0.00 in0.0 mm 0.00 in/hr0.0 mm/hr 0.00 in0.0 mm
02:44 AM 25.7°F-3.5°C 22.4°F-5.3°C 87% 16.0 mph NW25.7 kmh NW 21.0 mph33.8 kmh 30.12 in1020.0 mb 0.00 in0.0 mm 0.00 in/hr0.0 mm/hr 0.00 in0.0 mm
02:45 AM 25.7°F-3.5°C 22.4°F-5.3°C 87% 16.0 mph WNW25.7 kmh WNW 22.0 mph35.4 kmh 30.12 in1020.0 mb 0.00 in0.0 mm 0.00 in/hr0.0 mm/hr 0.00 in0.0 mm
02:47 AM 25.7°F-3.5°C 22.1°F-5.5°C 86% 10.0 mph W16.1 kmh W 22.0 mph35.4 kmh 30.12 in1020.0 mb 0.00 in0.0 mm 0.00 in/hr0.0 mm/hr 0.00 in0.0 mm
02:48 AM 25.7°F-3.5°C 22.4°F-5.3°C 87% 16.0 mph NW25.7 kmh NW 22.0 mph35.4 kmh 30.12 in1020.0 mb 0.00 in0.0 mm 0.00 in/hr0.0 mm/hr 0.00 in0.0 mm
02:49 AM 25.7°F-3.5°C 22.1°F-5.5°C 86% 12.0 mph WNW19.3 kmh WNW 22.0 mph35.4 kmh 30.12 in1020.0 mb 0.00 in0.0 mm 0.00 in/hr0.0 mm/hr 0.00 in0.0 mm
02:50 AM 25.7°F-3.5°C 22.1°F-5.5°C 86% 16.0 mph WNW25.7 kmh WNW 22.0 mph35.4 kmh 30.12 in1020.0 mb 0.00 in0.0 mm 0.00 in/hr0.0 mm/hr 0.00 in0.0 mm
02:51 AM 25.7°F-3.5°C 22.1°F-5.5°C 86% 14.0 mph NW22.5 kmh NW 22.0 mph35.4 kmh 30.12 in1020.0 mb 0.00 in0.0 mm 0.00 in/hr0.0 mm/hr 0.00 in0.0 mm
02:53 AM 25.7°F-3.5°C 22.1°F-5.5°C 86% 12.0 mph WNW19.3 kmh WNW 22.0 mph35.4 kmh 30.12 in1020.0 mb 0.00 in0.0 mm 0.00 in/hr0.0 mm/hr 0.00 in0.0 mm
02:55 AM 25.7°F-3.5°C 22.1°F-5.5°C 86% 11.0 mph NW17.7 kmh NW 22.0 mph35.4 kmh 30.12 in1020.0 mb 0.00 in0.0 mm 0.00 in/hr0.0 mm/hr 0.00 in0.0 mm
02:56 AM 25.7°F-3.5°C 22.1°F-5.5°C 86% 15.0 mph WNW24.1 kmh WNW 22.0 mph35.4 kmh 30.12 in1020.0 mb 0.00 in0.0 mm 0.00 in/hr0.0 mm/hr 0.00 in0.0 mm
02:57 AM 25.6°F-3.6°C 22.0°F-5.6°C 86% 15.0 mph WNW24.1 kmh WNW 22.0 mph35.4 kmh 30.12 in1020.0 mb 0.00 in0.0 mm 0.00 in/hr0.0 mm/hr 0.00 in0.0 mm
02:58 AM 25.6°F-3.6°C 22.0°F-5.6°C 86% 14.0 mph NW22.5 kmh NW 22.0 mph35.4 kmh 30.13 in1020.3 mb 0.00 in0.0 mm 0.00 in/hr0.0 mm/hr 0.00 in0.0 mm
03:00 AM 25.6°F-3.6°C 22.0°F-5.6°C 86% 14.0 mph NW22.5 kmh NW 22.0 mph35.4 kmh 30.12 in1020.0 mb 0.00 in0.0 mm 0.00 in/hr0.0 mm/hr 0.00 in0.0 mm
03:01 AM 25.6°F-3.6°C 22.0°F-5.6°C 86% 14.0 mph NW22.5 kmh NW 14.0 mph22.5 kmh 30.12 in1020.0 mb 0.00 in0.0 mm 0.00 in/hr0.0 mm/hr 0.00 in0.0 mm
03:03 AM 25.5°F-3.6°C 21.9°F-5.6°C 86% 17.0 mph NW27.4 kmh NW 18.0 mph29.0 kmh 30.12 in1020.0 mb 0.00 in0.0 mm 0.00 in/hr0.0 mm/hr 0.00 in0.0 mm
03:04 AM 25.5°F-3.6°C 21.9°F-5.6°C 86% 19.0 mph NW30.6 kmh NW 19.0 mph30.6 kmh 30.12 in1020.0 mb 0.00 in0.0 mm 0.00 in/hr0.0 mm/hr 0.00 in0.0 mm
03:05 AM 25.5°F-3.6°C 21.9°F-5.6°C 86% 13.0 mph WNW20.9 kmh WNW 19.0 mph30.6 kmh 30.12 in1020.0 mb 0.00 in0.0 mm 0.00 in/hr0.0 mm/hr 0.00 in0.0 mm
03:06 AM 25.5°F-3.6°C 21.9°F-5.6°C 86% 11.0 mph NW17.7 kmh NW 19.0 mph30.6 kmh 30.13 in1020.3 mb 0.00 in0.0 mm 0.00 in/hr0.0 mm/hr 0.00 in0.0 mm
03:07 AM 25.5°F-3.6°C 22.2°F-5.4°C 87% 12.0 mph WNW19.3 kmh WNW 19.0 mph30.6 kmh 30.13 in1020.3 mb 0.00 in0.0 mm 0.00 in/hr0.0 mm/hr 0.00 in0.0 mm
03:09 AM 25.4°F-3.7°C 22.1°F-5.5°C 87% 14.0 mph NW22.5 kmh NW 19.0 mph30.6 kmh 30.13 in1020.3 mb 0.00 in0.0 mm 0.00 in/hr0.0 mm/hr 0.00 in0.0 mm
03:10 AM 25.4°F-3.7°C 22.1°F-5.5°C 87% 11.0 mph NW17.7 kmh NW 19.0 mph30.6 kmh 30.13 in1020.3 mb 0.00 in0.0 mm 0.00 in/hr0.0 mm/hr 0.00 in0.0 mm
03:12 AM 25.4°F-3.7°C 22.1°F-5.5°C 87% 16.0 mph NW25.7 kmh NW 19.0 mph30.6 kmh 30.13 in1020.3 mb 0.00 in0.0 mm 0.00 in/hr0.0 mm/hr 0.00 in0.0 mm
03:14 AM 25.4°F-3.7°C 22.1°F-5.5°C 87% 12.0 mph NW19.3 kmh NW 19.0 mph30.6 kmh 30.13 in1020.3 mb 0.00 in0.0 mm 0.00 in/hr0.0 mm/hr 0.00 in0.0 mm
03:15 AM 25.4°F-3.7°C 22.1°F-5.5°C 87% 13.0 mph NW20.9 kmh NW 19.0 mph30.6 kmh 30.13 in1020.3 mb 0.00 in0.0 mm 0.00 in/hr0.0 mm/hr 0.00 in0.0 mm
03:16 AM 25.4°F-3.7°C 22.1°F-5.5°C 87% 13.0 mph WNW20.9 kmh WNW 19.0 mph30.6 kmh 30.13 in1020.3 mb 0.00 in0.0 mm 0.00 in/hr0.0 mm/hr 0.00 in0.0 mm
03:18 AM 25.3°F-3.7°C 22.0°F-5.6°C 87% 12.0 mph WNW19.3 kmh WNW 19.0 mph30.6 kmh 30.13 in1020.3 mb 0.00 in0.0 mm 0.00 in/hr0.0 mm/hr 0.00 in0.0 mm
03:20 AM 25.3°F-3.7°C 22.0°F-5.6°C 87% 12.0 mph NW19.3 kmh NW 19.0 mph30.6 kmh 30.13 in1020.3 mb 0.00 in0.0 mm 0.00 in/hr0.0 mm/hr 0.00 in0.0 mm
03:21 AM 25.3°F-3.7°C 21.7°F-5.7°C 86% 10.0 mph WNW16.1 kmh WNW 19.0 mph30.6 kmh 30.14 in1020.7 mb 0.00 in0.0 mm 0.00 in/hr0.0 mm/hr 0.00 in0.0 mm
03:23 AM 25.4°F-3.7°C 22.1°F-5.5°C 87% 8.0 mph WNW12.9 kmh WNW 19.0 mph30.6 kmh 30.14 in1020.7 mb 0.00 in0.0 mm 0.00 in/hr0.0 mm/hr 0.00 in0.0 mm
03:24 AM 25.3°F-3.7°C 22.0°F-5.6°C 87% 15.0 mph NW24.1 kmh NW 19.0 mph30.6 kmh 30.14 in1020.7 mb 0.00 in0.0 mm 0.00 in/hr0.0 mm/hr 0.00 in0.0 mm
03:26 AM 25.3°F-3.7°C 22.0°F-5.6°C 87% 9.0 mph NW14.5 kmh NW 19.0 mph30.6 kmh 30.14 in1020.7 mb 0.00 in0.0 mm 0.00 in/hr0.0 mm/hr 0.00 in0.0 mm
03:27 AM 25.3°F-3.7°C 22.0°F-5.6°C 87% 10.0 mph NW16.1 kmh NW 19.0 mph30.6 kmh 30.14 in1020.7 mb 0.00 in0.0 mm 0.00 in/hr0.0 mm/hr 0.00 in0.0 mm
03:29 AM 25.3°F-3.7°C 22.0°F-5.6°C 87% 14.0 mph WNW22.5 kmh WNW 19.0 mph30.6 kmh 30.14 in1020.7 mb 0.00 in0.0 mm 0.00 in/hr0.0 mm/hr 0.00 in0.0 mm
03:30 AM 25.3°F-3.7°C 22.0°F-5.6°C 87% 11.0 mph WNW17.7 kmh WNW 19.0 mph30.6 kmh 30.14 in1020.7 mb 0.00 in0.0 mm 0.00 in/hr0.0 mm/hr 0.00 in0.0 mm
03:32 AM 25.3°F-3.7°C 22.0°F-5.6°C 87% 7.0 mph W11.3 kmh W 13.0 mph20.9 kmh 30.14 in1020.7 mb 0.00 in0.0 mm 0.00 in/hr0.0 mm/hr 0.00 in0.0 mm
03:33 AM 25.2°F-3.8°C 21.9°F-5.6°C 87% 11.0 mph WNW17.7 kmh WNW 15.0 mph24.1 kmh 30.14 in1020.7 mb 0.00 in0.0 mm 0.00 in/hr0.0 mm/hr 0.00 in0.0 mm
03:35 AM 25.2°F-3.8°C 21.9°F-5.6°C 87% 9.0 mph WNW14.5 kmh WNW 17.0 mph27.4 kmh 30.14 in1020.7 mb 0.00 in0.0 mm 0.00 in/hr0.0 mm/hr 0.00 in0.0 mm
03:36 AM 25.2°F-3.8°C 21.6°F-5.8°C 86% 7.0 mph NW11.3 kmh NW 17.0 mph27.4 kmh 30.14 in1020.7 mb 0.00 in0.0 mm 0.00 in/hr0.0 mm/hr 0.00 in0.0 mm
03:38 AM 25.2°F-3.8°C 21.9°F-5.6°C 87% 11.0 mph NW17.7 kmh NW 17.0 mph27.4 kmh 30.14 in1020.7 mb 0.00 in0.0 mm 0.00 in/hr0.0 mm/hr 0.00 in0.0 mm
03:39 AM 25.2°F-3.8°C 21.9°F-5.6°C 87% 15.0 mph WNW24.1 kmh WNW 18.0 mph29.0 kmh 30.14 in1020.7 mb 0.00 in0.0 mm 0.00 in/hr0.0 mm/hr 0.00 in0.0 mm
03:40 AM 25.2°F-3.8°C 21.9°F-5.6°C 87% 13.0 mph WNW20.9 kmh WNW 18.0 mph29.0 kmh 30.14 in1020.7 mb 0.00 in0.0 mm 0.00 in/hr0.0 mm/hr 0.00 in0.0 mm
03:42 AM 25.2°F-3.8°C 21.9°F-5.6°C 87% 18.0 mph NW29.0 kmh NW 18.0 mph29.0 kmh 30.14 in1020.7 mb 0.00 in0.0 mm 0.00 in/hr0.0 mm/hr 0.00 in0.0 mm
03:44 AM 25.2°F-3.8°C 21.9°F-5.6°C 87% 11.0 mph WNW17.7 kmh WNW 18.0 mph29.0 kmh 30.14 in1020.7 mb 0.00 in0.0 mm 0.00 in/hr0.0 mm/hr 0.00 in0.0 mm
03:45 AM 25.2°F-3.8°C 21.9°F-5.6°C 87% 15.0 mph WNW24.1 kmh WNW 18.0 mph29.0 kmh 30.14 in1020.7 mb 0.00 in0.0 mm 0.00 in/hr0.0 mm/hr 0.00 in0.0 mm
03:47 AM 25.2°F-3.8°C 21.9°F-5.6°C 87% 10.0 mph WNW16.1 kmh WNW 18.0 mph29.0 kmh 30.14 in1020.7 mb 0.00 in0.0 mm 0.00 in/hr0.0 mm/hr 0.00 in0.0 mm
03:48 AM 25.2°F-3.8°C 21.9°F-5.6°C 87% 11.0 mph WNW17.7 kmh WNW 18.0 mph29.0 kmh 30.14 in1020.7 mb 0.00 in0.0 mm 0.00 in/hr0.0 mm/hr 0.00 in0.0 mm
03:50 AM 25.1°F-3.8°C 21.8°F-5.7°C 87% 12.0 mph WNW19.3 kmh WNW 18.0 mph29.0 kmh 30.14 in1020.7 mb 0.00 in0.0 mm 0.00 in/hr0.0 mm/hr 0.00 in0.0 mm
03:51 AM 25.2°F-3.8°C 21.9°F-5.6°C 87% 16.0 mph NW25.7 kmh NW 18.0 mph29.0 kmh 30.14 in1020.7 mb 0.00 in0.0 mm 0.00 in/hr0.0 mm/hr 0.00 in0.0 mm
03:53 AM 25.2°F-3.8°C 21.9°F-5.6°C 87% 12.0 mph WNW19.3 kmh WNW 18.0 mph29.0 kmh 30.14 in1020.7 mb 0.00 in0.0 mm 0.00 in/hr0.0 mm/hr 0.00 in0.0 mm
03:55 AM 25.2°F-3.8°C 21.9°F-5.6°C 87% 11.0 mph WNW17.7 kmh WNW 18.0 mph29.0 kmh 30.14 in1020.7 mb 0.00 in0.0 mm 0.00 in/hr0.0 mm/hr 0.00 in0.0 mm
03:56 AM 25.2°F-3.8°C 21.9°F-5.6°C 87% 9.0 mph WNW14.5 kmh WNW 18.0 mph29.0 kmh 30.14 in1020.7 mb 0.00 in0.0 mm 0.00 in/hr0.0 mm/hr 0.00 in0.0 mm
03:57 AM 25.2°F-3.8°C 21.9°F-5.6°C 87% 11.0 mph WNW17.7 kmh WNW 18.0 mph29.0 kmh 30.14 in1020.7 mb 0.00 in0.0 mm 0.00 in/hr0.0 mm/hr 0.00 in0.0 mm
03:59 AM 25.2°F-3.8°C 21.9°F-5.6°C 87% 13.0 mph NW20.9 kmh NW 18.0 mph29.0 kmh 30.14 in1020.7 mb 0.00 in0.0 mm 0.00 in/hr0.0 mm/hr 0.00 in0.0 mm
04:00 AM 25.2°F-3.8°C 21.9°F-5.6°C 87% 12.0 mph NW19.3 kmh NW 18.0 mph29.0 kmh 30.14 in1020.7 mb 0.00 in0.0 mm 0.00 in/hr0.0 mm/hr 0.00 in0.0 mm
04:02 AM 25.2°F-3.8°C 21.9°F-5.6°C 87% 14.0 mph WNW22.5 kmh WNW 17.0 mph27.4 kmh 30.14 in1020.7 mb 0.00 in0.0 mm 0.00 in/hr0.0 mm/hr 0.00 in0.0 mm
04:03 AM 25.2°F-3.8°C 21.9°F-5.6°C 87% 10.0 mph WNW16.1 kmh WNW 17.0 mph27.4 kmh 30.14 in1020.7 mb 0.00 in0.0 mm 0.00 in/hr0.0 mm/hr 0.00 in0.0 mm
04:05 AM 25.2°F-3.8°C 21.9°F-5.6°C 87% 10.0 mph WNW16.1 kmh WNW 17.0 mph27.4 kmh 30.14 in1020.7 mb 0.00 in0.0 mm 0.00 in/hr0.0 mm/hr 0.00 in0.0 mm
04:06 AM 25.2°F-3.8°C 22.2°F-5.4°C 88% 10.0 mph WNW16.1 kmh WNW 17.0 mph27.4 kmh 30.14 in1020.7 mb 0.00 in0.0 mm 0.00 in/hr0.0 mm/hr 0.00 in0.0 mm
04:08 AM 25.2°F-3.8°C 22.2°F-5.4°C 88% 11.0 mph WNW17.7 kmh WNW 17.0 mph27.4 kmh 30.14 in1020.7 mb 0.00 in0.0 mm 0.00 in/hr0.0 mm/hr 0.00 in0.0 mm
04:10 AM 25.2°F-3.8°C 22.2°F-5.4°C 88% 12.0 mph WNW19.3 kmh WNW 17.0 mph27.4 kmh 30.14 in1020.7 mb 0.00 in0.0 mm 0.00 in/hr0.0 mm/hr 0.00 in0.0 mm
04:11 AM 25.2°F-3.8°C 22.2°F-5.4°C 88% 12.0 mph WNW19.3 kmh WNW 17.0 mph27.4 kmh 30.14 in1020.7 mb 0.00 in0.0 mm 0.00 in/hr0.0 mm/hr 0.00 in0.0 mm
04:12 AM 25.2°F-3.8°C 22.2°F-5.4°C 88% 8.0 mph WNW12.9 kmh WNW 17.0 mph27.4 kmh 30.14 in1020.7 mb 0.00 in0.0 mm 0.00 in/hr0.0 mm/hr 0.00 in0.0 mm
04:13 AM 25.2°F-3.8°C 22.2°F-5.4°C 88% 11.0 mph WNW17.7 kmh WNW 17.0 mph27.4 kmh 30.14 in1020.7 mb 0.00 in0.0 mm 0.00 in/hr0.0 mm/hr 0.00 in0.0 mm
04:14 AM 25.2°F-3.8°C 22.2°F-5.4°C 88% 8.0 mph W12.9 kmh W 17.0 mph27.4 kmh 30.14 in1020.7 mb 0.00 in0.0 mm 0.00 in/hr0.0 mm/hr 0.00 in0.0 mm
04:15 AM 25.2°F-3.8°C 22.2°F-5.4°C 88% 13.0 mph WNW20.9 kmh WNW 17.0 mph27.4 kmh 30.14 in1020.7 mb 0.00 in0.0 mm 0.00 in/hr0.0 mm/hr 0.00 in0.0 mm
04:16 AM 25.2°F-3.8°C 22.2°F-5.4°C 88% 10.0 mph W16.1 kmh W 17.0 mph27.4 kmh 30.14 in1020.7 mb 0.00 in0.0 mm 0.00 in/hr0.0 mm/hr 0.00 in0.0 mm
04:17 AM 25.2°F-3.8°C 22.2°F-5.4°C 88% 7.0 mph WNW11.3 kmh WNW 17.0 mph27.4 kmh 30.14 in1020.7 mb 0.00 in0.0 mm 0.00 in/hr0.0 mm/hr 0.00 in0.0 mm
04:19 AM 25.2°F-3.8°C 22.2°F-5.4°C 88% 10.0 mph WNW16.1 kmh WNW 17.0 mph27.4 kmh 30.14 in1020.7 mb 0.00 in0.0 mm 0.00 in/hr0.0 mm/hr 0.00 in0.0 mm
04:20 AM 25.2°F-3.8°C 22.2°F-5.4°C 88% 10.0 mph WNW16.1 kmh WNW 17.0 mph27.4 kmh 30.14 in1020.7 mb 0.00 in0.0 mm 0.00 in/hr0.0 mm/hr 0.00 in0.0 mm
04:21 AM 25.2°F-3.8°C 22.2°F-5.4°C 88% 12.0 mph NW19.3 kmh NW 17.0 mph27.4 kmh 30.14 in1020.7 mb 0.00 in0.0 mm 0.00 in/hr0.0 mm/hr 0.00 in0.0 mm
04:22 AM 25.2°F-3.8°C 22.2°F-5.4°C 88% 9.0 mph WNW14.5 kmh WNW 17.0 mph27.4 kmh 30.14 in1020.7 mb 0.00 in0.0 mm 0.00 in/hr0.0 mm/hr 0.00 in0.0 mm
04:24 AM 25.2°F-3.8°C 22.2°F-5.4°C 88% 8.0 mph WNW12.9 kmh WNW 17.0 mph27.4 kmh 30.15 in1021.0 mb 0.00 in0.0 mm 0.00 in/hr0.0 mm/hr 0.00 in0.0 mm
04:26 AM 25.2°F-3.8°C 22.2°F-5.4°C 88% 3.0 mph W4.8 kmh W 17.0 mph27.4 kmh 30.15 in1021.0 mb 0.00 in0.0 mm 0.00 in/hr0.0 mm/hr 0.00 in0.0 mm
04:27 AM 25.2°F-3.8°C 22.2°F-5.4°C 88% 9.0 mph WNW14.5 kmh WNW 17.0 mph27.4 kmh 30.15 in1021.0 mb 0.00 in0.0 mm 0.00 in/hr0.0 mm/hr 0.00 in0.0 mm
04:29 AM 25.2°F-3.8°C 22.2°F-5.4°C 88% 5.0 mph W8.0 kmh W 17.0 mph27.4 kmh 30.15 in1021.0 mb 0.00 in0.0 mm 0.00 in/hr0.0 mm/hr 0.00 in0.0 mm
04:30 AM 25.2°F-3.8°C 22.2°F-5.4°C 88% 7.0 mph W11.3 kmh W 17.0 mph27.4 kmh 30.15 in1021.0 mb 0.00 in0.0 mm 0.00 in/hr0.0 mm/hr 0.00 in0.0 mm
04:31 AM 25.2°F-3.8°C 22.2°F-5.4°C 88% 11.0 mph WNW17.7 kmh WNW 11.0 mph17.7 kmh 30.15 in1021.0 mb 0.00 in0.0 mm 0.00 in/hr0.0 mm/hr 0.00 in0.0 mm
04:33 AM 25.2°F-3.8°C 22.2°F-5.4°C 88% 9.0 mph W14.5 kmh W 11.0 mph17.7 kmh 30.15 in1021.0 mb 0.00 in0.0 mm 0.00 in/hr0.0 mm/hr 0.00 in0.0 mm
04:34 AM 25.1°F-3.8°C 22.1°F-5.5°C 88% 7.0 mph NW11.3 kmh NW 11.0 mph17.7 kmh 30.15 in1021.0 mb 0.00 in0.0 mm 0.00 in/hr0.0 mm/hr 0.00 in0.0 mm
04:36 AM 25.1°F-3.8°C 22.1°F-5.5°C 88% 6.0 mph WNW9.7 kmh WNW 11.0 mph17.7 kmh 30.15 in1021.0 mb 0.00 in0.0 mm 0.00 in/hr0.0 mm/hr 0.00 in0.0 mm
04:38 AM 25.1°F-3.8°C 22.1°F-5.5°C 88% 8.0 mph NW12.9 kmh NW 11.0 mph17.7 kmh 30.15 in1021.0 mb 0.00 in0.0 mm 0.00 in/hr0.0 mm/hr 0.00 in0.0 mm
04:40 AM 25.1°F-3.8°C 22.3°F-5.4°C 89% 5.0 mph WNW8.0 kmh WNW 11.0 mph17.7 kmh 30.15 in1021.0 mb 0.00 in0.0 mm 0.00 in/hr0.0 mm/hr 0.00 in0.0 mm
04:41 AM 25.1°F-3.8°C 22.1°F-5.5°C 88% 7.0 mph NW11.3 kmh NW 12.0 mph19.3 kmh 30.15 in1021.0 mb 0.00 in0.0 mm 0.00 in/hr0.0 mm/hr 0.00 in0.0 mm
04:43 AM 25.0°F-3.9°C 22.0°F-5.6°C 88% 6.0 mph W9.7 kmh W 12.0 mph19.3 kmh 30.15 in1021.0 mb 0.00 in0.0 mm 0.00 in/hr0.0 mm/hr 0.00 in0.0 mm
04:45 AM 25.0°F-3.9°C 22.2°F-5.4°C 89% 7.0 mph WNW11.3 kmh WNW 12.0 mph19.3 kmh 30.15 in1021.0 mb 0.00 in0.0 mm 0.00 in/hr0.0 mm/hr 0.00 in0.0 mm
04:46 AM 25.0°F-3.9°C 22.2°F-5.4°C 89% 11.0 mph W17.7 kmh W 12.0 mph19.3 kmh 30.15 in1021.0 mb 0.00 in0.0 mm 0.00 in/hr0.0 mm/hr 0.00 in0.0 mm
04:47 AM 25.0°F-3.9°C 22.2°F-5.4°C 89% 4.0 mph W6.4 kmh W 12.0 mph19.3 kmh 30.15 in1021.0 mb 0.00 in0.0 mm 0.00 in/hr0.0 mm/hr 0.00 in0.0 mm
04:49 AM 25.0°F-3.9°C 22.2°F-5.4°C 89% 7.0 mph WNW11.3 kmh WNW 13.0 mph20.9 kmh 30.15 in1021.0 mb 0.00 in0.0 mm 0.00 in/hr0.0 mm/hr 0.00 in0.0 mm
04:50 AM 25.1°F-3.8°C 22.3°F-5.4°C 89% 4.0 mph W6.4 kmh W 13.0 mph20.9 kmh 30.15 in1021.0 mb 0.00 in0.0 mm 0.00 in/hr0.0 mm/hr 0.00 in0.0 mm
04:51 AM 25.1°F-3.8°C 22.3°F-5.4°C 89% 6.0 mph W9.7 kmh W 13.0 mph20.9 kmh 30.15 in1021.0 mb 0.00 in0.0 mm 0.00 in/hr0.0 mm/hr 0.00 in0.0 mm
04:52 AM 25.1°F-3.8°C 22.3°F-5.4°C 89% 6.0 mph WNW9.7 kmh WNW 13.0 mph20.9 kmh 30.15 in1021.0 mb 0.00 in0.0 mm 0.00 in/hr0.0 mm/hr 0.00 in0.0 mm
04:54 AM 25.1°F-3.8°C 22.3°F-5.4°C 89% 8.0 mph W12.9 kmh W 13.0 mph20.9 kmh 30.16 in1021.3 mb 0.00 in0.0 mm 0.00 in/hr0.0 mm/hr 0.00 in0.0 mm
04:55 AM 25.1°F-3.8°C 22.3°F-5.4°C 89% 5.0 mph W8.0 kmh W 13.0 mph20.9 kmh 30.16 in1021.3 mb 0.00 in0.0 mm 0.00 in/hr0.0 mm/hr 0.00 in0.0 mm
04:57 AM 25.1°F-3.8°C 22.3°F-5.4°C 89% 10.0 mph W16.1 kmh W 13.0 mph20.9 kmh 30.16 in1021.3 mb 0.00 in0.0 mm 0.00 in/hr0.0 mm/hr 0.00 in0.0 mm
04:58 AM 25.1°F-3.8°C 22.3°F-5.4°C 89% 9.0 mph WNW14.5 kmh WNW 13.0 mph20.9 kmh 30.16 in1021.3 mb 0.00 in0.0 mm 0.00 in/hr0.0 mm/hr 0.00 in0.0 mm
04:59 AM 25.1°F-3.8°C 22.3°F-5.4°C 89% 8.0 mph WNW12.9 kmh WNW 13.0 mph20.9 kmh 30.16 in1021.3 mb 0.00 in0.0 mm 0.00 in/hr0.0 mm/hr 0.00 in0.0 mm
05:00 AM 25.1°F-3.8°C 22.3°F-5.4°C 89% 8.0 mph WNW12.9 kmh WNW 15.0 mph24.1 kmh 30.16 in1021.3 mb 0.00 in0.0 mm 0.00 in/hr0.0 mm/hr 0.00 in0.0 mm
05:01 AM 25.2°F-3.8°C 22.4°F-5.3°C 89% 12.0 mph WNW19.3 kmh WNW 12.0 mph19.3 kmh 30.16 in1021.3 mb 0.00 in0.0 mm 0.00 in/hr0.0 mm/hr 0.00 in0.0 mm
05:02 AM 25.1°F-3.8°C 22.3°F-5.4°C 89% 11.0 mph NW17.7 kmh NW 12.0 mph19.3 kmh 30.16 in1021.3 mb 0.00 in0.0 mm 0.00 in/hr0.0 mm/hr 0.00 in0.0 mm
05:03 AM 25.2°F-3.8°C 22.4°F-5.3°C 89% 10.0 mph W16.1 kmh W 12.0 mph19.3 kmh 30.16 in1021.3 mb 0.00 in0.0 mm 0.00 in/hr0.0 mm/hr 0.00 in0.0 mm
05:05 AM 25.2°F-3.8°C 22.4°F-5.3°C 89% 10.0 mph NW16.1 kmh NW 14.0 mph22.5 kmh 30.16 in1021.3 mb 0.00 in0.0 mm 0.00 in/hr0.0 mm/hr 0.00 in0.0 mm
05:06 AM 25.2°F-3.8°C 22.4°F-5.3°C 89% 10.0 mph WNW16.1 kmh WNW 14.0 mph22.5 kmh 30.16 in1021.3 mb 0.00 in0.0 mm 0.00 in/hr0.0 mm/hr 0.00 in0.0 mm
05:08 AM 25.2°F-3.8°C 22.4°F-5.3°C 89% 8.0 mph NW12.9 kmh NW 14.0 mph22.5 kmh 30.16 in1021.3 mb 0.00 in0.0 mm 0.00 in/hr0.0 mm/hr 0.00 in0.0 mm
05:10 AM 25.2°F-3.8°C 22.4°F-5.3°C 89% 8.0 mph WNW12.9 kmh WNW 14.0 mph22.5 kmh 30.16 in1021.3 mb 0.00 in0.0 mm 0.00 in/hr0.0 mm/hr 0.00 in0.0 mm
05:11 AM 25.2°F-3.8°C 22.4°F-5.3°C 89% 10.0 mph W16.1 kmh W 14.0 mph22.5 kmh 30.16 in1021.3 mb 0.00 in0.0 mm 0.00 in/hr0.0 mm/hr 0.00 in0.0 mm
05:13 AM 25.2°F-3.8°C 22.4°F-5.3°C 89% 3.0 mph W4.8 kmh W 14.0 mph22.5 kmh 30.16 in1021.3 mb 0.00 in0.0 mm 0.00 in/hr0.0 mm/hr 0.00 in0.0 mm
05:14 AM 25.2°F-3.8°C 22.4°F-5.3°C 89% 9.0 mph NW14.5 kmh NW 14.0 mph22.5 kmh 30.16 in1021.3 mb 0.00 in0.0 mm 0.00 in/hr0.0 mm/hr 0.00 in0.0 mm
05:15 AM 25.3°F-3.7°C 22.3°F-5.4°C 88% 9.0 mph NW14.5 kmh NW 14.0 mph22.5 kmh 30.16 in1021.3 mb 0.00 in0.0 mm 0.00 in/hr0.0 mm/hr 0.00 in0.0 mm
05:16 AM 25.2°F-3.8°C 22.2°F-5.4°C 88% 9.0 mph WNW14.5 kmh WNW 14.0 mph22.5 kmh 30.16 in1021.3 mb 0.00 in0.0 mm 0.00 in/hr0.0 mm/hr 0.00 in0.0 mm
05:18 AM 25.3°F-3.7°C 22.3°F-5.4°C 88% 4.0 mph WNW6.4 kmh WNW 14.0 mph22.5 kmh 30.16 in1021.3 mb 0.00 in0.0 mm 0.00 in/hr0.0 mm/hr 0.00 in0.0 mm
05:19 AM 25.3°F-3.7°C 22.3°F-5.4°C 88% 6.0 mph WNW9.7 kmh WNW 14.0 mph22.5 kmh 30.16 in1021.3 mb 0.00 in0.0 mm 0.00 in/hr0.0 mm/hr 0.00 in0.0 mm
05:20 AM 25.3°F-3.7°C 22.3°F-5.4°C 88% 9.0 mph W14.5 kmh W 14.0 mph22.5 kmh 30.16 in1021.3 mb 0.00 in0.0 mm 0.00 in/hr0.0 mm/hr 0.00 in0.0 mm
05:22 AM 25.3°F-3.7°C 22.3°F-5.4°C 88% 7.0 mph WNW11.3 kmh WNW 14.0 mph22.5 kmh 30.17 in1021.7 mb 0.00 in0.0 mm 0.00 in/hr0.0 mm/hr 0.00 in0.0 mm
05:24 AM 25.3°F-3.7°C 22.3°F-5.4°C 88% 9.0 mph WNW14.5 kmh WNW 14.0 mph22.5 kmh 30.17 in1021.7 mb 0.00 in0.0 mm 0.00 in/hr0.0 mm/hr 0.00 in0.0 mm
05:26 AM 25.3°F-3.7°C 22.5°F-5.3°C 89% 9.0 mph WNW14.5 kmh WNW 14.0 mph22.5 kmh 30.17 in1021.7 mb 0.00 in0.0 mm 0.00 in/hr0.0 mm/hr 0.00 in0.0 mm
05:27 AM 25.3°F-3.7°C 22.5°F-5.3°C 89% 6.0 mph WNW9.7 kmh WNW 14.0 mph22.5 kmh 30.17 in1021.7 mb 0.00 in0.0 mm 0.00 in/hr0.0 mm/hr 0.00 in0.0 mm
05:29 AM 25.3°F-3.7°C 22.5°F-5.3°C 89% 4.0 mph WNW6.4 kmh WNW 14.0 mph22.5 kmh 30.17 in1021.7 mb 0.00 in0.0 mm 0.00 in/hr0.0 mm/hr 0.00 in0.0 mm
05:30 AM 25.3°F-3.7°C 22.5°F-5.3°C 89% 8.0 mph WNW12.9 kmh WNW 14.0 mph22.5 kmh 30.17 in1021.7 mb 0.00 in0.0 mm 0.00 in/hr0.0 mm/hr 0.00 in0.0 mm
05:32 AM 25.2°F-3.8°C 22.4°F-5.3°C 89% 4.0 mph WNW6.4 kmh WNW 8.0 mph12.9 kmh 30.17 in1021.7 mb 0.00 in0.0 mm 0.00 in/hr0.0 mm/hr 0.00 in0.0 mm
05:34 AM 25.2°F-3.8°C 22.4°F-5.3°C 89% 2.0 mph WNW3.2 kmh WNW 8.0 mph12.9 kmh 30.17 in1021.7 mb 0.00 in0.0 mm 0.00 in/hr0.0 mm/hr 0.00 in0.0 mm
05:35 AM 25.2°F-3.8°C 22.4°F-5.3°C 89% 5.0 mph WNW8.0 kmh WNW 8.0 mph12.9 kmh 30.17 in1021.7 mb 0.00 in0.0 mm 0.00 in/hr0.0 mm/hr 0.00 in0.0 mm
05:37 AM 25.2°F-3.8°C 22.4°F-5.3°C 89% 6.0 mph WNW9.7 kmh WNW 8.0 mph12.9 kmh 30.18 in1022.0 mb 0.00 in0.0 mm 0.00 in/hr0.0 mm/hr 0.00 in0.0 mm
05:38 AM 25.2°F-3.8°C 22.4°F-5.3°C 89% 6.0 mph NW9.7 kmh NW 8.0 mph12.9 kmh 30.18 in1022.0 mb 0.00 in0.0 mm 0.00 in/hr0.0 mm/hr 0.00 in0.0 mm
05:40 AM 25.1°F-3.8°C 22.3°F-5.4°C 89% 1.0 mph W1.6 kmh W 8.0 mph12.9 kmh 30.18 in1022.0 mb 0.00 in0.0 mm 0.00 in/hr0.0 mm/hr 0.00 in0.0 mm
05:42 AM 25.1°F-3.8°C 22.3°F-5.4°C 89% 4.0 mph WNW6.4 kmh WNW 8.0 mph12.9 kmh 30.18 in1022.0 mb 0.00 in0.0 mm 0.00 in/hr0.0 mm/hr 0.00 in0.0 mm
05:43 AM 25.1°F-3.8°C 22.3°F-5.4°C 89% 4.0 mph NW6.4 kmh NW 8.0 mph12.9 kmh 30.18 in1022.0 mb 0.00 in0.0 mm 0.00 in/hr0.0 mm/hr 0.00 in0.0 mm
05:44 AM 25.0°F-3.9°C 22.2°F-5.4°C 89% 2.0 mph NW3.2 kmh NW 8.0 mph12.9 kmh 30.18 in1022.0 mb 0.00 in0.0 mm 0.00 in/hr0.0 mm/hr 0.00 in0.0 mm
05:45 AM 25.0°F-3.9°C 22.2°F-5.4°C 89% Calm Calm 8.0 mph12.9 kmh 30.18 in1022.0 mb 0.00 in0.0 mm 0.00 in/hr0.0 mm/hr 0.00 in0.0 mm
05:47 AM 25.0°F-3.9°C 22.2°F-5.4°C 89% 2.0 mph NW3.2 kmh NW 8.0 mph12.9 kmh 30.18 in1022.0 mb 0.00 in0.0 mm 0.00 in/hr0.0 mm/hr 0.00 in0.0 mm
05:48 AM 24.9°F-3.9°C 22.1°F-5.5°C 89% 1.0 mph NW1.6 kmh NW 8.0 mph12.9 kmh 30.18 in1022.0 mb 0.00 in0.0 mm 0.00 in/hr0.0 mm/hr 0.00 in0.0 mm
05:50 AM 24.9°F-3.9°C 22.1°F-5.5°C 89% Calm Calm 8.0 mph12.9 kmh 30.18 in1022.0 mb 0.00 in0.0 mm 0.00 in/hr0.0 mm/hr 0.00 in0.0 mm
05:51 AM 24.9°F-3.9°C 22.1°F-5.5°C 89% Calm Calm 8.0 mph12.9 kmh 30.18 in1022.0 mb 0.00 in0.0 mm 0.00 in/hr0.0 mm/hr 0.00 in0.0 mm
05:53 AM 24.8°F-4.0°C 22.0°F-5.6°C 89% Calm Calm 8.0 mph12.9 kmh 30.18 in1022.0 mb 0.00 in0.0 mm 0.00 in/hr0.0 mm/hr 0.00 in0.0 mm
05:55 AM 24.8°F-4.0°C 22.3°F-5.4°C 90% Calm Calm 8.0 mph12.9 kmh 30.18 in1022.0 mb 0.00 in0.0 mm 0.00 in/hr0.0 mm/hr 0.00 in0.0 mm
05:56 AM 24.8°F-4.0°C 22.3°F-5.4°C 90% Calm Calm 8.0 mph12.9 kmh 30.18 in1022.0 mb 0.00 in0.0 mm 0.00 in/hr0.0 mm/hr 0.00 in0.0 mm
05:58 AM 24.7°F-4.1°C 22.2°F-5.4°C 90% Calm Calm 8.0 mph12.9 kmh 30.18 in1022.0 mb 0.00 in0.0 mm 0.00 in/hr0.0 mm/hr 0.00 in0.0 mm
06:00 AM 24.8°F-4.0°C 22.3°F-5.4°C 90% 3.0 mph WNW4.8 kmh WNW 8.0 mph12.9 kmh 30.18 in1022.0 mb 0.00 in0.0 mm 0.00 in/hr0.0 mm/hr 0.00 in0.0 mm
06:01 AM 24.7°F-4.1°C 22.2°F-5.4°C 90% 1.0 mph WNW1.6 kmh WNW 3.0 mph4.8 kmh 30.18 in1022.0 mb 0.00 in0.0 mm 0.00 in/hr0.0 mm/hr 0.00 in0.0 mm
06:03 AM 24.7°F-4.1°C 22.2°F-5.4°C 90% Calm Calm 3.0 mph4.8 kmh 30.18 in1022.0 mb 0.00 in0.0 mm 0.00 in/hr0.0 mm/hr 0.00 in0.0 mm
06:05 AM 24.7°F-4.1°C 22.2°F-5.4°C 90% Calm Calm 3.0 mph4.8 kmh 30.18 in1022.0 mb 0.00 in0.0 mm 0.00 in/hr0.0 mm/hr 0.00 in0.0 mm
06:06 AM 24.8°F-4.0°C 22.3°F-5.4°C 90% 1.0 mph WNW1.6 kmh WNW 3.0 mph4.8 kmh 30.18 in1022.0 mb 0.00 in0.0 mm 0.00 in/hr0.0 mm/hr 0.00 in0.0 mm
06:07 AM 24.8°F-4.0°C 22.6°F-5.2°C 91% 1.0 mph WNW1.6 kmh WNW 3.0 mph4.8 kmh 30.19 in1022.4 mb 0.00 in0.0 mm 0.00 in/hr0.0 mm/hr 0.00 in0.0 mm
06:09 AM 24.8°F-4.0°C 22.6°F-5.2°C 91% 2.0 mph W3.2 kmh W 3.0 mph4.8 kmh 30.18 in1022.0 mb 0.00 in0.0 mm 0.00 in/hr0.0 mm/hr 0.00 in0.0 mm
06:10 AM 24.8°F-4.0°C 22.6°F-5.2°C 91% 2.0 mph W3.2 kmh W 3.0 mph4.8 kmh 30.18 in1022.0 mb 0.00 in0.0 mm 0.00 in/hr0.0 mm/hr 0.00 in0.0 mm
06:12 AM 24.8°F-4.0°C 22.6°F-5.2°C 91% 1.0 mph W1.6 kmh W 4.0 mph6.4 kmh 30.18 in1022.0 mb 0.00 in0.0 mm 0.00 in/hr0.0 mm/hr 0.00 in0.0 mm
06:13 AM 24.9°F-3.9°C 22.7°F-5.2°C 91% 2.0 mph W3.2 kmh W 4.0 mph6.4 kmh 30.18 in1022.0 mb 0.00 in0.0 mm 0.00 in/hr0.0 mm/hr 0.00 in0.0 mm
06:15 AM 24.9°F-3.9°C 22.7°F-5.2°C 91% 5.0 mph W8.0 kmh W 6.0 mph9.7 kmh 30.18 in1022.0 mb 0.00 in0.0 mm 0.00 in/hr0.0 mm/hr 0.00 in0.0 mm
06:16 AM 25.0°F-3.9°C 22.8°F-5.1°C 91% 2.0 mph W3.2 kmh W 6.0 mph9.7 kmh 30.19 in1022.4 mb 0.00 in0.0 mm 0.00 in/hr0.0 mm/hr 0.00 in0.0 mm
06:18 AM 25.1°F-3.8°C 22.9°F-5.1°C 91% 2.0 mph WSW3.2 kmh WSW 6.0 mph9.7 kmh 30.19 in1022.4 mb 0.00 in0.0 mm 0.00 in/hr0.0 mm/hr 0.00 in0.0 mm
06:20 AM 25.2°F-3.8°C 23.0°F-5.0°C 91% 1.0 mph W1.6 kmh W 6.0 mph9.7 kmh 30.18 in1022.0 mb 0.00 in0.0 mm 0.00 in/hr0.0 mm/hr 0.00 in0.0 mm
06:22 AM 25.2°F-3.8°C 23.0°F-5.0°C 91% 1.0 mph WSW1.6 kmh WSW 6.0 mph9.7 kmh 30.18 in1022.0 mb 0.00 in0.0 mm 0.00 in/hr0.0 mm/hr 0.00 in0.0 mm
06:23 AM 25.3°F-3.7°C 23.1°F-4.9°C 91% 2.0 mph W3.2 kmh W 6.0 mph9.7 kmh 30.18 in1022.0 mb 0.00 in0.0 mm 0.00 in/hr0.0 mm/hr 0.00 in0.0 mm
06:25 AM 25.4°F-3.7°C 23.1°F-4.9°C 91% 5.0 mph WSW8.0 kmh WSW 6.0 mph9.7 kmh 30.19 in1022.4 mb 0.00 in0.0 mm 0.00 in/hr0.0 mm/hr 0.00 in0.0 mm
06:26 AM 25.4°F-3.7°C 23.1°F-4.9°C 91% 4.0 mph WSW6.4 kmh WSW 7.0 mph11.3 kmh 30.19 in1022.4 mb 0.00 in0.0 mm 0.00 in/hr0.0 mm/hr 0.00 in0.0 mm
06:27 AM 25.4°F-3.7°C 23.1°F-4.9°C 91% 2.0 mph WSW3.2 kmh WSW 7.0 mph11.3 kmh 30.19 in1022.4 mb 0.00 in0.0 mm 0.00 in/hr0.0 mm/hr 0.00 in0.0 mm
06:29 AM 25.6°F-3.6°C 23.3°F-4.8°C 91% 3.0 mph WSW4.8 kmh WSW 7.0 mph11.3 kmh 30.19 in1022.4 mb 0.00 in0.0 mm 0.00 in/hr0.0 mm/hr 0.00 in0.0 mm
06:30 AM 25.6°F-3.6°C 23.3°F-4.8°C 91% 1.0 mph WSW1.6 kmh WSW 7.0 mph11.3 kmh 30.19 in1022.4 mb 0.00 in0.0 mm 0.00 in/hr0.0 mm/hr 0.00 in0.0 mm
06:31 AM 25.6°F-3.6°C 23.3°F-4.8°C 91% 2.0 mph WSW3.2 kmh WSW 2.0 mph3.2 kmh 30.19 in1022.4 mb 0.00 in0.0 mm 0.00 in/hr0.0 mm/hr 0.00 in0.0 mm
06:32 AM 25.7°F-3.5°C 23.4°F-4.8°C 91% 3.0 mph WSW4.8 kmh WSW 5.0 mph8.0 kmh 30.19 in1022.4 mb 0.00 in0.0 mm 0.00 in/hr0.0 mm/hr 0.00 in0.0 mm
06:34 AM 25.7°F-3.5°C 23.4°F-4.8°C 91% 1.0 mph SW1.6 kmh SW 5.0 mph8.0 kmh 30.19 in1022.4 mb 0.00 in0.0 mm 0.00 in/hr0.0 mm/hr 0.00 in0.0 mm
06:36 AM 25.8°F-3.4°C 23.5°F-4.7°C 91% Calm Calm 5.0 mph8.0 kmh 30.19 in1022.4 mb 0.00 in0.0 mm 0.00 in/hr0.0 mm/hr 0.00 in0.0 mm
06:37 AM 25.8°F-3.4°C 23.5°F-4.7°C 91% 1.0 mph W1.6 kmh W 5.0 mph8.0 kmh 30.19 in1022.4 mb 0.00 in0.0 mm 0.00 in/hr0.0 mm/hr 0.00 in0.0 mm
06:39 AM 25.8°F-3.4°C 23.5°F-4.7°C 91% Calm Calm 5.0 mph8.0 kmh 30.19 in1022.4 mb 0.00 in0.0 mm 0.00 in/hr0.0 mm/hr 0.00 in0.0 mm
06:40 AM 25.8°F-3.4°C 23.5°F-4.7°C 91% Calm Calm 5.0 mph8.0 kmh 30.19 in1022.4 mb 0.00 in0.0 mm 0.00 in/hr0.0 mm/hr 0.00 in0.0 mm
06:42 AM 25.9°F-3.4°C 23.6°F-4.7°C 91% Calm Calm 5.0 mph8.0 kmh 30.19 in1022.4 mb 0.00 in0.0 mm 0.00 in/hr0.0 mm/hr 0.00 in0.0 mm
06:44 AM 25.9°F-3.4°C 23.6°F-4.7°C 91% Calm Calm 5.0 mph8.0 kmh 30.19 in1022.4 mb 0.00 in0.0 mm 0.00 in/hr0.0 mm/hr 0.00 in0.0 mm
06:45 AM 26.0°F-3.3°C 23.7°F-4.6°C 91% Calm Calm 5.0 mph8.0 kmh 30.19 in1022.4 mb 0.00 in0.0 mm 0.00 in/hr0.0 mm/hr 0.00 in0.0 mm
06:46 AM 26.0°F-3.3°C 23.7°F-4.6°C 91% 2.0 mph NW3.2 kmh NW 5.0 mph8.0 kmh 30.18 in1022.0 mb 0.00 in0.0 mm 0.00 in/hr0.0 mm/hr 0.00 in0.0 mm
06:47 AM 26.0°F-3.3°C 23.7°F-4.6°C 91% Calm Calm 5.0 mph8.0 kmh 30.19 in1022.4 mb 0.00 in0.0 mm 0.00 in/hr0.0 mm/hr 0.00 in0.0 mm
06:49 AM 26.1°F-3.3°C 23.8°F-4.6°C 91% 1.0 mph WSW1.6 kmh WSW 5.0 mph8.0 kmh 30.19 in1022.4 mb 0.00 in0.0 mm 0.00 in/hr0.0 mm/hr 0.00 in0.0 mm
06:50 AM 26.1°F-3.3°C 23.8°F-4.6°C 91% Calm Calm 5.0 mph8.0 kmh 30.19 in1022.4 mb 0.00 in0.0 mm 0.00 in/hr0.0 mm/hr 0.00 in0.0 mm
06:51 AM 26.1°F-3.3°C 23.8°F-4.6°C 91% Calm Calm 5.0 mph8.0 kmh 30.19 in1022.4 mb 0.00 in0.0 mm 0.00 in/hr0.0 mm/hr 0.00 in0.0 mm
06:52 AM 26.1°F-3.3°C 23.8°F-4.6°C 91% Calm Calm 5.0 mph8.0 kmh 30.19 in1022.4 mb 0.00 in0.0 mm 0.00 in/hr0.0 mm/hr 0.00 in0.0 mm
06:53 AM 26.1°F-3.3°C 23.8°F-4.6°C 91% Calm Calm 5.0 mph8.0 kmh 30.19 in1022.4 mb 0.00 in0.0 mm 0.00 in/hr0.0 mm/hr 0.00 in0.0 mm
06:54 AM 26.1°F-3.3°C 23.8°F-4.6°C 91% Calm Calm 5.0 mph8.0 kmh 30.19 in1022.4 mb 0.00 in0.0 mm 0.00 in/hr0.0 mm/hr 0.00 in0.0 mm
06:55 AM 26.1°F-3.3°C 23.8°F-4.6°C 91% 5.0 mph WNW8.0 kmh WNW 6.0 mph9.7 kmh 30.19 in1022.4 mb 0.00 in0.0 mm 0.00 in/hr0.0 mm/hr 0.00 in0.0 mm
06:56 AM 26.2°F-3.2°C 23.9°F-4.5°C 91% 3.0 mph WSW4.8 kmh WSW 6.0 mph9.7 kmh 30.19 in1022.4 mb 0.00 in0.0 mm 0.00 in/hr0.0 mm/hr 0.00 in0.0 mm
06:57 AM 26.2°F-3.2°C 23.9°F-4.5°C 91% 2.0 mph WSW3.2 kmh WSW 6.0 mph9.7 kmh 30.19 in1022.4 mb 0.00 in0.0 mm 0.00 in/hr0.0 mm/hr 0.00 in0.0 mm
06:59 AM 26.2°F-3.2°C 23.9°F-4.5°C 91% 3.0 mph WSW4.8 kmh WSW 6.0 mph9.7 kmh 30.19 in1022.4 mb 0.00 in0.0 mm 0.00 in/hr0.0 mm/hr 0.00 in0.0 mm
07:00 AM 26.2°F-3.2°C 23.9°F-4.5°C 91% 3.0 mph WSW4.8 kmh WSW 6.0 mph9.7 kmh 30.19 in1022.4 mb 0.00 in0.0 mm 0.00 in/hr0.0 mm/hr 0.00 in0.0 mm
07:01 AM 26.2°F-3.2°C 23.9°F-4.5°C 91% 3.0 mph WSW4.8 kmh WSW 3.0 mph4.8 kmh 30.19 in1022.4 mb 0.00 in0.0 mm 0.00 in/hr0.0 mm/hr 0.00 in0.0 mm
07:03 AM 26.2°F-3.2°C 23.9°F-4.5°C 91% 3.0 mph WSW4.8 kmh WSW 3.0 mph4.8 kmh 30.19 in1022.4 mb 0.00 in0.0 mm 0.00 in/hr0.0 mm/hr 0.00 in0.0 mm
07:05 AM 26.3°F-3.2°C 23.8°F-4.6°C 90% 4.0 mph WSW6.4 kmh WSW 4.0 mph6.4 kmh 30.19 in1022.4 mb 0.00 in0.0 mm 0.00 in/hr0.0 mm/hr 0.00 in0.0 mm
07:06 AM 26.3°F-3.2°C 23.8°F-4.6°C 90% 2.0 mph WSW3.2 kmh WSW 4.0 mph6.4 kmh 30.19 in1022.4 mb 0.00 in0.0 mm 0.00 in/hr0.0 mm/hr 0.00 in0.0 mm
07:08 AM 26.4°F-3.1°C 24.1°F-4.4°C 91% 3.0 mph W4.8 kmh W 5.0 mph8.0 kmh 30.19 in1022.4 mb 0.00 in0.0 mm 0.00 in/hr0.0 mm/hr 0.00 in0.0 mm
07:10 AM 26.4°F-3.1°C 23.9°F-4.5°C 90% 2.0 mph WSW3.2 kmh WSW 5.0 mph8.0 kmh 30.19 in1022.4 mb 0.00 in0.0 mm 0.00 in/hr0.0 mm/hr 0.00 in0.0 mm
07:11 AM 26.5°F-3.1°C 24.2°F-4.3°C 91% 2.0 mph WSW3.2 kmh WSW 5.0 mph8.0 kmh 30.19 in1022.4 mb 0.00 in0.0 mm 0.00 in/hr0.0 mm/hr 0.00 in0.0 mm
07:13 AM 26.5°F-3.1°C 24.2°F-4.3°C 91% 3.0 mph WSW4.8 kmh WSW 5.0 mph8.0 kmh 30.19 in1022.4 mb 0.00 in0.0 mm 0.00 in/hr0.0 mm/hr 0.00 in0.0 mm
07:15 AM 26.6°F-3.0°C 24.3°F-4.3°C 91% 2.0 mph SW3.2 kmh SW 5.0 mph8.0 kmh 30.19 in1022.4 mb 0.00 in0.0 mm 0.00 in/hr0.0 mm/hr 0.00 in0.0 mm
07:16 AM 26.6°F-3.0°C 24.3°F-4.3°C 91% 3.0 mph SW4.8 kmh SW 5.0 mph8.0 kmh 30.19 in1022.4 mb 0.00 in0.0 mm 0.00 in/hr0.0 mm/hr 0.00 in0.0 mm
07:18 AM 26.7°F-2.9°C 24.4°F-4.2°C 91% 2.0 mph SW3.2 kmh SW 5.0 mph8.0 kmh 30.19 in1022.4 mb 0.00 in0.0 mm 0.00 in/hr0.0 mm/hr 0.00 in0.0 mm
07:19 AM 26.7°F-2.9°C 24.4°F-4.2°C 91% 2.0 mph WSW3.2 kmh WSW 5.0 mph8.0 kmh 30.19 in1022.4 mb 0.00 in0.0 mm 0.00 in/hr0.0 mm/hr 0.00 in0.0 mm
07:20 AM 26.7°F-2.9°C 24.4°F-4.2°C 91% 2.0 mph WSW3.2 kmh WSW 5.0 mph8.0 kmh 30.19 in1022.4 mb 0.00 in0.0 mm 0.00 in/hr0.0 mm/hr 0.00 in0.0 mm
07:21 AM 26.7°F-2.9°C 24.4°F-4.2°C 91% 2.0 mph WSW3.2 kmh WSW 5.0 mph8.0 kmh 30.19 in1022.4 mb 0.00 in0.0 mm 0.00 in/hr0.0 mm/hr 0.00 in0.0 mm
07:22 AM 26.8°F-2.9°C 24.5°F-4.2°C 91% 3.0 mph WSW4.8 kmh WSW 5.0 mph8.0 kmh 30.19 in1022.4 mb 0.00 in0.0 mm 0.00 in/hr0.0 mm/hr 0.00 in0.0 mm
07:23 AM 26.9°F-2.8°C 24.6°F-4.1°C 91% 4.0 mph W6.4 kmh W 5.0 mph8.0 kmh 30.19 in1022.4 mb 0.00 in0.0 mm 0.00 in/hr0.0 mm/hr 0.00 in0.0 mm
07:24 AM 27.0°F-2.8°C 24.7°F-4.1°C 91% 2.0 mph WSW3.2 kmh WSW 5.0 mph8.0 kmh 30.19 in1022.4 mb 0.00 in0.0 mm 0.00 in/hr0.0 mm/hr 0.00 in0.0 mm
07:26 AM 27.1°F-2.7°C 24.8°F-4.0°C 91% 5.0 mph WSW8.0 kmh WSW 5.0 mph8.0 kmh 30.19 in1022.4 mb 0.00 in0.0 mm 0.00 in/hr0.0 mm/hr 0.00 in0.0 mm
07:27 AM 27.2°F-2.7°C 24.9°F-3.9°C 91% 3.0 mph W4.8 kmh W 5.0 mph8.0 kmh 30.19 in1022.4 mb 0.00 in0.0 mm 0.00 in/hr0.0 mm/hr 0.00 in0.0 mm
07:29 AM 27.4°F-2.6°C 24.9°F-3.9°C 90% 3.0 mph W4.8 kmh W 5.0 mph8.0 kmh 30.20 in1022.7 mb 0.00 in0.0 mm 0.00 in/hr0.0 mm/hr 0.00 in0.0 mm
07:30 AM 27.4°F-2.6°C 24.9°F-3.9°C 90% 1.0 mph W1.6 kmh W 5.0 mph8.0 kmh 30.20 in1022.7 mb 0.00 in0.0 mm 0.00 in/hr0.0 mm/hr 0.00 in0.0 mm
07:31 AM 27.5°F-2.5°C 25.0°F-3.9°C 90% 2.0 mph W3.2 kmh W 6.0 mph9.7 kmh 30.19 in1022.4 mb 0.00 in0.0 mm 0.00 in/hr0.0 mm/hr 0.00 in0.0 mm
07:32 AM 27.5°F-2.5°C 25.0°F-3.9°C 90% 1.0 mph W1.6 kmh W 6.0 mph9.7 kmh 30.19 in1022.4 mb 0.00 in0.0 mm 0.00 in/hr0.0 mm/hr 0.00 in0.0 mm
07:34 AM 27.6°F-2.4°C 24.8°F-4.0°C 89% 2.0 mph W3.2 kmh W 6.0 mph9.7 kmh 30.20 in1022.7 mb 0.00 in0.0 mm 0.00 in/hr0.0 mm/hr 0.00 in0.0 mm
07:35 AM 27.6°F-2.4°C 25.1°F-3.8°C 90% 2.0 mph WSW3.2 kmh WSW 6.0 mph9.7 kmh 30.20 in1022.7 mb 0.00 in0.0 mm 0.00 in/hr0.0 mm/hr 0.00 in0.0 mm
07:37 AM 27.6°F-2.4°C 25.1°F-3.8°C 90% 1.0 mph WSW1.6 kmh WSW 6.0 mph9.7 kmh 30.19 in1022.4 mb 0.00 in0.0 mm 0.00 in/hr0.0 mm/hr 0.00 in0.0 mm
07:38 AM 27.7°F-2.4°C 24.9°F-3.9°C 89% 4.0 mph W6.4 kmh W 6.0 mph9.7 kmh 30.19 in1022.4 mb 0.00 in0.0 mm 0.00 in/hr0.0 mm/hr 0.00 in0.0 mm
07:40 AM 27.8°F-2.3°C 25.0°F-3.9°C 89% 2.0 mph WNW3.2 kmh WNW 6.0 mph9.7 kmh 30.19 in1022.4 mb 0.00 in0.0 mm 0.00 in/hr0.0 mm/hr 0.00 in0.0 mm
07:42 AM 27.8°F-2.3°C 25.0°F-3.9°C 89% 1.0 mph WNW1.6 kmh WNW 6.0 mph9.7 kmh 30.19 in1022.4 mb 0.00 in0.0 mm 0.00 in/hr0.0 mm/hr 0.00 in0.0 mm
07:43 AM 27.8°F-2.3°C 25.0°F-3.9°C 89% 1.0 mph NW1.6 kmh NW 6.0 mph9.7 kmh 30.19 in1022.4 mb 0.00 in0.0 mm 0.00 in/hr0.0 mm/hr 0.00 in0.0 mm
07:45 AM 27.9°F-2.3°C 25.1°F-3.8°C 89% 5.0 mph W8.0 kmh W 10.0 mph16.1 kmh 30.20 in1022.7 mb 0.00 in0.0 mm 0.00 in/hr0.0 mm/hr 0.00 in0.0 mm
07:46 AM 27.9°F-2.3°C 24.8°F-4.0°C 88% 1.0 mph N1.6 kmh N 10.0 mph16.1 kmh 30.20 in1022.7 mb 0.00 in0.0 mm 0.00 in/hr0.0 mm/hr 0.00 in0.0 mm
07:48 AM 27.9°F-2.3°C 24.8°F-4.0°C 88% Calm Calm 10.0 mph16.1 kmh 30.19 in1022.4 mb 0.00 in0.0 mm 0.00 in/hr0.0 mm/hr 0.00 in0.0 mm
07:50 AM 28.1°F-2.2°C 25.0°F-3.9°C 88% 11.0 mph WNW17.7 kmh WNW 14.0 mph22.5 kmh 30.20 in1022.7 mb 0.00 in0.0 mm 0.00 in/hr0.0 mm/hr 0.00 in0.0 mm
07:51 AM 28.2°F-2.1°C 25.1°F-3.8°C 88% 3.0 mph NW4.8 kmh NW 14.0 mph22.5 kmh 30.20 in1022.7 mb 0.00 in0.0 mm 0.00 in/hr0.0 mm/hr 0.00 in0.0 mm
07:53 AM 28.6°F-1.9°C 25.5°F-3.6°C 88% 5.0 mph W8.0 kmh W 14.0 mph22.5 kmh 30.20 in1022.7 mb 0.00 in0.0 mm 0.00 in/hr0.0 mm/hr 0.00 in0.0 mm
07:55 AM 28.9°F-1.7°C 25.8°F-3.4°C 88% 13.0 mph WNW20.9 kmh WNW 14.0 mph22.5 kmh 30.20 in1022.7 mb 0.00 in0.0 mm 0.00 in/hr0.0 mm/hr 0.00 in0.0 mm
07:56 AM 29.0°F-1.7°C 25.6°F-3.6°C 87% 14.0 mph WNW22.5 kmh WNW 17.0 mph27.4 kmh 30.20 in1022.7 mb 0.00 in0.0 mm 0.00 in/hr0.0 mm/hr 0.00 in0.0 mm
07:58 AM 29.1°F-1.6°C 25.4°F-3.7°C 86% 8.0 mph NW12.9 kmh NW 17.0 mph27.4 kmh 30.20 in1022.7 mb 0.00 in0.0 mm 0.00 in/hr0.0 mm/hr 0.00 in0.0 mm
07:59 AM 29.2°F-1.6°C 25.5°F-3.6°C 86% 13.0 mph WNW20.9 kmh WNW 18.0 mph29.0 kmh 30.20 in1022.7 mb 0.00 in0.0 mm 0.00 in/hr0.0 mm/hr 0.00 in0.0 mm
08:00 AM 29.2°F-1.6°C 25.5°F-3.6°C 86% 17.0 mph WNW27.4 kmh WNW 18.0 mph29.0 kmh 30.20 in1022.7 mb 0.00 in0.0 mm 0.00 in/hr0.0 mm/hr 0.00 in0.0 mm
08:01 AM 29.3°F-1.5°C 25.6°F-3.6°C 86% 14.0 mph WNW22.5 kmh WNW 17.0 mph27.4 kmh 30.20 in1022.7 mb 0.00 in0.0 mm 0.00 in/hr0.0 mm/hr 0.00 in0.0 mm
08:02 AM 29.3°F-1.5°C 25.6°F-3.6°C 86% 14.0 mph WNW22.5 kmh WNW 17.0 mph27.4 kmh 30.20 in1022.7 mb 0.00 in0.0 mm 0.00 in/hr0.0 mm/hr 0.00 in0.0 mm
08:03 AM 29.3°F-1.5°C 25.6°F-3.6°C 86% 16.0 mph WNW25.7 kmh WNW 17.0 mph27.4 kmh 30.20 in1022.7 mb 0.00 in0.0 mm 0.00 in/hr0.0 mm/hr 0.00 in0.0 mm
08:04 AM 29.4°F-1.4°C 25.5°F-3.6°C 85% 6.0 mph W9.7 kmh W 18.0 mph29.0 kmh 30.20 in1022.7 mb 0.00 in0.0 mm 0.00 in/hr0.0 mm/hr 0.00 in0.0 mm
08:05 AM 29.4°F-1.4°C 25.5°F-3.6°C 85% 14.0 mph WNW22.5 kmh WNW 18.0 mph29.0 kmh 30.20 in1022.7 mb 0.00 in0.0 mm 0.00 in/hr0.0 mm/hr 0.00 in0.0 mm
08:06 AM 29.5°F-1.4°C 25.6°F-3.6°C 85% 14.0 mph NW22.5 kmh NW 21.0 mph33.8 kmh 30.20 in1022.7 mb 0.00 in0.0 mm 0.00 in/hr0.0 mm/hr 0.00 in0.0 mm
08:08 AM 29.6°F-1.3°C 25.4°F-3.7°C 84% 14.0 mph WNW22.5 kmh WNW 23.0 mph37.0 kmh 30.20 in1022.7 mb 0.00 in0.0 mm 0.00 in/hr0.0 mm/hr 0.00 in0.0 mm
08:09 AM 29.6°F-1.3°C 25.4°F-3.7°C 84% 12.0 mph W19.3 kmh W 23.0 mph37.0 kmh 30.21 in1023.0 mb 0.00 in0.0 mm 0.00 in/hr0.0 mm/hr 0.00 in0.0 mm
08:10 AM 29.7°F-1.3°C 25.8°F-3.4°C 85% 15.0 mph WNW24.1 kmh WNW 23.0 mph37.0 kmh 30.20 in1022.7 mb 0.00 in0.0 mm 0.00 in/hr0.0 mm/hr 0.00 in0.0 mm
08:12 AM 29.7°F-1.3°C 25.5°F-3.6°C 84% 17.0 mph WNW27.4 kmh WNW 23.0 mph37.0 kmh 30.21 in1023.0 mb 0.00 in0.0 mm 0.00 in/hr0.0 mm/hr 0.00 in0.0 mm
08:13 AM 29.7°F-1.3°C 25.5°F-3.6°C 84% 15.0 mph WNW24.1 kmh WNW 23.0 mph37.0 kmh 30.21 in1023.0 mb 0.00 in0.0 mm 0.00 in/hr0.0 mm/hr 0.00 in0.0 mm
08:15 AM 29.7°F-1.3°C 25.5°F-3.6°C 84% 17.0 mph WNW27.4 kmh WNW 23.0 mph37.0 kmh 30.21 in1023.0 mb 0.00 in0.0 mm 0.00 in/hr0.0 mm/hr 0.00 in0.0 mm
08:16 AM 29.8°F-1.2°C 25.6°F-3.6°C 84% 15.0 mph NW24.1 kmh NW 23.0 mph37.0 kmh 30.21 in1023.0 mb 0.00 in0.0 mm 0.00 in/hr0.0 mm/hr 0.00 in0.0 mm
08:18 AM 29.9°F-1.2°C 25.7°F-3.5°C 84% 15.0 mph NW24.1 kmh NW 23.0 mph37.0 kmh 30.21 in1023.0 mb 0.00 in0.0 mm 0.00 in/hr0.0 mm/hr 0.00 in0.0 mm
08:19 AM 29.9°F-1.2°C 25.7°F-3.5°C 84% 19.0 mph WNW30.6 kmh WNW 23.0 mph37.0 kmh 30.21 in1023.0 mb 0.00 in0.0 mm 0.00 in/hr0.0 mm/hr 0.00 in0.0 mm
08:20 AM 30.0°F-1.1°C 25.5°F-3.6°C 83% 19.0 mph WNW30.6 kmh WNW 23.0 mph37.0 kmh 30.21 in1023.0 mb 0.00 in0.0 mm 0.00 in/hr0.0 mm/hr 0.00 in0.0 mm
08:21 AM 30.0°F-1.1°C 25.5°F-3.6°C 83% 20.0 mph WNW32.2 kmh WNW 23.0 mph37.0 kmh 30.22 in1023.4 mb 0.00 in0.0 mm 0.00 in/hr0.0 mm/hr 0.00 in0.0 mm
08:23 AM 30.1°F-1.1°C 25.6°F-3.6°C 83% 13.0 mph WNW20.9 kmh WNW 23.0 mph37.0 kmh 30.22 in1023.4 mb 0.00 in0.0 mm 0.00 in/hr0.0 mm/hr 0.00 in0.0 mm
08:24 AM 30.1°F-1.1°C 25.9°F-3.4°C 84% 19.0 mph WNW30.6 kmh WNW 23.0 mph37.0 kmh 30.21 in1023.0 mb 0.00 in0.0 mm 0.00 in/hr0.0 mm/hr 0.00 in0.0 mm
08:25 AM 30.2°F-1.0°C 25.7°F-3.5°C 83% 19.0 mph NW30.6 kmh NW 23.0 mph37.0 kmh 30.21 in1023.0 mb 0.00 in0.0 mm 0.00 in/hr0.0 mm/hr 0.00 in0.0 mm
08:26 AM 30.2°F-1.0°C 25.7°F-3.5°C 83% 17.0 mph NW27.4 kmh NW 23.0 mph37.0 kmh 30.21 in1023.0 mb 0.00 in0.0 mm 0.00 in/hr0.0 mm/hr 0.00 in0.0 mm
08:28 AM 30.3°F-0.9°C 25.8°F-3.4°C 83% 18.0 mph NW29.0 kmh NW 23.0 mph37.0 kmh 30.21 in1023.0 mb 0.00 in0.0 mm 0.00 in/hr0.0 mm/hr 0.00 in0.0 mm
08:29 AM 30.3°F-0.9°C 25.8°F-3.4°C 83% 13.0 mph NW20.9 kmh NW 23.0 mph37.0 kmh 30.21 in1023.0 mb 0.00 in0.0 mm 0.00 in/hr0.0 mm/hr 0.00 in0.0 mm
08:30 AM 30.3°F-0.9°C 26.1°F-3.3°C 84% 15.0 mph NW24.1 kmh NW 23.0 mph37.0 kmh 30.21 in1023.0 mb 0.00 in0.0 mm 0.00 in/hr0.0 mm/hr 0.00 in0.0 mm
08:31 AM 30.4°F-0.9°C 25.9°F-3.4°C 83% 13.0 mph W20.9 kmh W 21.0 mph33.8 kmh 30.21 in1023.0 mb 0.00 in0.0 mm 0.00 in/hr0.0 mm/hr 0.00 in0.0 mm
08:33 AM 30.5°F-0.8°C 26.0°F-3.3°C 83% 18.0 mph WNW29.0 kmh WNW 21.0 mph33.8 kmh 30.21 in1023.0 mb 0.00 in0.0 mm 0.00 in/hr0.0 mm/hr 0.00 in0.0 mm
08:35 AM 30.6°F-0.8°C 26.1°F-3.3°C 83% 15.0 mph WNW24.1 kmh WNW 21.0 mph33.8 kmh 30.21 in1023.0 mb 0.00 in0.0 mm 0.00 in/hr0.0 mm/hr 0.00 in0.0 mm
08:36 AM 30.6°F-0.8°C 26.1°F-3.3°C 83% 22.0 mph NW35.4 kmh NW 23.0 mph37.0 kmh 30.22 in1023.4 mb 0.00 in0.0 mm 0.00 in/hr0.0 mm/hr 0.00 in0.0 mm
08:37 AM 30.7°F-0.7°C 26.2°F-3.2°C 83% 19.0 mph NW30.6 kmh NW 23.0 mph37.0 kmh 30.22 in1023.4 mb 0.00 in0.0 mm 0.00 in/hr0.0 mm/hr 0.00 in0.0 mm
08:39 AM 30.7°F-0.7°C 25.9°F-3.4°C 82% 19.0 mph NW30.6 kmh NW 23.0 mph37.0 kmh 30.22 in1023.4 mb 0.00 in0.0 mm 0.00 in/hr0.0 mm/hr 0.00 in0.0 mm
08:40 AM 30.8°F-0.7°C 26.0°F-3.3°C 82% 14.0 mph NW22.5 kmh NW 23.0 mph37.0 kmh 30.22 in1023.4 mb 0.00 in0.0 mm 0.00 in/hr0.0 mm/hr 0.00 in0.0 mm
08:41 AM 30.8°F-0.7°C 26.3°F-3.2°C 83% 18.0 mph NW29.0 kmh NW 23.0 mph37.0 kmh 30.22 in1023.4 mb 0.00 in0.0 mm 0.00 in/hr0.0 mm/hr 0.00 in0.0 mm
08:42 AM 30.9°F-0.6°C 26.4°F-3.1°C 83% 15.0 mph WNW24.1 kmh WNW 23.0 mph37.0 kmh 30.22 in1023.4 mb 0.00 in0.0 mm 0.00 in/hr0.0 mm/hr 0.00 in0.0 mm
08:43 AM 30.9°F-0.6°C 26.4°F-3.1°C 83% 22.0 mph WNW35.4 kmh WNW 26.0 mph41.8 kmh 30.22 in1023.4 mb 0.00 in0.0 mm 0.00 in/hr0.0 mm/hr 0.00 in0.0 mm
08:44 AM 30.9°F-0.6°C 26.1°F-3.3°C 82% 23.0 mph WNW37.0 kmh WNW 26.0 mph41.8 kmh 30.22 in1023.4 mb 0.00 in0.0 mm 0.00 in/hr0.0 mm/hr 0.00 in0.0 mm
08:45 AM 30.9°F-0.6°C 25.8°F-3.4°C 81% 20.0 mph NW32.2 kmh NW 26.0 mph41.8 kmh 30.22 in1023.4 mb 0.00 in0.0 mm 0.00 in/hr0.0 mm/hr 0.00 in0.0 mm
08:47 AM 30.8°F-0.7°C 26.0°F-3.3°C 82% 20.0 mph NW32.2 kmh NW 26.0 mph41.8 kmh 30.22 in1023.4 mb 0.00 in0.0 mm 0.00 in/hr0.0 mm/hr 0.00 in0.0 mm
08:48 AM 30.8°F-0.7°C 25.7°F-3.5°C 81% 18.0 mph NW29.0 kmh NW 26.0 mph41.8 kmh 30.23 in1023.7 mb 0.00 in0.0 mm 0.00 in/hr0.0 mm/hr 0.00 in0.0 mm
08:50 AM 30.9°F-0.6°C 25.8°F-3.4°C 81% 22.0 mph NW35.4 kmh NW 26.0 mph41.8 kmh 30.23 in1023.7 mb 0.00 in0.0 mm 0.00 in/hr0.0 mm/hr 0.00 in0.0 mm
08:51 AM 30.9°F-0.6°C 25.8°F-3.4°C 81% 20.0 mph WNW32.2 kmh WNW 26.0 mph41.8 kmh 30.23 in1023.7 mb 0.00 in0.0 mm 0.00 in/hr0.0 mm/hr 0.00 in0.0 mm
08:53 AM 31.0°F-0.6°C 25.9°F-3.4°C 81% 14.0 mph NW22.5 kmh NW 26.0 mph41.8 kmh 30.23 in1023.7 mb 0.00 in0.0 mm 0.00 in/hr0.0 mm/hr 0.00 in0.0 mm
08:54 AM 31.0°F-0.6°C 25.9°F-3.4°C 81% 24.0 mph NW38.6 kmh NW 26.0 mph41.8 kmh 30.23 in1023.7 mb 0.00 in0.0 mm 0.00 in/hr0.0 mm/hr 0.00 in0.0 mm
08:55 AM 31.1°F-0.5°C 26.3°F-3.2°C 82% 17.0 mph NW27.4 kmh NW 26.0 mph41.8 kmh 30.23 in1023.7 mb 0.00 in0.0 mm 0.00 in/hr0.0 mm/hr 0.00 in0.0 mm
08:56 AM 31.1°F-0.5°C 26.0°F-3.3°C 81% 21.0 mph WNW33.8 kmh WNW 26.0 mph41.8 kmh 30.23 in1023.7 mb 0.00 in0.0 mm 0.00 in/hr0.0 mm/hr 0.00 in0.0 mm
08:58 AM 31.2°F-0.4°C 26.1°F-3.3°C 81% 21.0 mph NW33.8 kmh NW 26.0 mph41.8 kmh 30.23 in1023.7 mb 0.00 in0.0 mm 0.00 in/hr0.0 mm/hr 0.00 in0.0 mm
09:00 AM 31.2°F-0.4°C 25.8°F-3.4°C 80% 19.0 mph WNW30.6 kmh WNW 26.0 mph41.8 kmh 30.24 in1024.0 mb 0.00 in0.0 mm 0.00 in/hr0.0 mm/hr 0.00 in0.0 mm
09:01 AM 31.2°F-0.4°C 26.1°F-3.3°C 81% 24.0 mph NW38.6 kmh NW 25.0 mph40.2 kmh 30.24 in1024.0 mb 0.00 in0.0 mm 0.00 in/hr0.0 mm/hr 0.00 in0.0 mm
09:02 AM 31.2°F-0.4°C 25.8°F-3.4°C 80% 24.0 mph NW38.6 kmh NW 28.0 mph45.1 kmh 30.23 in1023.7 mb 0.00 in0.0 mm 0.00 in/hr0.0 mm/hr 0.00 in0.0 mm
09:03 AM 31.3°F-0.4°C 25.9°F-3.4°C 80% 24.0 mph NW38.6 kmh NW 28.0 mph45.1 kmh 30.23 in1023.7 mb 0.00 in0.0 mm 0.00 in/hr0.0 mm/hr 0.00 in0.0 mm
09:05 AM 31.3°F-0.4°C 26.2°F-3.2°C 81% 17.0 mph NW27.4 kmh NW 29.0 mph46.7 kmh 30.24 in1024.0 mb 0.00 in0.0 mm 0.00 in/hr0.0 mm/hr 0.00 in0.0 mm
09:06 AM 31.4°F-0.3°C 26.3°F-3.2°C 81% 20.0 mph NW32.2 kmh NW 29.0 mph46.7 kmh 30.24 in1024.0 mb 0.00 in0.0 mm 0.00 in/hr0.0 mm/hr 0.00 in0.0 mm
09:07 AM 31.4°F-0.3°C 26.3°F-3.2°C 81% 15.0 mph NW24.1 kmh NW 29.0 mph46.7 kmh 30.24 in1024.0 mb 0.00 in0.0 mm 0.00 in/hr0.0 mm/hr 0.00 in0.0 mm
09:09 AM 31.5°F-0.3°C 26.7°F-2.9°C 82% 22.0 mph NW35.4 kmh NW 29.0 mph46.7 kmh 30.24 in1024.0 mb 0.00 in0.0 mm 0.00 in/hr0.0 mm/hr 0.00 in0.0 mm
09:10 AM 31.6°F-0.2°C 26.5°F-3.1°C 81% 22.0 mph WNW35.4 kmh WNW 29.0 mph46.7 kmh 30.24 in1024.0 mb 0.00 in0.0 mm 0.00 in/hr0.0 mm/hr 0.00 in0.0 mm
09:12 AM 31.6°F-0.2°C 25.9°F-3.4°C 79% 20.0 mph WNW32.2 kmh WNW 32.0 mph51.5 kmh 30.24 in1024.0 mb 0.00 in0.0 mm 0.00 in/hr0.0 mm/hr 0.00 in0.0 mm
09:14 AM 31.6°F-0.2°C 25.9°F-3.4°C 79% 20.0 mph NW32.2 kmh NW 32.0 mph51.5 kmh 30.24 in1024.0 mb 0.00 in0.0 mm 0.00 in/hr0.0 mm/hr 0.00 in0.0 mm
09:15 AM 31.6°F-0.2°C 25.9°F-3.4°C 79% 19.0 mph WNW30.6 kmh WNW 32.0 mph51.5 kmh 30.24 in1024.0 mb 0.00 in0.0 mm 0.00 in/hr0.0 mm/hr 0.00 in0.0 mm
09:17 AM 31.6°F-0.2°C 25.9°F-3.4°C 79% 20.0 mph NW32.2 kmh NW 32.0 mph51.5 kmh 30.24 in1024.0 mb 0.00 in0.0 mm 0.00 in/hr0.0 mm/hr 0.00 in0.0 mm
09:18 AM 31.6°F-0.2°C 25.9°F-3.4°C 79% 19.0 mph NW30.6 kmh NW 32.0 mph51.5 kmh 30.24 in1024.0 mb 0.00 in0.0 mm 0.00 in/hr0.0 mm/hr 0.00 in0.0 mm
09:20 AM 31.6°F-0.2°C 25.9°F-3.4°C 79% 24.0 mph NW38.6 kmh NW 32.0 mph51.5 kmh 30.24 in1024.0 mb 0.00 in0.0 mm 0.00 in/hr0.0 mm/hr 0.00 in0.0 mm
09:21 AM 31.6°F-0.2°C 25.5°F-3.6°C 78% 21.0 mph NW33.8 kmh NW 32.0 mph51.5 kmh 30.24 in1024.0 mb 0.00 in0.0 mm 0.00 in/hr0.0 mm/hr 0.00 in0.0 mm
09:22 AM 31.7°F-0.2°C 25.9°F-3.4°C 79% 25.0 mph WNW40.2 kmh WNW 32.0 mph51.5 kmh 30.24 in1024.0 mb 0.00 in0.0 mm 0.00 in/hr0.0 mm/hr 0.00 in0.0 mm
09:23 AM 31.7°F-0.2°C 25.9°F-3.4°C 79% 23.0 mph WNW37.0 kmh WNW 32.0 mph51.5 kmh 30.24 in1024.0 mb 0.00 in0.0 mm 0.00 in/hr0.0 mm/hr 0.00 in0.0 mm
09:25 AM 31.8°F-0.1°C 25.7°F-3.5°C 78% 27.0 mph WNW43.5 kmh WNW 32.0 mph51.5 kmh 30.24 in1024.0 mb 0.00 in0.0 mm 0.00 in/hr0.0 mm/hr 0.00 in0.0 mm
09:26 AM 31.8°F-0.1°C 25.4°F-3.7°C 77% 24.0 mph NW38.6 kmh NW 32.0 mph51.5 kmh 30.24 in1024.0 mb 0.00 in0.0 mm 0.00 in/hr0.0 mm/hr 0.00 in0.0 mm
09:28 AM 31.8°F-0.1°C 25.4°F-3.7°C 77% 23.0 mph NW37.0 kmh NW 32.0 mph51.5 kmh 30.24 in1024.0 mb 0.00 in0.0 mm 0.00 in/hr0.0 mm/hr 0.00 in0.0 mm
09:29 AM 31.8°F-0.1°C 25.4°F-3.7°C 77% 23.0 mph NW37.0 kmh NW 32.0 mph51.5 kmh 30.24 in1024.0 mb 0.00 in0.0 mm 0.00 in/hr0.0 mm/hr 0.00 in0.0 mm
09:30 AM 31.9°F-0.1°C 25.5°F-3.6°C 77% 22.0 mph NW35.4 kmh NW 32.0 mph51.5 kmh 30.24 in1024.0 mb 0.00 in0.0 mm 0.00 in/hr0.0 mm/hr 0.00 in0.0 mm
09:31 AM 31.9°F-0.1°C 25.5°F-3.6°C 77% 22.0 mph NW35.4 kmh NW 23.0 mph37.0 kmh 30.25 in1024.4 mb 0.00 in0.0 mm 0.00 in/hr0.0 mm/hr 0.00 in0.0 mm
09:33 AM 32.0°F0.0°C 25.9°F-3.4°C 78% 24.0 mph NW38.6 kmh NW 26.0 mph41.8 kmh 30.25 in1024.4 mb 0.00 in0.0 mm 0.00 in/hr0.0 mm/hr 0.00 in0.0 mm
09:34 AM 32.0°F0.0°C 25.6°F-3.6°C 77% 21.0 mph NW33.8 kmh NW 28.0 mph45.1 kmh 30.25 in1024.4 mb 0.00 in0.0 mm 0.00 in/hr0.0 mm/hr 0.00 in0.0 mm
09:35 AM 32.1°F0.1°C 25.7°F-3.5°C 77% 17.0 mph NW27.4 kmh NW 28.0 mph45.1 kmh 30.25 in1024.4 mb 0.00 in0.0 mm 0.00 in/hr0.0 mm/hr 0.00 in0.0 mm
09:36 AM 32.1°F0.1°C 26.3°F-3.2°C 79% 20.0 mph NW32.2 kmh NW 28.0 mph45.1 kmh 30.25 in1024.4 mb 0.00 in0.0 mm 0.00 in/hr0.0 mm/hr 0.00 in0.0 mm
09:38 AM 32.1°F0.1°C 25.7°F-3.5°C 77% 23.0 mph NW37.0 kmh NW 28.0 mph45.1 kmh 30.25 in1024.4 mb 0.00 in0.0 mm 0.00 in/hr0.0 mm/hr 0.00 in0.0 mm
09:39 AM 32.2°F0.1°C 26.1°F-3.3°C 78% 22.0 mph W35.4 kmh W 28.0 mph45.1 kmh 30.25 in1024.4 mb 0.00 in0.0 mm 0.00 in/hr0.0 mm/hr 0.00 in0.0 mm
09:40 AM 32.3°F0.2°C 26.2°F-3.2°C 78% 24.0 mph NW38.6 kmh NW 28.0 mph45.1 kmh 30.25 in1024.4 mb 0.00 in0.0 mm 0.00 in/hr0.0 mm/hr 0.00 in0.0 mm
09:41 AM 32.4°F0.2°C 26.3°F-3.2°C 78% 22.0 mph WNW35.4 kmh WNW 28.0 mph45.1 kmh 30.25 in1024.4 mb 0.00 in0.0 mm 0.00 in/hr0.0 mm/hr 0.00 in0.0 mm
09:42 AM 32.4°F0.2°C 26.0°F-3.3°C 77% 19.0 mph WNW30.6 kmh WNW 28.0 mph45.1 kmh 30.25 in1024.4 mb 0.00 in0.0 mm 0.00 in/hr0.0 mm/hr 0.00 in0.0 mm
09:44 AM 32.4°F0.2°C 25.7°F-3.5°C 76% 15.0 mph WNW24.1 kmh WNW 28.0 mph45.1 kmh 30.26 in1024.7 mb 0.00 in0.0 mm 0.00 in/hr0.0 mm/hr 0.00 in0.0 mm
09:46 AM 32.4°F0.2°C 25.4°F-3.7°C 75% 17.0 mph NW27.4 kmh NW 28.0 mph45.1 kmh 30.26 in1024.7 mb 0.00 in0.0 mm 0.00 in/hr0.0 mm/hr 0.00 in0.0 mm
09:47 AM 32.4°F0.2°C 25.7°F-3.5°C 76% 19.0 mph WNW30.6 kmh WNW 28.0 mph45.1 kmh 30.26 in1024.7 mb 0.00 in0.0 mm 0.00 in/hr0.0 mm/hr 0.00 in0.0 mm
09:49 AM 32.5°F0.3°C 25.8°F-3.4°C 76% 21.0 mph NW33.8 kmh NW 28.0 mph45.1 kmh 30.26 in1024.7 mb 0.00 in0.0 mm 0.00 in/hr0.0 mm/hr 0.00 in0.0 mm
09:50 AM 32.5°F0.3°C 25.5°F-3.6°C 75% 22.0 mph WNW35.4 kmh WNW 28.0 mph45.1 kmh 30.26 in1024.7 mb 0.00 in0.0 mm 0.00 in/hr0.0 mm/hr 0.00 in0.0 mm
09:52 AM 32.5°F0.3°C 25.5°F-3.6°C 75% 18.0 mph NW29.0 kmh NW 28.0 mph45.1 kmh 30.26 in1024.7 mb 0.00 in0.0 mm 0.00 in/hr0.0 mm/hr 0.00 in0.0 mm
09:54 AM 32.5°F0.3°C 25.5°F-3.6°C 75% 20.0 mph NW32.2 kmh NW 28.0 mph45.1 kmh 30.26 in1024.7 mb 0.00 in0.0 mm 0.00 in/hr0.0 mm/hr 0.00 in0.0 mm
09:55 AM 32.4°F0.2°C 24.7°F-4.1°C 73% 24.0 mph NW38.6 kmh NW 28.0 mph45.1 kmh 30.26 in1024.7 mb 0.00 in0.0 mm 0.00 in/hr0.0 mm/hr 0.00 in0.0 mm
09:57 AM 32.3°F0.2°C 25.0°F-3.9°C 74% 20.0 mph WNW32.2 kmh WNW 29.0 mph46.7 kmh 30.26 in1024.7 mb 0.00 in0.0 mm 0.00 in/hr0.0 mm/hr 0.00 in0.0 mm
09:59 AM 32.2°F0.1°C 25.2°F-3.8°C 75% 14.0 mph NNW22.5 kmh NNW 29.0 mph46.7 kmh 30.27 in1025.1 mb 0.00 in0.0 mm 0.00 in/hr0.0 mm/hr 0.00 in0.0 mm
10:00 AM 32.2°F0.1°C 25.2°F-3.8°C 75% 15.0 mph NW24.1 kmh NW 29.0 mph46.7 kmh 30.27 in1025.1 mb 0.00 in0.0 mm 0.00 in/hr0.0 mm/hr 0.00 in0.0 mm
10:02 AM 32.1°F0.1°C 25.1°F-3.8°C 75% 20.0 mph NW32.2 kmh NW 23.0 mph37.0 kmh 30.27 in1025.1 mb 0.00 in0.0 mm 0.00 in/hr0.0 mm/hr 0.00 in0.0 mm
10:04 AM 32.3°F0.2°C 25.3°F-3.7°C 75% 28.0 mph NW45.1 kmh NW 30.0 mph48.3 kmh 30.27 in1025.1 mb 0.00 in0.0 mm 0.00 in/hr0.0 mm/hr 0.00 in0.0 mm
10:05 AM 32.3°F0.2°C 25.0°F-3.9°C 74% 22.0 mph WNW35.4 kmh WNW 30.0 mph48.3 kmh 30.27 in1025.1 mb 0.00 in0.0 mm 0.00 in/hr0.0 mm/hr 0.00 in0.0 mm
10:06 AM 32.3°F0.2°C 25.3°F-3.7°C 75% 20.0 mph W32.2 kmh W 30.0 mph48.3 kmh 30.27 in1025.1 mb 0.00 in0.0 mm 0.00 in/hr0.0 mm/hr 0.00 in0.0 mm
10:08 AM 32.5°F0.3°C 25.8°F-3.4°C 76% 22.0 mph NW35.4 kmh NW 30.0 mph48.3 kmh 30.27 in1025.1 mb 0.00 in0.0 mm 0.00 in/hr0.0 mm/hr 0.00 in0.0 mm
10:10 AM 32.6°F0.3°C 25.6°F-3.6°C 75% 27.0 mph NW43.5 kmh NW 31.0 mph49.9 kmh 30.27 in1025.1 mb 0.00 in0.0 mm 0.00 in/hr0.0 mm/hr 0.00 in0.0 mm
10:11 AM 32.6°F0.3°C 25.6°F-3.6°C 75% 22.0 mph WNW35.4 kmh WNW 31.0 mph49.9 kmh 30.27 in1025.1 mb 0.00 in0.0 mm 0.00 in/hr0.0 mm/hr 0.00 in0.0 mm
10:13 AM 32.7°F0.4°C 25.7°F-3.5°C 75% 29.0 mph WNW46.7 kmh WNW 31.0 mph49.9 kmh 30.27 in1025.1 mb 0.00 in0.0 mm 0.00 in/hr0.0 mm/hr 0.00 in0.0 mm
10:14 AM 32.7°F0.4°C 25.3°F-3.7°C 74% 27.0 mph NW43.5 kmh NW 32.0 mph51.5 kmh 30.27 in1025.1 mb 0.00 in0.0 mm 0.00 in/hr0.0 mm/hr 0.00 in0.0 mm
10:16 AM 32.5°F0.3°C 25.2°F-3.8°C 74% 20.0 mph WNW32.2 kmh WNW 32.0 mph51.5 kmh 30.27 in1025.1 mb 0.00 in0.0 mm 0.00 in/hr0.0 mm/hr 0.00 in0.0 mm
10:17 AM 32.5°F0.3°C 24.8°F-4.0°C 73% 22.0 mph NW35.4 kmh NW 32.0 mph51.5 kmh 30.27 in1025.1 mb 0.00 in0.0 mm 0.00 in/hr0.0 mm/hr 0.00 in0.0 mm
10:18 AM 32.4°F0.2°C 25.1°F-3.8°C 74% 24.0 mph NW38.6 kmh NW 32.0 mph51.5 kmh 30.28 in1025.4 mb 0.00 in0.0 mm 0.00 in/hr0.0 mm/hr 0.00 in0.0 mm
10:19 AM 32.4°F0.2°C 25.4°F-3.7°C 75% 23.0 mph NW37.0 kmh NW 32.0 mph51.5 kmh 30.28 in1025.4 mb 0.00 in0.0 mm 0.00 in/hr0.0 mm/hr 0.00 in0.0 mm
10:20 AM 32.4°F0.2°C 25.4°F-3.7°C 75% 18.0 mph WNW29.0 kmh WNW 32.0 mph51.5 kmh 30.28 in1025.4 mb 0.00 in0.0 mm 0.00 in/hr0.0 mm/hr 0.00 in0.0 mm
10:21 AM 32.5°F0.3°C 25.5°F-3.6°C 75% 22.0 mph NW35.4 kmh NW 32.0 mph51.5 kmh 30.28 in1025.4 mb 0.00 in0.0 mm 0.00 in/hr0.0 mm/hr 0.00 in0.0 mm
10:22 AM 32.5°F0.3°C 25.8°F-3.4°C 76% 17.0 mph WNW27.4 kmh WNW 32.0 mph51.5 kmh 30.28 in1025.4 mb 0.00 in0.0 mm 0.00 in/hr0.0 mm/hr 0.00 in0.0 mm
10:23 AM 32.6°F0.3°C 25.6°F-3.6°C 75% 28.0 mph WNW45.1 kmh WNW 32.0 mph51.5 kmh 30.28 in1025.4 mb 0.00 in0.0 mm 0.00 in/hr0.0 mm/hr 0.00 in0.0 mm
10:25 AM 32.6°F0.3°C 25.3°F-3.7°C 74% 20.0 mph NW32.2 kmh NW 32.0 mph51.5 kmh 30.28 in1025.4 mb 0.00 in0.0 mm 0.00 in/hr0.0 mm/hr 0.00 in0.0 mm
10:26 AM 32.8°F0.4°C 25.8°F-3.4°C 75% 25.0 mph NW40.2 kmh NW 32.0 mph51.5 kmh 30.28 in1025.4 mb 0.00 in0.0 mm 0.00 in/hr0.0 mm/hr 0.00 in0.0 mm
10:28 AM 32.8°F0.4°C 25.8°F-3.4°C 75% 25.0 mph NW40.2 kmh NW 32.0 mph51.5 kmh 30.28 in1025.4 mb 0.00 in0.0 mm 0.00 in/hr0.0 mm/hr 0.00 in0.0 mm
10:30 AM 32.9°F0.5°C 25.5°F-3.6°C 74% 20.0 mph NW32.2 kmh NW 32.0 mph51.5 kmh 30.28 in1025.4 mb 0.00 in0.0 mm 0.00 in/hr0.0 mm/hr 0.00 in0.0 mm
10:32 AM 33.1°F0.6°C 26.4°F-3.1°C 76% 16.0 mph NW25.7 kmh NW 25.0 mph40.2 kmh 30.28 in1025.4 mb 0.00 in0.0 mm 0.00 in/hr0.0 mm/hr 0.00 in0.0 mm
10:33 AM 33.2°F0.7°C 26.8°F-2.9°C 77% 15.0 mph W24.1 kmh W 25.0 mph40.2 kmh 30.28 in1025.4 mb 0.00 in0.0 mm 0.00 in/hr0.0 mm/hr 0.00 in0.0 mm
10:34 AM 33.3°F0.7°C 26.6°F-3.0°C 76% 15.0 mph WNW24.1 kmh WNW 25.0 mph40.2 kmh 30.28 in1025.4 mb 0.00 in0.0 mm 0.00 in/hr0.0 mm/hr 0.00 in0.0 mm
10:35 AM 33.3°F0.7°C 25.9°F-3.4°C 74% 26.0 mph NW41.8 kmh NW 26.0 mph41.8 kmh 30.28 in1025.4 mb 0.00 in0.0 mm 0.00 in/hr0.0 mm/hr 0.00 in0.0 mm
10:37 AM 33.1°F0.6°C 25.7°F-3.5°C 74% 20.0 mph NW32.2 kmh NW 26.0 mph41.8 kmh 30.28 in1025.4 mb 0.00 in0.0 mm 0.00 in/hr0.0 mm/hr 0.00 in0.0 mm
10:38 AM 33.0°F0.6°C 25.0°F-3.9°C 72% 22.0 mph NW35.4 kmh NW 30.0 mph48.3 kmh 30.28 in1025.4 mb 0.00 in0.0 mm 0.00 in/hr0.0 mm/hr 0.00 in0.0 mm
10:40 AM 32.8°F0.4°C 24.1°F-4.4°C 70% 20.0 mph NW32.2 kmh NW 30.0 mph48.3 kmh 30.28 in1025.4 mb 0.00 in0.0 mm 0.00 in/hr0.0 mm/hr 0.00 in0.0 mm
10:42 AM 32.8°F0.4°C 24.5°F-4.2°C 71% 25.0 mph NW40.2 kmh NW 30.0 mph48.3 kmh 30.28 in1025.4 mb 0.00 in0.0 mm 0.00 in/hr0.0 mm/hr 0.00 in0.0 mm
10:43 AM 32.8°F0.4°C 23.8°F-4.6°C 69% 26.0 mph NW41.8 kmh NW 30.0 mph48.3 kmh 30.28 in1025.4 mb 0.00 in0.0 mm 0.00 in/hr0.0 mm/hr 0.00 in0.0 mm
10:45 AM 32.8°F0.4°C 24.1°F-4.4°C 70% 23.0 mph WNW37.0 kmh WNW 31.0 mph49.9 kmh 30.28 in1025.4 mb 0.00 in0.0 mm 0.00 in/hr0.0 mm/hr 0.00 in0.0 mm
10:46 AM 32.9°F0.5°C 24.5°F-4.2°C 71% 23.0 mph NW37.0 kmh NW 31.0 mph49.9 kmh 30.28 in1025.4 mb 0.00 in0.0 mm 0.00 in/hr0.0 mm/hr 0.00 in0.0 mm
10:48 AM 33.1°F0.6°C 24.4°F-4.2°C 70% 26.0 mph NW41.8 kmh NW 31.0 mph49.9 kmh 30.28 in1025.4 mb 0.00 in0.0 mm 0.00 in/hr0.0 mm/hr 0.00 in0.0 mm
10:50 AM 33.3°F0.7°C 24.6°F-4.1°C 70% 22.0 mph WNW35.4 kmh WNW 32.0 mph51.5 kmh 30.29 in1025.7 mb 0.00 in0.0 mm 0.00 in/hr0.0 mm/hr 0.00 in0.0 mm
10:51 AM 33.3°F0.7°C 24.6°F-4.1°C 70% 24.0 mph NW38.6 kmh NW 32.0 mph51.5 kmh 30.29 in1025.7 mb 0.00 in0.0 mm 0.00 in/hr0.0 mm/hr 0.00 in0.0 mm
10:53 AM 33.3°F0.7°C 24.2°F-4.3°C 69% 20.0 mph NW32.2 kmh NW 32.0 mph51.5 kmh 30.28 in1025.4 mb 0.00 in0.0 mm 0.00 in/hr0.0 mm/hr 0.00 in0.0 mm
10:55 AM 33.4°F0.8°C 24.7°F-4.1°C 70% 26.0 mph NW41.8 kmh NW 32.0 mph51.5 kmh 30.28 in1025.4 mb 0.00 in0.0 mm 0.00 in/hr0.0 mm/hr 0.00 in0.0 mm
10:56 AM 33.4°F0.8°C 24.3°F-4.3°C 69% 24.0 mph NW38.6 kmh NW 32.0 mph51.5 kmh 30.29 in1025.7 mb 0.00 in0.0 mm 0.00 in/hr0.0 mm/hr 0.00 in0.0 mm
10:58 AM 33.4°F0.8°C 24.7°F-4.1°C 70% 24.0 mph NW38.6 kmh NW 32.0 mph51.5 kmh 30.29 in1025.7 mb 0.00 in0.0 mm 0.00 in/hr0.0 mm/hr 0.00 in0.0 mm
10:59 AM 33.4°F0.8°C 24.3°F-4.3°C 69% 28.0 mph NW45.1 kmh NW 32.0 mph51.5 kmh 30.29 in1025.7 mb 0.00 in0.0 mm 0.00 in/hr0.0 mm/hr 0.00 in0.0 mm
11:00 AM 33.4°F0.8°C 24.0°F-4.4°C 68% 22.0 mph NW35.4 kmh NW 34.0 mph54.7 kmh 30.29 in1025.7 mb 0.00 in0.0 mm 0.00 in/hr0.0 mm/hr 0.00 in0.0 mm
11:01 AM 33.4°F0.8°C 24.0°F-4.4°C 68% 23.0 mph NW37.0 kmh NW 31.0 mph49.9 kmh 30.29 in1025.7 mb 0.00 in0.0 mm 0.00 in/hr0.0 mm/hr 0.00 in0.0 mm
11:02 AM 33.4°F0.8°C 24.0°F-4.4°C 68% 23.0 mph NW37.0 kmh NW 31.0 mph49.9 kmh 30.29 in1025.7 mb 0.00 in0.0 mm 0.00 in/hr0.0 mm/hr 0.00 in0.0 mm
11:04 AM 33.4°F0.8°C 24.7°F-4.1°C 70% 27.0 mph NW43.5 kmh NW 31.0 mph49.9 kmh 30.29 in1025.7 mb 0.00 in0.0 mm 0.00 in/hr0.0 mm/hr 0.00 in0.0 mm
11:05 AM 33.5°F0.8°C 24.1°F-4.4°C 68% 26.0 mph NW41.8 kmh NW 31.0 mph49.9 kmh 30.29 in1025.7 mb 0.00 in0.0 mm 0.00 in/hr0.0 mm/hr 0.00 in0.0 mm
11:06 AM 33.5°F0.8°C 24.4°F-4.2°C 69% 19.0 mph NW30.6 kmh NW 31.0 mph49.9 kmh 30.29 in1025.7 mb 0.00 in0.0 mm 0.00 in/hr0.0 mm/hr 0.00 in0.0 mm
11:07 AM 33.5°F0.8°C 24.8°F-4.0°C 70% 21.0 mph NW33.8 kmh NW 31.0 mph49.9 kmh 30.29 in1025.7 mb 0.00 in0.0 mm 0.00 in/hr0.0 mm/hr 0.00 in0.0 mm
11:09 AM 33.6°F0.9°C 24.9°F-3.9°C 70% 20.0 mph NW32.2 kmh NW 31.0 mph49.9 kmh 30.29 in1025.7 mb 0.00 in0.0 mm 0.00 in/hr0.0 mm/hr 0.00 in0.0 mm
11:10 AM 33.5°F0.8°C 24.8°F-4.0°C 70% 23.0 mph NW37.0 kmh NW 31.0 mph49.9 kmh 30.29 in1025.7 mb 0.00 in0.0 mm 0.00 in/hr0.0 mm/hr 0.00 in0.0 mm
11:11 AM 33.5°F0.8°C 24.4°F-4.2°C 69% 28.0 mph NW45.1 kmh NW 31.0 mph49.9 kmh 30.29 in1025.7 mb 0.00 in0.0 mm 0.00 in/hr0.0 mm/hr 0.00 in0.0 mm
11:13 AM 33.4°F0.8°C 24.3°F-4.3°C 69% 20.0 mph NW32.2 kmh NW 31.0 mph49.9 kmh 30.29 in1025.7 mb 0.00 in0.0 mm 0.00 in/hr0.0 mm/hr 0.00 in0.0 mm
11:15 AM 33.5°F0.8°C 25.1°F-3.8°C 71% 25.0 mph NW40.2 kmh NW 31.0 mph49.9 kmh 30.29 in1025.7 mb 0.00 in0.0 mm 0.00 in/hr0.0 mm/hr 0.00 in0.0 mm
11:17 AM 33.5°F0.8°C 24.4°F-4.2°C 69% 23.0 mph NW37.0 kmh NW 31.0 mph49.9 kmh 30.29 in1025.7 mb 0.00 in0.0 mm 0.00 in/hr0.0 mm/hr 0.00 in0.0 mm
11:19 AM 33.5°F0.8°C 24.4°F-4.2°C 69% 21.0 mph WNW33.8 kmh WNW 31.0 mph49.9 kmh 30.29 in1025.7 mb 0.00 in0.0 mm 0.00 in/hr0.0 mm/hr 0.00 in0.0 mm
11:20 AM 33.5°F0.8°C 24.8°F-4.0°C 70% 26.0 mph NW41.8 kmh NW 31.0 mph49.9 kmh 30.29 in1025.7 mb 0.00 in0.0 mm 0.00 in/hr0.0 mm/hr 0.00 in0.0 mm
11:22 AM 33.6°F0.9°C 24.9°F-3.9°C 70% 18.0 mph NW29.0 kmh NW 31.0 mph49.9 kmh 30.29 in1025.7 mb 0.00 in0.0 mm 0.00 in/hr0.0 mm/hr 0.00 in0.0 mm
11:23 AM 33.7°F0.9°C 25.0°F-3.9°C 70% 22.0 mph NW35.4 kmh NW 31.0 mph49.9 kmh 30.29 in1025.7 mb 0.00 in0.0 mm 0.00 in/hr0.0 mm/hr 0.00 in0.0 mm
11:25 AM 33.7°F0.9°C 25.0°F-3.9°C 70% 16.0 mph NW25.7 kmh NW 31.0 mph49.9 kmh 30.29 in1025.7 mb 0.00 in0.0 mm 0.00 in/hr0.0 mm/hr 0.00 in0.0 mm
11:26 AM 33.8°F1.0°C 25.7°F-3.5°C 72% 17.0 mph NW27.4 kmh NW 31.0 mph49.9 kmh 30.29 in1025.7 mb 0.00 in0.0 mm 0.00 in/hr0.0 mm/hr 0.00 in0.0 mm
11:28 AM 34.0°F1.1°C 26.3°F-3.2°C 73% 15.0 mph NW24.1 kmh NW 31.0 mph49.9 kmh 30.29 in1025.7 mb 0.00 in0.0 mm 0.00 in/hr0.0 mm/hr 0.00 in0.0 mm
11:29 AM 34.1°F1.2°C 26.0°F-3.3°C 72% 20.0 mph NW32.2 kmh NW 31.0 mph49.9 kmh 30.29 in1025.7 mb 0.00 in0.0 mm 0.00 in/hr0.0 mm/hr 0.00 in0.0 mm
11:30 AM 34.1°F1.2°C 25.4°F-3.7°C 70% 13.0 mph NW20.9 kmh NW 31.0 mph49.9 kmh 30.29 in1025.7 mb 0.00 in0.0 mm 0.00 in/hr0.0 mm/hr 0.00 in0.0 mm
11:31 AM 34.2°F1.2°C 26.1°F-3.3°C 72% 17.0 mph NW27.4 kmh NW 21.0 mph33.8 kmh 30.29 in1025.7 mb 0.00 in0.0 mm 0.00 in/hr0.0 mm/hr 0.00 in0.0 mm
11:32 AM 34.2°F1.2°C 26.1°F-3.3°C 72% 19.0 mph NW30.6 kmh NW 21.0 mph33.8 kmh 30.29 in1025.7 mb 0.00 in0.0 mm 0.00 in/hr0.0 mm/hr 0.00 in0.0 mm
11:34 AM 34.3°F1.3°C 26.2°F-3.2°C 72% 14.0 mph NW22.5 kmh NW 23.0 mph37.0 kmh 30.29 in1025.7 mb 0.00 in0.0 mm 0.00 in/hr0.0 mm/hr 0.00 in0.0 mm
11:36 AM 34.4°F1.3°C 26.0°F-3.3°C 71% 20.0 mph NW32.2 kmh NW 24.0 mph38.6 kmh 30.29 in1025.7 mb 0.00 in0.0 mm 0.00 in/hr0.0 mm/hr 0.00 in0.0 mm
11:37 AM 34.3°F1.3°C 25.6°F-3.6°C 70% 18.0 mph NW29.0 kmh NW 24.0 mph38.6 kmh 30.29 in1025.7 mb 0.00 in0.0 mm 0.00 in/hr0.0 mm/hr 0.00 in0.0 mm
11:39 AM 34.3°F1.3°C 26.2°F-3.2°C 72% 16.0 mph NW25.7 kmh NW 24.0 mph38.6 kmh 30.29 in1025.7 mb 0.00 in0.0 mm 0.00 in/hr0.0 mm/hr 0.00 in0.0 mm
11:40 AM 34.5°F1.4°C 26.8°F-2.9°C 73% 12.0 mph NW19.3 kmh NW 24.0 mph38.6 kmh 30.29 in1025.7 mb 0.00 in0.0 mm 0.00 in/hr0.0 mm/hr 0.00 in0.0 mm
11:41 AM 34.5°F1.4°C 26.4°F-3.1°C 72% 18.0 mph NW29.0 kmh NW 24.0 mph38.6 kmh 30.29 in1025.7 mb 0.00 in0.0 mm 0.00 in/hr0.0 mm/hr 0.00 in0.0 mm
11:42 AM 34.6°F1.4°C 26.2°F-3.2°C 71% 16.0 mph NW25.7 kmh NW 24.0 mph38.6 kmh 30.28 in1025.4 mb 0.00 in0.0 mm 0.00 in/hr0.0 mm/hr 0.00 in0.0 mm
11:43 AM 34.6°F1.4°C 25.5°F-3.6°C 69% 15.0 mph WNW24.1 kmh WNW 24.0 mph38.6 kmh 30.28 in1025.4 mb 0.00 in0.0 mm 0.00 in/hr0.0 mm/hr 0.00 in0.0 mm
11:44 AM 34.5°F1.4°C 25.0°F-3.9°C 68% 9.0 mph NW14.5 kmh NW 24.0 mph38.6 kmh 30.28 in1025.4 mb 0.00 in0.0 mm 0.00 in/hr0.0 mm/hr 0.00 in0.0 mm
11:45 AM 34.4°F1.3°C 26.0°F-3.3°C 71% 14.0 mph NW22.5 kmh NW 24.0 mph38.6 kmh 30.28 in1025.4 mb 0.00 in0.0 mm 0.00 in/hr0.0 mm/hr 0.00 in0.0 mm
11:47 AM 34.5°F1.4°C 26.1°F-3.3°C 71% 17.0 mph NW27.4 kmh NW 24.0 mph38.6 kmh 30.28 in1025.4 mb 0.00 in0.0 mm 0.00 in/hr0.0 mm/hr 0.00 in0.0 mm
11:48 AM 34.6°F1.4°C 25.5°F-3.6°C 69% 15.0 mph NW24.1 kmh NW 24.0 mph38.6 kmh 30.28 in1025.4 mb 0.00 in0.0 mm 0.00 in/hr0.0 mm/hr 0.00 in0.0 mm
11:50 AM 34.7°F1.5°C 26.6°F-3.0°C 72% 17.0 mph WNW27.4 kmh WNW 24.0 mph38.6 kmh 30.28 in1025.4 mb 0.00 in0.0 mm 0.00 in/hr0.0 mm/hr 0.00 in0.0 mm
11:51 AM 34.6°F1.4°C 25.8°F-3.4°C 70% 15.0 mph WNW24.1 kmh WNW 24.0 mph38.6 kmh 30.28 in1025.4 mb 0.00 in0.0 mm 0.00 in/hr0.0 mm/hr 0.00 in0.0 mm
11:53 AM 34.6°F1.4°C 25.8°F-3.4°C 70% 14.0 mph WNW22.5 kmh WNW 24.0 mph38.6 kmh 30.28 in1025.4 mb 0.00 in0.0 mm 0.00 in/hr0.0 mm/hr 0.00 in0.0 mm
11:55 AM 34.6°F1.4°C 25.5°F-3.6°C 69% 16.0 mph WNW25.7 kmh WNW 24.0 mph38.6 kmh 30.28 in1025.4 mb 0.00 in0.0 mm 0.00 in/hr0.0 mm/hr 0.00 in0.0 mm
11:56 AM 34.5°F1.4°C 25.4°F-3.7°C 69% 16.0 mph NW25.7 kmh NW 24.0 mph38.6 kmh 30.29 in1025.7 mb 0.00 in0.0 mm 0.00 in/hr0.0 mm/hr 0.00 in0.0 mm
11:58 AM 34.5°F1.4°C 25.4°F-3.7°C 69% 16.0 mph NW25.7 kmh NW 24.0 mph38.6 kmh 30.28 in1025.4 mb 0.00 in0.0 mm 0.00 in/hr0.0 mm/hr 0.00 in0.0 mm
12:00 PM 34.7°F1.5°C 26.3°F-3.2°C 71% 14.0 mph NW22.5 kmh NW 24.0 mph38.6 kmh 30.28 in1025.4 mb 0.00 in0.0 mm 0.00 in/hr0.0 mm/hr 0.00 in0.0 mm
12:01 PM 34.8°F1.6°C 26.4°F-3.1°C 71% 11.0 mph WNW17.7 kmh WNW 20.0 mph32.2 kmh 30.28 in1025.4 mb 0.00 in0.0 mm 0.00 in/hr0.0 mm/hr 0.00 in0.0 mm
12:03 PM 34.8°F1.6°C 26.0°F-3.3°C 70% 16.0 mph WNW25.7 kmh WNW 20.0 mph32.2 kmh 30.28 in1025.4 mb 0.00 in0.0 mm 0.00 in/hr0.0 mm/hr 0.00 in0.0 mm
12:05 PM 34.7°F1.5°C 25.9°F-3.4°C 70% 10.0 mph WNW16.1 kmh WNW 20.0 mph32.2 kmh 30.28 in1025.4 mb 0.00 in0.0 mm 0.00 in/hr0.0 mm/hr 0.00 in0.0 mm
12:06 PM 34.7°F1.5°C 25.9°F-3.4°C 70% 7.0 mph NW11.3 kmh NW 20.0 mph32.2 kmh 30.28 in1025.4 mb 0.00 in0.0 mm 0.00 in/hr0.0 mm/hr 0.00 in0.0 mm
12:08 PM 34.8°F1.6°C 26.0°F-3.3°C 70% 11.0 mph WNW17.7 kmh WNW 20.0 mph32.2 kmh 30.28 in1025.4 mb 0.00 in0.0 mm 0.00 in/hr0.0 mm/hr 0.00 in0.0 mm
12:10 PM 35.0°F1.7°C 26.6°F-3.0°C 71% 19.0 mph NW30.6 kmh NW 22.0 mph35.4 kmh 30.28 in1025.4 mb 0.00 in0.0 mm 0.00 in/hr0.0 mm/hr 0.00 in0.0 mm
12:11 PM 35.0°F1.7°C 26.6°F-3.0°C 71% 12.0 mph NW19.3 kmh NW 22.0 mph35.4 kmh 30.28 in1025.4 mb 0.00 in0.0 mm 0.00 in/hr0.0 mm/hr 0.00 in0.0 mm
12:13 PM 35.0°F1.7°C 26.6°F-3.0°C 71% 7.0 mph WNW11.3 kmh WNW 22.0 mph35.4 kmh 30.28 in1025.4 mb 0.00 in0.0 mm 0.00 in/hr0.0 mm/hr 0.00 in0.0 mm
12:15 PM 35.3°F1.8°C 26.9°F-2.8°C 71% 6.0 mph W9.7 kmh W 22.0 mph35.4 kmh 30.28 in1025.4 mb 0.00 in0.0 mm 0.00 in/hr0.0 mm/hr 0.00 in0.0 mm
12:16 PM 35.5°F1.9°C 27.0°F-2.8°C 71% 5.0 mph WNW8.0 kmh WNW 22.0 mph35.4 kmh 30.27 in1025.1 mb 0.00 in0.0 mm 0.00 in/hr0.0 mm/hr 0.00 in0.0 mm
12:17 PM 35.6°F2.0°C 26.8°F-2.9°C 70% 14.0 mph WNW22.5 kmh WNW 22.0 mph35.4 kmh 30.28 in1025.4 mb 0.00 in0.0 mm 0.00 in/hr0.0 mm/hr 0.00 in0.0 mm
12:19 PM 35.5°F1.9°C 26.0°F-3.3°C 68% 7.0 mph W11.3 kmh W 22.0 mph35.4 kmh 30.28 in1025.4 mb 0.00 in0.0 mm 0.00 in/hr0.0 mm/hr 0.00 in0.0 mm
12:20 PM 35.4°F1.9°C 26.6°F-3.0°C 70% 12.0 mph W19.3 kmh W 22.0 mph35.4 kmh 30.28 in1025.4 mb 0.00 in0.0 mm 0.00 in/hr0.0 mm/hr 0.00 in0.0 mm
12:22 PM 35.4°F1.9°C 27.0°F-2.8°C 71% 10.0 mph WSW16.1 kmh WSW 22.0 mph35.4 kmh 30.27 in1025.1 mb 0.00 in0.0 mm 0.00 in/hr0.0 mm/hr 0.00 in0.0 mm
12:23 PM 35.3°F1.8°C 26.5°F-3.1°C 70% 15.0 mph WNW24.1 kmh WNW 22.0 mph35.4 kmh 30.27 in1025.1 mb 0.00 in0.0 mm 0.00 in/hr0.0 mm/hr 0.00 in0.0 mm
12:25 PM 35.2°F1.8°C 26.8°F-2.9°C 71% 18.0 mph WNW29.0 kmh WNW 22.0 mph35.4 kmh 30.27 in1025.1 mb 0.00 in0.0 mm 0.00 in/hr0.0 mm/hr 0.00 in0.0 mm
12:26 PM 35.3°F1.8°C 26.9°F-2.8°C 71% 10.0 mph W16.1 kmh W 22.0 mph35.4 kmh 30.28 in1025.4 mb 0.00 in0.0 mm 0.00 in/hr0.0 mm/hr 0.00 in0.0 mm
12:28 PM 35.3°F1.8°C 25.8°F-3.4°C 68% 14.0 mph WNW22.5 kmh WNW 22.0 mph35.4 kmh 30.28 in1025.4 mb 0.00 in0.0 mm 0.00 in/hr0.0 mm/hr 0.00 in0.0 mm
12:30 PM 35.0°F1.7°C 26.2°F-3.2°C 70% 7.0 mph NW11.3 kmh NW 22.0 mph35.4 kmh 30.28 in1025.4 mb 0.00 in0.0 mm 0.00 in/hr0.0 mm/hr 0.00 in0.0 mm
12:31 PM 35.1°F1.7°C 27.0°F-2.8°C 72% 18.0 mph NW29.0 kmh NW 19.0 mph30.6 kmh 30.28 in1025.4 mb 0.00 in0.0 mm 0.00 in/hr0.0 mm/hr 0.00 in0.0 mm
12:33 PM 35.3°F1.8°C 27.2°F-2.7°C 72% 10.0 mph NW16.1 kmh NW 20.0 mph32.2 kmh 30.28 in1025.4 mb 0.00 in0.0 mm 0.00 in/hr0.0 mm/hr 0.00 in0.0 mm
12:34 PM 35.6°F2.0°C 27.5°F-2.5°C 72% 8.0 mph W12.9 kmh W 20.0 mph32.2 kmh 30.28 in1025.4 mb 0.00 in0.0 mm 0.00 in/hr0.0 mm/hr 0.00 in0.0 mm
12:35 PM 35.9°F2.2°C 26.7°F-2.9°C 69% 11.0 mph NW17.7 kmh NW 20.0 mph32.2 kmh 30.28 in1025.4 mb 0.00 in0.0 mm 0.00 in/hr0.0 mm/hr 0.00 in0.0 mm
12:37 PM 36.0°F2.2°C 27.2°F-2.7°C 70% 5.0 mph WSW8.0 kmh WSW 20.0 mph32.2 kmh 30.28 in1025.4 mb 0.00 in0.0 mm 0.00 in/hr0.0 mm/hr 0.00 in0.0 mm
12:39 PM 36.1°F2.3°C 26.6°F-3.0°C 68% 21.0 mph WNW33.8 kmh WNW 21.0 mph33.8 kmh 30.29 in1025.7 mb 0.00 in0.0 mm 0.00 in/hr0.0 mm/hr 0.00 in0.0 mm
12:40 PM 35.9°F2.2°C 26.4°F-3.1°C 68% 18.0 mph WNW29.0 kmh WNW 23.0 mph37.0 kmh 30.29 in1025.7 mb 0.00 in0.0 mm 0.00 in/hr0.0 mm/hr 0.00 in0.0 mm
12:41 PM 35.8°F2.1°C 27.0°F-2.8°C 70% 11.0 mph NW17.7 kmh NW 23.0 mph37.0 kmh 30.29 in1025.7 mb 0.00 in0.0 mm 0.00 in/hr0.0 mm/hr 0.00 in0.0 mm
12:42 PM 35.7°F2.1°C 26.2°F-3.2°C 68% 9.0 mph NW14.5 kmh NW 25.0 mph40.2 kmh 30.29 in1025.7 mb 0.00 in0.0 mm 0.00 in/hr0.0 mm/hr 0.00 in0.0 mm
12:44 PM 35.6°F2.0°C 26.5°F-3.1°C 69% 5.0 mph WSW8.0 kmh WSW 25.0 mph40.2 kmh 30.28 in1025.4 mb 0.00 in0.0 mm 0.00 in/hr0.0 mm/hr 0.00 in0.0 mm
12:46 PM 35.6°F2.0°C 25.7°F-3.5°C 67% 13.0 mph NW20.9 kmh NW 25.0 mph40.2 kmh 30.28 in1025.4 mb 0.00 in0.0 mm 0.00 in/hr0.0 mm/hr 0.00 in0.0 mm
12:47 PM 35.6°F2.0°C 26.8°F-2.9°C 70% 16.0 mph WNW25.7 kmh WNW 25.0 mph40.2 kmh 30.29 in1025.7 mb 0.00 in0.0 mm 0.00 in/hr0.0 mm/hr 0.00 in0.0 mm
12:49 PM 35.9°F2.2°C 27.4°F-2.6°C 71% 15.0 mph WNW24.1 kmh WNW 25.0 mph40.2 kmh 30.28 in1025.4 mb 0.00 in0.0 mm 0.00 in/hr0.0 mm/hr 0.00 in0.0 mm
12:50 PM 35.9°F2.2°C 26.4°F-3.1°C 68% 11.0 mph NW17.7 kmh NW 25.0 mph40.2 kmh 30.28 in1025.4 mb 0.00 in0.0 mm 0.00 in/hr0.0 mm/hr 0.00 in0.0 mm
12:52 PM 35.8°F2.1°C 25.9°F-3.4°C 67% 13.0 mph NW20.9 kmh NW 25.0 mph40.2 kmh 30.28 in1025.4 mb 0.00 in0.0 mm 0.00 in/hr0.0 mm/hr 0.00 in0.0 mm
12:54 PM 35.9°F2.2°C 27.1°F-2.7°C 70% 18.0 mph WNW29.0 kmh WNW 25.0 mph40.2 kmh 30.27 in1025.1 mb 0.00 in0.0 mm 0.00 in/hr0.0 mm/hr 0.00 in0.0 mm
12:56 PM 35.8°F2.1°C 25.9°F-3.4°C 67% 9.0 mph W14.5 kmh W 25.0 mph40.2 kmh 30.27 in1025.1 mb 0.00 in0.0 mm 0.00 in/hr0.0 mm/hr 0.00 in0.0 mm
12:57 PM 35.7°F2.1°C 25.8°F-3.4°C 67% 12.0 mph W19.3 kmh W 25.0 mph40.2 kmh 30.27 in1025.1 mb 0.00 in0.0 mm 0.00 in/hr0.0 mm/hr 0.00 in0.0 mm
12:59 PM 35.7°F2.1°C 25.8°F-3.4°C 67% 17.0 mph NW27.4 kmh NW 25.0 mph40.2 kmh 30.27 in1025.1 mb 0.00 in0.0 mm 0.00 in/hr0.0 mm/hr 0.00 in0.0 mm
01:00 PM 35.7°F2.1°C 25.8°F-3.4°C 67% 16.0 mph WNW25.7 kmh WNW 16.0 mph25.7 kmh 30.27 in1025.1 mb 0.00 in0.0 mm 0.00 in/hr0.0 mm/hr 0.00 in0.0 mm
01:01 PM 35.7°F2.1°C 25.8°F-3.4°C 67% 20.0 mph NW32.2 kmh NW 20.0 mph32.2 kmh 30.27 in1025.1 mb 0.00 in0.0 mm 0.00 in/hr0.0 mm/hr 0.00 in0.0 mm
01:02 PM 35.8°F2.1°C 26.6°F-3.0°C 69% 14.0 mph W22.5 kmh W 23.0 mph37.0 kmh 30.27 in1025.1 mb 0.00 in0.0 mm 0.00 in/hr0.0 mm/hr 0.00 in0.0 mm
01:04 PM 35.9°F2.2°C 27.1°F-2.7°C 70% 15.0 mph WNW24.1 kmh WNW 23.0 mph37.0 kmh 30.27 in1025.1 mb 0.00 in0.0 mm 0.00 in/hr0.0 mm/hr 0.00 in0.0 mm
01:05 PM 36.0°F2.2°C 27.5°F-2.5°C 71% 10.0 mph WNW16.1 kmh WNW 23.0 mph37.0 kmh 30.27 in1025.1 mb 0.00 in0.0 mm 0.00 in/hr0.0 mm/hr 0.00 in0.0 mm
01:06 PM 36.0°F2.2°C 26.8°F-2.9°C 69% 15.0 mph WNW24.1 kmh WNW 23.0 mph37.0 kmh 30.27 in1025.1 mb 0.00 in0.0 mm 0.00 in/hr0.0 mm/hr 0.00 in0.0 mm
01:07 PM 36.1°F2.3°C 27.3°F-2.6°C 70% 15.0 mph W24.1 kmh W 23.0 mph37.0 kmh 30.27 in1025.1 mb 0.00 in0.0 mm 0.00 in/hr0.0 mm/hr 0.00 in0.0 mm
01:09 PM 36.1°F2.3°C 27.3°F-2.6°C 70% 20.0 mph WNW32.2 kmh WNW 23.0 mph37.0 kmh 30.27 in1025.1 mb 0.00 in0.0 mm 0.00 in/hr0.0 mm/hr 0.00 in0.0 mm
01:10 PM 36.1°F2.3°C 26.6°F-3.0°C 68% 15.0 mph WNW24.1 kmh WNW 23.0 mph37.0 kmh 30.27 in1025.1 mb 0.00 in0.0 mm 0.00 in/hr0.0 mm/hr 0.00 in0.0 mm
01:12 PM 36.0°F2.2°C 25.8°F-3.4°C 66% 12.0 mph WNW19.3 kmh WNW 23.0 mph37.0 kmh 30.26 in1024.7 mb 0.00 in0.0 mm 0.00 in/hr0.0 mm/hr 0.00 in0.0 mm
01:13 PM 36.0°F2.2°C 25.8°F-3.4°C 66% 20.0 mph WNW32.2 kmh WNW 23.0 mph37.0 kmh 30.26 in1024.7 mb 0.00 in0.0 mm 0.00 in/hr0.0 mm/hr 0.00 in0.0 mm
01:15 PM 36.1°F2.3°C 26.6°F-3.0°C 68% 15.0 mph WNW24.1 kmh WNW 23.0 mph37.0 kmh 30.26 in1024.7 mb 0.00 in0.0 mm 0.00 in/hr0.0 mm/hr 0.00 in0.0 mm
01:16 PM 36.2°F2.3°C 26.3°F-3.2°C 67% 6.0 mph NW9.7 kmh NW 23.0 mph37.0 kmh 30.25 in1024.4 mb 0.00 in0.0 mm 0.00 in/hr0.0 mm/hr 0.00 in0.0 mm
01:18 PM 36.9°F2.7°C 28.0°F-2.2°C 70% 18.0 mph WNW29.0 kmh WNW 23.0 mph37.0 kmh 30.25 in1024.4 mb 0.00 in0.0 mm 0.00 in/hr0.0 mm/hr 0.00 in0.0 mm
01:19 PM 37.1°F2.8°C 27.5°F-2.5°C 68% 4.0 mph W6.4 kmh W 23.0 mph37.0 kmh 30.25 in1024.4 mb 0.00 in0.0 mm 0.00 in/hr0.0 mm/hr 0.00 in0.0 mm
01:20 PM 37.2°F2.9°C 26.9°F-2.8°C 66% 8.0 mph W12.9 kmh W 23.0 mph37.0 kmh 30.25 in1024.4 mb 0.00 in0.0 mm 0.00 in/hr0.0 mm/hr 0.00 in0.0 mm
01:21 PM 37.2°F2.9°C 26.9°F-2.8°C 66% 9.0 mph WNW14.5 kmh WNW 23.0 mph37.0 kmh 30.25 in1024.4 mb 0.00 in0.0 mm 0.00 in/hr0.0 mm/hr 0.00 in0.0 mm
01:22 PM 37.1°F2.8°C 25.7°F-3.5°C 63% 10.0 mph WNW16.1 kmh WNW 23.0 mph37.0 kmh 30.25 in1024.4 mb 0.00 in0.0 mm 0.00 in/hr0.0 mm/hr 0.00 in0.0 mm
01:24 PM 37.1°F2.8°C 27.2°F-2.7°C 67% 17.0 mph NW27.4 kmh NW 23.0 mph37.0 kmh 30.25 in1024.4 mb 0.00 in0.0 mm 0.00 in/hr0.0 mm/hr 0.00 in0.0 mm
01:26 PM 36.9°F2.7°C 25.9°F-3.4°C 64% 4.0 mph WNW6.4 kmh WNW 23.0 mph37.0 kmh 30.25 in1024.4 mb 0.00 in0.0 mm 0.00 in/hr0.0 mm/hr 0.00 in0.0 mm
01:27 PM 37.2°F2.9°C 26.9°F-2.8°C 66% 3.0 mph WSW4.8 kmh WSW 23.0 mph37.0 kmh 30.25 in1024.4 mb 0.00 in0.0 mm 0.00 in/hr0.0 mm/hr 0.00 in0.0 mm
01:28 PM 37.7°F3.2°C 27.8°F-2.3°C 67% 3.0 mph WSW4.8 kmh WSW 23.0 mph37.0 kmh 30.25 in1024.4 mb 0.00 in0.0 mm 0.00 in/hr0.0 mm/hr 0.00 in0.0 mm
01:29 PM 37.9°F3.3°C 26.8°F-2.9°C 64% 11.0 mph W17.7 kmh W 23.0 mph37.0 kmh 30.25 in1024.4 mb 0.00 in0.0 mm 0.00 in/hr0.0 mm/hr 0.00 in0.0 mm
01:30 PM 38.1°F3.4°C 27.0°F-2.8°C 64% 11.0 mph SW17.7 kmh SW 11.0 mph17.7 kmh 30.25 in1024.4 mb 0.00 in0.0 mm 0.00 in/hr0.0 mm/hr 0.00 in0.0 mm
01:31 PM 38.1°F3.4°C 27.0°F-2.8°C 64% 11.0 mph W17.7 kmh W 15.0 mph24.1 kmh 30.25 in1024.4 mb 0.00 in0.0 mm 0.00 in/hr0.0 mm/hr 0.00 in0.0 mm
01:33 PM 37.8°F3.2°C 26.7°F-2.9°C 64% 7.0 mph W11.3 kmh W 15.0 mph24.1 kmh 30.24 in1024.0 mb 0.00 in0.0 mm 0.00 in/hr0.0 mm/hr 0.00 in0.0 mm
01:34 PM 37.9°F3.3°C 27.9°F-2.3°C 67% 1.0 mph W1.6 kmh W 15.0 mph24.1 kmh 30.24 in1024.0 mb 0.00 in0.0 mm 0.00 in/hr0.0 mm/hr 0.00 in0.0 mm
01:35 PM 38.4°F3.6°C 29.5°F-1.4°C 70% 2.0 mph WNW3.2 kmh WNW 15.0 mph24.1 kmh 30.24 in1024.0 mb 0.00 in0.0 mm 0.00 in/hr0.0 mm/hr 0.00 in0.0 mm
01:36 PM 38.7°F3.7°C 29.1°F-1.6°C 68% 6.0 mph NW9.7 kmh NW 15.0 mph24.1 kmh 30.25 in1024.4 mb 0.00 in0.0 mm 0.00 in/hr0.0 mm/hr 0.00 in0.0 mm
01:37 PM 38.9°F3.8°C 28.5°F-1.9°C 66% 3.0 mph NW4.8 kmh NW 15.0 mph24.1 kmh 30.25 in1024.4 mb 0.00 in0.0 mm 0.00 in/hr0.0 mm/hr 0.00 in0.0 mm
01:38 PM 38.9°F3.8°C 27.8°F-2.3°C 64% 3.0 mph WSW4.8 kmh WSW 15.0 mph24.1 kmh 30.24 in1024.0 mb 0.00 in0.0 mm 0.00 in/hr0.0 mm/hr 0.00 in0.0 mm
01:39 PM 38.7°F3.7°C 26.8°F-2.9°C 62% 8.0 mph NW12.9 kmh NW 15.0 mph24.1 kmh 30.24 in1024.0 mb 0.00 in0.0 mm 0.00 in/hr0.0 mm/hr 0.00 in0.0 mm
01:40 PM 38.6°F3.7°C 27.5°F-2.5°C 64% 6.0 mph WNW9.7 kmh WNW 15.0 mph24.1 kmh 30.24 in1024.0 mb 0.00 in0.0 mm 0.00 in/hr0.0 mm/hr 0.00 in0.0 mm
01:41 PM 38.5°F3.6°C 27.0°F-2.8°C 63% 13.0 mph WNW20.9 kmh WNW 15.0 mph24.1 kmh 30.24 in1024.0 mb 0.00 in0.0 mm 0.00 in/hr0.0 mm/hr 0.00 in0.0 mm
01:42 PM 38.3°F3.5°C 25.7°F-3.5°C 60% 8.0 mph WSW12.9 kmh WSW 15.0 mph24.1 kmh 30.24 in1024.0 mb 0.00 in0.0 mm 0.00 in/hr0.0 mm/hr 0.00 in0.0 mm
01:43 PM 38.1°F3.4°C 25.9°F-3.4°C 61% 9.0 mph WNW14.5 kmh WNW 15.0 mph24.1 kmh 30.24 in1024.0 mb 0.00 in0.0 mm 0.00 in/hr0.0 mm/hr 0.00 in0.0 mm
01:44 PM 38.0°F3.3°C 26.2°F-3.2°C 62% 17.0 mph NW27.4 kmh NW 17.0 mph27.4 kmh 30.24 in1024.0 mb 0.00 in0.0 mm 0.00 in/hr0.0 mm/hr 0.00 in0.0 mm
01:45 PM 38.1°F3.4°C 27.0°F-2.8°C 64% 8.0 mph WSW12.9 kmh WSW 17.0 mph27.4 kmh 30.24 in1024.0 mb 0.00 in0.0 mm 0.00 in/hr0.0 mm/hr 0.00 in0.0 mm
01:46 PM 38.1°F3.4°C 26.3°F-3.2°C 62% 3.0 mph W4.8 kmh W 17.0 mph27.4 kmh 30.24 in1024.0 mb 0.00 in0.0 mm 0.00 in/hr0.0 mm/hr 0.00 in0.0 mm
01:47 PM 38.5°F3.6°C 27.0°F-2.8°C 63% 6.0 mph NW9.7 kmh NW 17.0 mph27.4 kmh 30.24 in1024.0 mb 0.00 in0.0 mm 0.00 in/hr0.0 mm/hr 0.00 in0.0 mm
01:49 PM 38.8°F3.8°C 27.3°F-2.6°C 63% 3.0 mph WSW4.8 kmh WSW 17.0 mph27.4 kmh 30.24 in1024.0 mb 0.00 in0.0 mm 0.00 in/hr0.0 mm/hr 0.00 in0.0 mm
01:50 PM 38.9°F3.8°C 27.0°F-2.8°C 62% 3.0 mph WSW4.8 kmh WSW 17.0 mph27.4 kmh 30.24 in1024.0 mb 0.00 in0.0 mm 0.00 in/hr0.0 mm/hr 0.00 in0.0 mm
01:51 PM 38.8°F3.8°C 25.3°F-3.7°C 58% 3.0 mph NW4.8 kmh NW 17.0 mph27.4 kmh 30.24 in1024.0 mb 0.00 in0.0 mm 0.00 in/hr0.0 mm/hr 0.00 in0.0 mm
01:52 PM 38.7°F3.7°C 25.2°F-3.8°C 58% 12.0 mph NW19.3 kmh NW 17.0 mph27.4 kmh 30.24 in1024.0 mb 0.00 in0.0 mm 0.00 in/hr0.0 mm/hr 0.00 in0.0 mm
01:53 PM 38.6°F3.7°C 25.5°F-3.6°C 59% 10.0 mph W16.1 kmh W 17.0 mph27.4 kmh 30.24 in1024.0 mb 0.00 in0.0 mm 0.00 in/hr0.0 mm/hr 0.00 in0.0 mm
01:54 PM 38.6°F3.7°C 25.9°F-3.4°C 60% 6.0 mph NW9.7 kmh NW 17.0 mph27.4 kmh 30.24 in1024.0 mb 0.00 in0.0 mm 0.00 in/hr0.0 mm/hr 0.00 in0.0 mm
01:55 PM 38.7°F3.7°C 27.2°F-2.7°C 63% 3.0 mph NW4.8 kmh NW 17.0 mph27.4 kmh 30.24 in1024.0 mb 0.00 in0.0 mm 0.00 in/hr0.0 mm/hr 0.00 in0.0 mm
01:56 PM 38.9°F3.8°C 27.0°F-2.8°C 62% 5.0 mph NW8.0 kmh NW 17.0 mph27.4 kmh 30.24 in1024.0 mb 0.00 in0.0 mm 0.00 in/hr0.0 mm/hr 0.00 in0.0 mm
01:58 PM 39.0°F3.9°C 26.3°F-3.2°C 60% 3.0 mph WSW4.8 kmh WSW 17.0 mph27.4 kmh 30.24 in1024.0 mb 0.00 in0.0 mm 0.00 in/hr0.0 mm/hr 0.00 in0.0 mm
02:00 PM 39.2°F4.0°C 26.5°F-3.1°C 60% 9.0 mph WNW14.5 kmh WNW 17.0 mph27.4 kmh 30.24 in1024.0 mb 0.00 in0.0 mm 0.00 in/hr0.0 mm/hr 0.00 in0.0 mm
02:01 PM 39.2°F4.0°C 27.3°F-2.6°C 62% 12.0 mph WNW19.3 kmh WNW 12.0 mph19.3 kmh 30.24 in1024.0 mb 0.00 in0.0 mm 0.00 in/hr0.0 mm/hr 0.00 in0.0 mm
02:03 PM 39.2°F4.0°C 27.3°F-2.6°C 62% 2.0 mph SSW3.2 kmh SSW 12.0 mph19.3 kmh 30.24 in1024.0 mb 0.00 in0.0 mm 0.00 in/hr0.0 mm/hr 0.00 in0.0 mm
02:04 PM 39.3°F4.1°C 27.8°F-2.3°C 63% 10.0 mph WNW16.1 kmh WNW 15.0 mph24.1 kmh 30.24 in1024.0 mb 0.00 in0.0 mm 0.00 in/hr0.0 mm/hr 0.00 in0.0 mm
02:05 PM 39.4°F4.1°C 27.5°F-2.5°C 62% 7.0 mph W11.3 kmh W 15.0 mph24.1 kmh 30.24 in1024.0 mb 0.00 in0.0 mm 0.00 in/hr0.0 mm/hr 0.00 in0.0 mm
02:07 PM 39.3°F4.1°C 27.0°F-2.8°C 61% 3.0 mph W4.8 kmh W 15.0 mph24.1 kmh 30.23 in1023.7 mb 0.00 in0.0 mm 0.00 in/hr0.0 mm/hr 0.00 in0.0 mm
02:08 PM 39.3°F4.1°C 26.6°F-3.0°C 60% 8.0 mph W12.9 kmh W 15.0 mph24.1 kmh 30.23 in1023.7 mb 0.00 in0.0 mm 0.00 in/hr0.0 mm/hr 0.00 in0.0 mm
02:10 PM 39.7°F4.3°C 27.8°F-2.3°C 62% 4.0 mph W6.4 kmh W 15.0 mph24.1 kmh 30.23 in1023.7 mb 0.00 in0.0 mm 0.00 in/hr0.0 mm/hr 0.00 in0.0 mm
02:11 PM 39.8°F4.3°C 27.5°F-2.5°C 61% 3.0 mph W4.8 kmh W 15.0 mph24.1 kmh 30.23 in1023.7 mb 0.00 in0.0 mm 0.00 in/hr0.0 mm/hr 0.00 in0.0 mm
02:12 PM 39.8°F4.3°C 27.9°F-2.3°C 62% 4.0 mph NW6.4 kmh NW 15.0 mph24.1 kmh 30.23 in1023.7 mb 0.00 in0.0 mm 0.00 in/hr0.0 mm/hr 0.00 in0.0 mm
02:13 PM 39.7°F4.3°C 26.2°F-3.2°C 58% 5.0 mph WNW8.0 kmh WNW 15.0 mph24.1 kmh 30.23 in1023.7 mb 0.00 in0.0 mm 0.00 in/hr0.0 mm/hr 0.00 in0.0 mm
02:15 PM 39.7°F4.3°C 27.0°F-2.8°C 60% 4.0 mph W6.4 kmh W 15.0 mph24.1 kmh 30.23 in1023.7 mb 0.00 in0.0 mm 0.00 in/hr0.0 mm/hr 0.00 in0.0 mm
02:17 PM 39.8°F4.3°C 26.7°F-2.9°C 59% 11.0 mph WNW17.7 kmh WNW 15.0 mph24.1 kmh 30.23 in1023.7 mb 0.00 in0.0 mm 0.00 in/hr0.0 mm/hr 0.00 in0.0 mm
02:18 PM 39.9°F4.4°C 27.2°F-2.7°C 60% 1.0 mph WSW1.6 kmh WSW 15.0 mph24.1 kmh 30.23 in1023.7 mb 0.00 in0.0 mm 0.00 in/hr0.0 mm/hr 0.00 in0.0 mm
02:19 PM 40.0°F4.4°C 26.8°F-2.9°C 59% 2.0 mph WSW3.2 kmh WSW 15.0 mph24.1 kmh 30.22 in1023.4 mb 0.00 in0.0 mm 0.00 in/hr0.0 mm/hr 0.00 in0.0 mm
02:20 PM 40.0°F4.4°C 26.8°F-2.9°C 59% 5.0 mph WSW8.0 kmh WSW 15.0 mph24.1 kmh 30.22 in1023.4 mb 0.00 in0.0 mm 0.00 in/hr0.0 mm/hr 0.00 in0.0 mm
02:21 PM 40.1°F4.5°C 26.9°F-2.8°C 59% 4.0 mph WNW6.4 kmh WNW 15.0 mph24.1 kmh 30.22 in1023.4 mb 0.00 in0.0 mm 0.00 in/hr0.0 mm/hr 0.00 in0.0 mm
02:22 PM 40.0°F4.4°C 26.8°F-2.9°C 59% 8.0 mph NW12.9 kmh NW 15.0 mph24.1 kmh 30.22 in1023.4 mb 0.00 in0.0 mm 0.00 in/hr0.0 mm/hr 0.00 in0.0 mm
02:24 PM 40.1°F4.5°C 26.9°F-2.8°C 59% 8.0 mph NW12.9 kmh NW 15.0 mph24.1 kmh 30.22 in1023.4 mb 0.00 in0.0 mm 0.00 in/hr0.0 mm/hr 0.00 in0.0 mm
02:25 PM 40.2°F4.6°C 27.8°F-2.3°C 61% 11.0 mph WNW17.7 kmh WNW 15.0 mph24.1 kmh 30.22 in1023.4 mb 0.00 in0.0 mm 0.00 in/hr0.0 mm/hr 0.00 in0.0 mm
02:27 PM 40.7°F4.8°C 27.5°F-2.5°C 59% 2.0 mph WNW3.2 kmh WNW 15.0 mph24.1 kmh 30.22 in1023.4 mb 0.00 in0.0 mm 0.00 in/hr0.0 mm/hr 0.00 in0.0 mm
02:28 PM 40.9°F4.9°C 27.7°F-2.4°C 59% 3.0 mph SW4.8 kmh SW 15.0 mph24.1 kmh 30.22 in1023.4 mb 0.00 in0.0 mm 0.00 in/hr0.0 mm/hr 0.00 in0.0 mm
02:30 PM 40.9°F4.9°C 27.3°F-2.6°C 58% 2.0 mph W3.2 kmh W 15.0 mph24.1 kmh 30.22 in1023.4 mb 0.00 in0.0 mm 0.00 in/hr0.0 mm/hr 0.00 in0.0 mm
02:31 PM 41.0°F5.0°C 27.4°F-2.6°C 58% 4.0 mph WSW6.4 kmh WSW 8.0 mph12.9 kmh 30.22 in1023.4 mb 0.00 in0.0 mm 0.00 in/hr0.0 mm/hr 0.00 in0.0 mm
02:33 PM 41.1°F5.1°C 27.9°F-2.3°C 59% 7.0 mph W11.3 kmh W 10.0 mph16.1 kmh 30.22 in1023.4 mb 0.00 in0.0 mm 0.00 in/hr0.0 mm/hr 0.00 in0.0 mm
02:35 PM 41.3°F5.2°C 28.5°F-1.9°C 60% 9.0 mph NW14.5 kmh NW 13.0 mph20.9 kmh 30.22 in1023.4 mb 0.00 in0.0 mm 0.00 in/hr0.0 mm/hr 0.00 in0.0 mm
02:36 PM 41.2°F5.1°C 28.0°F-2.2°C 59% 8.0 mph WSW12.9 kmh WSW 13.0 mph20.9 kmh 30.22 in1023.4 mb 0.00 in0.0 mm 0.00 in/hr0.0 mm/hr 0.00 in0.0 mm
02:38 PM 41.3°F5.2°C 28.5°F-1.9°C 60% 3.0 mph W4.8 kmh W 13.0 mph20.9 kmh 30.22 in1023.4 mb 0.00 in0.0 mm 0.00 in/hr0.0 mm/hr 0.00 in0.0 mm
02:40 PM 41.3°F5.2°C 28.1°F-2.2°C 59% 5.0 mph NW8.0 kmh NW 13.0 mph20.9 kmh 30.21 in1023.0 mb 0.00 in0.0 mm 0.00 in/hr0.0 mm/hr 0.00 in0.0 mm
02:41 PM 41.3°F5.2°C 28.1°F-2.2°C 59% 3.0 mph WSW4.8 kmh WSW 13.0 mph20.9 kmh 30.21 in1023.0 mb 0.00 in0.0 mm 0.00 in/hr0.0 mm/hr 0.00 in0.0 mm
02:43 PM 41.4°F5.2°C 28.6°F-1.9°C 60% 5.0 mph W8.0 kmh W 13.0 mph20.9 kmh 30.21 in1023.0 mb 0.00 in0.0 mm 0.00 in/hr0.0 mm/hr 0.00 in0.0 mm
02:45 PM 41.3°F5.2°C 26.4°F-3.1°C 55% 5.0 mph WSW8.0 kmh WSW 13.0 mph20.9 kmh 30.21 in1023.0 mb 0.00 in0.0 mm 0.00 in/hr0.0 mm/hr 0.00 in0.0 mm
02:47 PM 41.3°F5.2°C 26.8°F-2.9°C 56% 2.0 mph SW3.2 kmh SW 13.0 mph20.9 kmh 30.21 in1023.0 mb 0.00 in0.0 mm 0.00 in/hr0.0 mm/hr 0.00 in0.0 mm
02:48 PM 41.3°F5.2°C 28.1°F-2.2°C 59% 2.0 mph NW3.2 kmh NW 13.0 mph20.9 kmh 30.21 in1023.0 mb 0.00 in0.0 mm 0.00 in/hr0.0 mm/hr 0.00 in0.0 mm
02:50 PM 41.6°F5.3°C 28.8°F-1.8°C 60% 2.0 mph WSW3.2 kmh WSW 13.0 mph20.9 kmh 30.21 in1023.0 mb 0.00 in0.0 mm 0.00 in/hr0.0 mm/hr 0.00 in0.0 mm
02:51 PM 41.7°F5.4°C 28.9°F-1.7°C 60% 6.0 mph W9.7 kmh W 13.0 mph20.9 kmh 30.21 in1023.0 mb 0.00 in0.0 mm 0.00 in/hr0.0 mm/hr 0.00 in0.0 mm
02:53 PM 41.6°F5.3°C 27.1°F-2.7°C 56% 2.0 mph WSW3.2 kmh WSW 13.0 mph20.9 kmh 30.20 in1022.7 mb 0.00 in0.0 mm 0.00 in/hr0.0 mm/hr 0.00 in0.0 mm
02:55 PM 41.6°F5.3°C 28.4°F-2.0°C 59% 3.0 mph W4.8 kmh W 13.0 mph20.9 kmh 30.20 in1022.7 mb 0.00 in0.0 mm 0.00 in/hr0.0 mm/hr 0.00 in0.0 mm
02:56 PM 41.6°F5.3°C 27.9°F-2.3°C 58% 4.0 mph NNW6.4 kmh NNW 13.0 mph20.9 kmh 30.20 in1022.7 mb 0.00 in0.0 mm 0.00 in/hr0.0 mm/hr 0.00 in0.0 mm
02:58 PM 41.9°F5.5°C 29.0°F-1.7°C 60% 3.0 mph SW4.8 kmh SW 13.0 mph20.9 kmh 30.20 in1022.7 mb 0.00 in0.0 mm 0.00 in/hr0.0 mm/hr 0.00 in0.0 mm
03:00 PM 41.8°F5.4°C 27.7°F-2.4°C 57% 4.0 mph WSW6.4 kmh WSW 4.0 mph6.4 kmh 30.20 in1022.7 mb 0.00 in0.0 mm 0.00 in/hr0.0 mm/hr 0.00 in0.0 mm
03:01 PM 41.8°F5.4°C 28.5°F-1.9°C 59% 3.0 mph WSW4.8 kmh WSW 4.0 mph6.4 kmh 30.20 in1022.7 mb 0.00 in0.0 mm 0.00 in/hr0.0 mm/hr 0.00 in0.0 mm
03:03 PM 41.9°F5.5°C 27.8°F-2.3°C 57% 5.0 mph WSW8.0 kmh WSW 9.0 mph14.5 kmh 30.20 in1022.7 mb 0.00 in0.0 mm 0.00 in/hr0.0 mm/hr 0.00 in0.0 mm
03:05 PM 42.0°F5.6°C 28.3°F-2.1°C 58% 2.0 mph SW3.2 kmh SW 9.0 mph14.5 kmh 30.20 in1022.7 mb 0.00 in0.0 mm 0.00 in/hr0.0 mm/hr 0.00 in0.0 mm
03:06 PM 42.0°F5.6°C 27.9°F-2.3°C 57% 9.0 mph WSW14.5 kmh WSW 12.0 mph19.3 kmh 30.20 in1022.7 mb 0.00 in0.0 mm 0.00 in/hr0.0 mm/hr 0.00 in0.0 mm
03:07 PM 41.9°F5.5°C 27.4°F-2.6°C 56% 3.0 mph WSW4.8 kmh WSW 12.0 mph19.3 kmh 30.20 in1022.7 mb 0.00 in0.0 mm 0.00 in/hr0.0 mm/hr 0.00 in0.0 mm
03:09 PM 42.0°F5.6°C 29.1°F-1.6°C 60% 10.0 mph W16.1 kmh W 12.0 mph19.3 kmh 30.20 in1022.7 mb 0.00 in0.0 mm 0.00 in/hr0.0 mm/hr 0.00 in0.0 mm
03:10 PM 41.8°F5.4°C 27.3°F-2.6°C 56% 5.0 mph NW8.0 kmh NW 13.0 mph20.9 kmh 30.20 in1022.7 mb 0.00 in0.0 mm 0.00 in/hr0.0 mm/hr 0.00 in0.0 mm
03:11 PM 41.8°F5.4°C 28.1°F-2.2°C 58% 5.0 mph SSE8.0 kmh SSE 13.0 mph20.9 kmh 30.20 in1022.7 mb 0.00 in0.0 mm 0.00 in/hr0.0 mm/hr 0.00 in0.0 mm
03:12 PM 41.7°F5.4°C 28.0°F-2.2°C 58% 7.0 mph SW11.3 kmh SW 13.0 mph20.9 kmh 30.20 in1022.7 mb 0.00 in0.0 mm 0.00 in/hr0.0 mm/hr 0.00 in0.0 mm
03:13 PM 41.7°F5.4°C 28.4°F-2.0°C 59% 4.0 mph SW6.4 kmh SW 13.0 mph20.9 kmh 30.19 in1022.4 mb 0.00 in0.0 mm 0.00 in/hr0.0 mm/hr 0.00 in0.0 mm
03:15 PM 41.8°F5.4°C 28.5°F-1.9°C 59% 2.0 mph NW3.2 kmh NW 14.0 mph22.5 kmh 30.19 in1022.4 mb 0.00 in0.0 mm 0.00 in/hr0.0 mm/hr 0.00 in0.0 mm
03:17 PM 42.0°F5.6°C 29.1°F-1.6°C 60% 3.0 mph NW4.8 kmh NW 14.0 mph22.5 kmh 30.19 in1022.4 mb 0.00 in0.0 mm 0.00 in/hr0.0 mm/hr 0.00 in0.0 mm
03:19 PM 42.3°F5.7°C 29.4°F-1.4°C 60% 2.0 mph W3.2 kmh W 14.0 mph22.5 kmh 30.19 in1022.4 mb 0.00 in0.0 mm 0.00 in/hr0.0 mm/hr 0.00 in0.0 mm
03:20 PM 42.3°F5.7°C 30.2°F-1.0°C 62% 2.0 mph NW3.2 kmh NW 14.0 mph22.5 kmh 30.19 in1022.4 mb 0.00 in0.0 mm 0.00 in/hr0.0 mm/hr 0.00 in0.0 mm
03:22 PM 42.3°F5.7°C 29.4°F-1.4°C 60% 3.0 mph WSW4.8 kmh WSW 14.0 mph22.5 kmh 30.19 in1022.4 mb 0.00 in0.0 mm 0.00 in/hr0.0 mm/hr 0.00 in0.0 mm
03:24 PM 42.3°F5.7°C 29.8°F-1.2°C 61% 5.0 mph WSW8.0 kmh WSW 14.0 mph22.5 kmh 30.19 in1022.4 mb 0.00 in0.0 mm 0.00 in/hr0.0 mm/hr 0.00 in0.0 mm
03:25 PM 42.4°F5.8°C 30.3°F-0.9°C 62% 3.0 mph NW4.8 kmh NW 14.0 mph22.5 kmh 30.19 in1022.4 mb 0.00 in0.0 mm 0.00 in/hr0.0 mm/hr 0.00 in0.0 mm
03:27 PM 42.4°F5.8°C 29.9°F-1.2°C 61% 4.0 mph W6.4 kmh W 14.0 mph22.5 kmh 30.19 in1022.4 mb 0.00 in0.0 mm 0.00 in/hr0.0 mm/hr 0.00 in0.0 mm
03:29 PM 42.4°F5.8°C 29.5°F-1.4°C 60% Calm Calm 14.0 mph22.5 kmh 30.19 in1022.4 mb 0.00 in0.0 mm 0.00 in/hr0.0 mm/hr 0.00 in0.0 mm
03:30 PM 42.4°F5.8°C 29.9°F-1.2°C 61% 4.0 mph WSW6.4 kmh WSW 4.0 mph6.4 kmh 30.20 in1022.7 mb 0.00 in0.0 mm 0.00 in/hr0.0 mm/hr 0.00 in0.0 mm
03:32 PM 42.3°F5.7°C 29.8°F-1.2°C 61% 2.0 mph NE3.2 kmh NE 8.0 mph12.9 kmh 30.20 in1022.7 mb 0.00 in0.0 mm 0.00 in/hr0.0 mm/hr 0.00 in0.0 mm
03:33 PM 42.3°F5.7°C 29.8°F-1.2°C 61% 4.0 mph NW6.4 kmh NW 12.0 mph19.3 kmh 30.20 in1022.7 mb 0.00 in0.0 mm 0.00 in/hr0.0 mm/hr 0.00 in0.0 mm
03:35 PM 42.4°F5.8°C 30.7°F-0.7°C 63% 7.0 mph NW11.3 kmh NW 12.0 mph19.3 kmh 30.20 in1022.7 mb 0.00 in0.0 mm 0.00 in/hr0.0 mm/hr 0.00 in0.0 mm
03:37 PM 42.5°F5.8°C 30.0°F-1.1°C 61% 3.0 mph WNW4.8 kmh WNW 12.0 mph19.3 kmh 30.20 in1022.7 mb 0.00 in0.0 mm 0.00 in/hr0.0 mm/hr 0.00 in0.0 mm
03:38 PM 42.4°F5.8°C 29.9°F-1.2°C 61% 5.0 mph NW8.0 kmh NW 15.0 mph24.1 kmh 30.20 in1022.7 mb 0.00 in0.0 mm 0.00 in/hr0.0 mm/hr 0.00 in0.0 mm
03:39 PM 42.4°F5.8°C 29.5°F-1.4°C 60% 3.0 mph N4.8 kmh N 15.0 mph24.1 kmh 30.20 in1022.7 mb 0.00 in0.0 mm 0.00 in/hr0.0 mm/hr 0.00 in0.0 mm
03:40 PM 42.4°F5.8°C 29.5°F-1.4°C 60% 6.0 mph W9.7 kmh W 15.0 mph24.1 kmh 30.20 in1022.7 mb 0.00 in0.0 mm 0.00 in/hr0.0 mm/hr 0.00 in0.0 mm
03:42 PM 42.5°F5.8°C 30.4°F-0.9°C 62% 6.0 mph WNW9.7 kmh WNW 17.0 mph27.4 kmh 30.20 in1022.7 mb 0.00 in0.0 mm 0.00 in/hr0.0 mm/hr 0.00 in0.0 mm
03:44 PM 42.5°F5.8°C 30.0°F-1.1°C 61% 6.0 mph W9.7 kmh W 17.0 mph27.4 kmh 30.20 in1022.7 mb 0.00 in0.0 mm 0.00 in/hr0.0 mm/hr 0.00 in0.0 mm
03:46 PM 42.5°F5.8°C 30.8°F-0.7°C 63% 2.0 mph W3.2 kmh W 17.0 mph27.4 kmh 30.20 in1022.7 mb 0.00 in0.0 mm 0.00 in/hr0.0 mm/hr 0.00 in0.0 mm
03:47 PM 42.6°F5.9°C 30.9°F-0.6°C 63% 11.0 mph WNW17.7 kmh WNW 17.0 mph27.4 kmh 30.20 in1022.7 mb 0.00 in0.0 mm 0.00 in/hr0.0 mm/hr 0.00 in0.0 mm
03:49 PM 42.5°F5.8°C 30.0°F-1.1°C 61% 5.0 mph NW8.0 kmh NW 17.0 mph27.4 kmh 30.20 in1022.7 mb 0.00 in0.0 mm 0.00 in/hr0.0 mm/hr 0.00 in0.0 mm
03:50 PM 42.5°F5.8°C 29.6°F-1.3°C 60% 8.0 mph W12.9 kmh W 17.0 mph27.4 kmh 30.20 in1022.7 mb 0.00 in0.0 mm 0.00 in/hr0.0 mm/hr 0.00 in0.0 mm
03:52 PM 42.5°F5.8°C 30.0°F-1.1°C 61% 4.0 mph WSW6.4 kmh WSW 17.0 mph27.4 kmh 30.20 in1022.7 mb 0.00 in0.0 mm 0.00 in/hr0.0 mm/hr 0.00 in0.0 mm
03:53 PM 42.6°F5.9°C 30.5°F-0.8°C 62% 4.0 mph WNW6.4 kmh WNW 17.0 mph27.4 kmh 30.20 in1022.7 mb 0.00 in0.0 mm 0.00 in/hr0.0 mm/hr 0.00 in0.0 mm
03:54 PM 42.7°F5.9°C 29.8°F-1.2°C 60% 2.0 mph NW3.2 kmh NW 17.0 mph27.4 kmh 30.20 in1022.7 mb 0.00 in0.0 mm 0.00 in/hr0.0 mm/hr 0.00 in0.0 mm
03:56 PM 42.7°F5.9°C 29.8°F-1.2°C 60% 7.0 mph NW11.3 kmh NW 17.0 mph27.4 kmh 30.20 in1022.7 mb 0.00 in0.0 mm 0.00 in/hr0.0 mm/hr 0.00 in0.0 mm
03:57 PM 42.7°F5.9°C 30.2°F-1.0°C 61% 2.0 mph W3.2 kmh W 17.0 mph27.4 kmh 30.20 in1022.7 mb 0.00 in0.0 mm 0.00 in/hr0.0 mm/hr 0.00 in0.0 mm
03:59 PM 42.8°F6.0°C 30.3°F-0.9°C 61% 6.0 mph WNW9.7 kmh WNW 17.0 mph27.4 kmh 30.20 in1022.7 mb 0.00 in0.0 mm 0.00 in/hr0.0 mm/hr 0.00 in0.0 mm
04:00 PM 42.8°F6.0°C 30.3°F-0.9°C 61% 10.0 mph WNW16.1 kmh WNW 17.0 mph27.4 kmh 30.20 in1022.7 mb 0.00 in0.0 mm 0.00 in/hr0.0 mm/hr 0.00 in0.0 mm
04:02 PM 42.8°F6.0°C 29.9°F-1.2°C 60% 7.0 mph W11.3 kmh W 10.0 mph16.1 kmh 30.21 in1023.0 mb 0.00 in0.0 mm 0.00 in/hr0.0 mm/hr 0.00 in0.0 mm
04:03 PM 42.8°F6.0°C 29.5°F-1.4°C 59% 4.0 mph SW6.4 kmh SW 12.0 mph19.3 kmh 30.21 in1023.0 mb 0.00 in0.0 mm 0.00 in/hr0.0 mm/hr 0.00 in0.0 mm
04:05 PM 42.8°F6.0°C 29.9°F-1.2°C 60% 6.0 mph SW9.7 kmh SW 12.0 mph19.3 kmh 30.21 in1023.0 mb 0.00 in0.0 mm 0.00 in/hr0.0 mm/hr 0.00 in0.0 mm
04:06 PM 42.9°F6.1°C 30.4°F-0.9°C 61% 6.0 mph WSW9.7 kmh WSW 12.0 mph19.3 kmh 30.21 in1023.0 mb 0.00 in0.0 mm 0.00 in/hr0.0 mm/hr 0.00 in0.0 mm
04:07 PM 42.9°F6.1°C 30.8°F-0.7°C 62% 5.0 mph WSW8.0 kmh WSW 12.0 mph19.3 kmh 30.21 in1023.0 mb 0.00 in0.0 mm 0.00 in/hr0.0 mm/hr 0.00 in0.0 mm
04:09 PM 42.9°F6.1°C 30.4°F-0.9°C 61% 8.0 mph WSW12.9 kmh WSW 12.0 mph19.3 kmh 30.21 in1023.0 mb 0.00 in0.0 mm 0.00 in/hr0.0 mm/hr 0.00 in0.0 mm
04:10 PM 43.0°F6.1°C 30.9°F-0.6°C 62% 8.0 mph NNW12.9 kmh NNW 12.0 mph19.3 kmh 30.21 in1023.0 mb 0.00 in0.0 mm 0.00 in/hr0.0 mm/hr 0.00 in0.0 mm
04:12 PM 43.1°F6.2°C 30.6°F-0.8°C 61% 4.0 mph SSW6.4 kmh SSW 13.0 mph20.9 kmh 30.21 in1023.0 mb 0.00 in0.0 mm 0.00 in/hr0.0 mm/hr 0.00 in0.0 mm
04:13 PM 43.0°F6.1°C 30.5°F-0.8°C 61% 18.0 mph WNW29.0 kmh WNW 18.0 mph29.0 kmh 30.21 in1023.0 mb 0.00 in0.0 mm 0.00 in/hr0.0 mm/hr 0.00 in0.0 mm
05:07 PM 42.0°F5.6°C 31.5°F-0.3°C 66% 4.0 mph NW6.4 kmh NW 5.0 mph8.0 kmh 30.22 in1023.4 mb 0.00 in0.0 mm 0.00 in/hr0.0 mm/hr 0.00 in0.0 mm
05:09 PM 42.0°F5.6°C 31.5°F-0.3°C 66% 5.0 mph NW8.0 kmh NW 9.0 mph14.5 kmh 30.22 in1023.4 mb 0.00 in0.0 mm 0.00 in/hr0.0 mm/hr 0.00 in0.0 mm
05:10 PM 42.0°F5.6°C 31.5°F-0.3°C 66% 8.0 mph W12.9 kmh W 12.0 mph19.3 kmh 30.22 in1023.4 mb 0.00 in0.0 mm 0.00 in/hr0.0 mm/hr 0.00 in0.0 mm
05:12 PM 41.9°F5.5°C 31.4°F-0.3°C 66% 4.0 mph NW6.4 kmh NW 12.0 mph19.3 kmh 30.22 in1023.4 mb 0.00 in0.0 mm 0.00 in/hr0.0 mm/hr 0.00 in0.0 mm
05:13 PM 41.9°F5.5°C 31.8°F-0.1°C 67% 5.0 mph SW8.0 kmh SW 19.0 mph30.6 kmh 30.22 in1023.4 mb 0.00 in0.0 mm 0.00 in/hr0.0 mm/hr 0.00 in0.0 mm
05:14 PM 41.8°F5.4°C 31.3°F-0.4°C 66% 5.0 mph WSW8.0 kmh WSW 19.0 mph30.6 kmh 30.22 in1023.4 mb 0.00 in0.0 mm 0.00 in/hr0.0 mm/hr 0.00 in0.0 mm
05:15 PM 41.8°F5.4°C 31.3°F-0.4°C 66% 3.0 mph WSW4.8 kmh WSW 19.0 mph30.6 kmh 30.22 in1023.4 mb 0.00 in0.0 mm 0.00 in/hr0.0 mm/hr 0.00 in0.0 mm
05:16 PM 41.7°F5.4°C 31.2°F-0.4°C 66% 9.0 mph W14.5 kmh W 19.0 mph30.6 kmh 30.22 in1023.4 mb 0.00 in0.0 mm 0.00 in/hr0.0 mm/hr 0.00 in0.0 mm
05:17 PM 41.7°F5.4°C 31.2°F-0.4°C 66% 10.0 mph NW16.1 kmh NW 19.0 mph30.6 kmh 30.22 in1023.4 mb 0.00 in0.0 mm 0.00 in/hr0.0 mm/hr 0.00 in0.0 mm
05:18 PM 41.6°F5.3°C 31.5°F-0.3°C 67% 6.0 mph NW9.7 kmh NW 19.0 mph30.6 kmh 30.22 in1023.4 mb 0.00 in0.0 mm 0.00 in/hr0.0 mm/hr 0.00 in0.0 mm
05:20 PM 41.6°F5.3°C 31.1°F-0.5°C 66% 5.0 mph N8.0 kmh N 19.0 mph30.6 kmh 30.22 in1023.4 mb 0.00 in0.0 mm 0.00 in/hr0.0 mm/hr 0.00 in0.0 mm
05:21 PM 41.6°F5.3°C 31.1°F-0.5°C 66% 3.0 mph SW4.8 kmh SW 19.0 mph30.6 kmh 30.22 in1023.4 mb 0.00 in0.0 mm 0.00 in/hr0.0 mm/hr 0.00 in0.0 mm
05:22 PM 41.5°F5.3°C 31.0°F-0.6°C 66% 5.0 mph SW8.0 kmh SW 19.0 mph30.6 kmh 30.22 in1023.4 mb 0.00 in0.0 mm 0.00 in/hr0.0 mm/hr 0.00 in0.0 mm
05:24 PM 41.5°F5.3°C 31.0°F-0.6°C 66% 9.0 mph W14.5 kmh W 19.0 mph30.6 kmh 30.23 in1023.7 mb 0.00 in0.0 mm 0.00 in/hr0.0 mm/hr 0.00 in0.0 mm
05:26 PM 41.4°F5.2°C 30.9°F-0.6°C 66% 3.0 mph SW4.8 kmh SW 19.0 mph30.6 kmh 30.22 in1023.4 mb 0.00 in0.0 mm 0.00 in/hr0.0 mm/hr 0.00 in0.0 mm
05:27 PM 41.4°F5.2°C 30.9°F-0.6°C 66% 12.0 mph WNW19.3 kmh WNW 19.0 mph30.6 kmh 30.22 in1023.4 mb 0.00 in0.0 mm 0.00 in/hr0.0 mm/hr 0.00 in0.0 mm
05:28 PM 41.3°F5.2°C 30.8°F-0.7°C 66% 4.0 mph W6.4 kmh W 19.0 mph30.6 kmh 30.22 in1023.4 mb 0.00 in0.0 mm 0.00 in/hr0.0 mm/hr 0.00 in0.0 mm
05:29 PM 41.3°F5.2°C 31.2°F-0.4°C 67% 6.0 mph WSW9.7 kmh WSW 19.0 mph30.6 kmh 30.22 in1023.4 mb 0.00 in0.0 mm 0.00 in/hr0.0 mm/hr 0.00 in0.0 mm
05:30 PM 41.3°F5.2°C 30.8°F-0.7°C 66% 1.0 mph W1.6 kmh W 19.0 mph30.6 kmh 30.22 in1023.4 mb 0.00 in0.0 mm 0.00 in/hr0.0 mm/hr 0.00 in0.0 mm
05:31 PM 41.2°F5.1°C 30.7°F-0.7°C 66% 2.0 mph W3.2 kmh W 8.0 mph12.9 kmh 30.22 in1023.4 mb 0.00 in0.0 mm 0.00 in/hr0.0 mm/hr 0.00 in0.0 mm
05:32 PM 41.2°F5.1°C 30.7°F-0.7°C 66% 6.0 mph WSW9.7 kmh WSW 8.0 mph12.9 kmh 30.22 in1023.4 mb 0.00 in0.0 mm 0.00 in/hr0.0 mm/hr 0.00 in0.0 mm
05:33 PM 41.2°F5.1°C 30.7°F-0.7°C 66% 6.0 mph SW9.7 kmh SW 13.0 mph20.9 kmh 30.22 in1023.4 mb 0.00 in0.0 mm 0.00 in/hr0.0 mm/hr 0.00 in0.0 mm
05:35 PM 41.3°F5.2°C 30.8°F-0.7°C 66% 4.0 mph NW6.4 kmh NW 13.0 mph20.9 kmh 30.23 in1023.7 mb 0.00 in0.0 mm 0.00 in/hr0.0 mm/hr 0.00 in0.0 mm
05:36 PM 41.3°F5.2°C 31.2°F-0.4°C 67% 4.0 mph WNW6.4 kmh WNW 13.0 mph20.9 kmh 30.23 in1023.7 mb 0.00 in0.0 mm 0.00 in/hr0.0 mm/hr 0.00 in0.0 mm
05:37 PM 41.2°F5.1°C 31.1°F-0.5°C 67% 3.0 mph NW4.8 kmh NW 13.0 mph20.9 kmh 30.23 in1023.7 mb 0.00 in0.0 mm 0.00 in/hr0.0 mm/hr 0.00 in0.0 mm
05:38 PM 41.2°F5.1°C 31.1°F-0.5°C 67% 7.0 mph NW11.3 kmh NW 13.0 mph20.9 kmh 30.23 in1023.7 mb 0.00 in0.0 mm 0.00 in/hr0.0 mm/hr 0.00 in0.0 mm
05:40 PM 41.1°F5.1°C 31.0°F-0.6°C 67% 10.0 mph W16.1 kmh W 13.0 mph20.9 kmh 30.23 in1023.7 mb 0.00 in0.0 mm 0.00 in/hr0.0 mm/hr 0.00 in0.0 mm
05:41 PM 41.1°F5.1°C 31.4°F-0.3°C 68% 3.0 mph NNW4.8 kmh NNW 13.0 mph20.9 kmh 30.23 in1023.7 mb 0.00 in0.0 mm 0.00 in/hr0.0 mm/hr 0.00 in0.0 mm
05:42 PM 41.1°F5.1°C 31.4°F-0.3°C 68% 10.0 mph W16.1 kmh W 13.0 mph20.9 kmh 30.23 in1023.7 mb 0.00 in0.0 mm 0.00 in/hr0.0 mm/hr 0.00 in0.0 mm
05:43 PM 41.1°F5.1°C 31.0°F-0.6°C 67% 6.0 mph WNW9.7 kmh WNW 16.0 mph25.7 kmh 30.23 in1023.7 mb 0.00 in0.0 mm 0.00 in/hr0.0 mm/hr 0.00 in0.0 mm
05:45 PM 41.1°F5.1°C 31.4°F-0.3°C 68% 9.0 mph W14.5 kmh W 16.0 mph25.7 kmh 30.23 in1023.7 mb 0.00 in0.0 mm 0.00 in/hr0.0 mm/hr 0.00 in0.0 mm
05:46 PM 41.1°F5.1°C 31.4°F-0.3°C 68% 6.0 mph WSW9.7 kmh WSW 16.0 mph25.7 kmh 30.23 in1023.7 mb 0.00 in0.0 mm 0.00 in/hr0.0 mm/hr 0.00 in0.0 mm
05:47 PM 41.1°F5.1°C 31.4°F-0.3°C 68% 12.0 mph WNW19.3 kmh WNW 16.0 mph25.7 kmh 30.23 in1023.7 mb 0.00 in0.0 mm 0.00 in/hr0.0 mm/hr 0.00 in0.0 mm
05:48 PM 41.0°F5.0°C 31.3°F-0.4°C 68% 5.0 mph W8.0 kmh W 16.0 mph25.7 kmh 30.23 in1023.7 mb 0.00 in0.0 mm 0.00 in/hr0.0 mm/hr 0.00 in0.0 mm
05:49 PM 41.0°F5.0°C 31.6°F-0.2°C 69% 7.0 mph NW11.3 kmh NW 16.0 mph25.7 kmh 30.23 in1023.7 mb 0.00 in0.0 mm 0.00 in/hr0.0 mm/hr 0.00 in0.0 mm
05:50 PM 41.0°F5.0°C 31.6°F-0.2°C 69% 5.0 mph W8.0 kmh W 16.0 mph25.7 kmh 30.23 in1023.7 mb 0.00 in0.0 mm 0.00 in/hr0.0 mm/hr 0.00 in0.0 mm
05:51 PM 40.9°F4.9°C 31.5°F-0.3°C 69% 7.0 mph WSW11.3 kmh WSW 16.0 mph25.7 kmh 30.23 in1023.7 mb 0.00 in0.0 mm 0.00 in/hr0.0 mm/hr 0.00 in0.0 mm
05:53 PM 40.8°F4.9°C 31.8°F-0.1°C 70% 7.0 mph W11.3 kmh W 16.0 mph25.7 kmh 30.23 in1023.7 mb 0.00 in0.0 mm 0.00 in/hr0.0 mm/hr 0.00 in0.0 mm
05:54 PM 40.8°F4.9°C 31.8°F-0.1°C 70% 6.0 mph WNW9.7 kmh WNW 16.0 mph25.7 kmh 30.23 in1023.7 mb 0.00 in0.0 mm 0.00 in/hr0.0 mm/hr 0.00 in0.0 mm
05:55 PM 40.7°F4.8°C 31.7°F-0.2°C 70% 9.0 mph W14.5 kmh W 16.0 mph25.7 kmh 30.23 in1023.7 mb 0.00 in0.0 mm 0.00 in/hr0.0 mm/hr 0.00 in0.0 mm
05:56 PM 40.6°F4.8°C 31.6°F-0.2°C 70% 7.0 mph W11.3 kmh W 16.0 mph25.7 kmh 30.23 in1023.7 mb 0.00 in0.0 mm 0.00 in/hr0.0 mm/hr 0.00 in0.0 mm
05:57 PM 40.6°F4.8°C 31.2°F-0.4°C 69% 9.0 mph WNW14.5 kmh WNW 21.0 mph33.8 kmh 30.24 in1024.0 mb 0.00 in0.0 mm 0.00 in/hr0.0 mm/hr 0.00 in0.0 mm
05:58 PM 40.7°F4.8°C 31.3°F-0.4°C 69% 9.0 mph WSW14.5 kmh WSW 21.0 mph33.8 kmh 30.24 in1024.0 mb 0.00 in0.0 mm 0.00 in/hr0.0 mm/hr 0.00 in0.0 mm
06:00 PM 40.7°F4.8°C 31.3°F-0.4°C 69% 7.0 mph W11.3 kmh W 21.0 mph33.8 kmh 30.24 in1024.0 mb 0.00 in0.0 mm 0.00 in/hr0.0 mm/hr 0.00 in0.0 mm
06:01 PM 40.7°F4.8°C 32.0°F0.0°C 71% 8.0 mph NW12.9 kmh NW 8.0 mph12.9 kmh 30.24 in1024.0 mb 0.00 in0.0 mm 0.00 in/hr0.0 mm/hr 0.00 in0.0 mm
06:02 PM 40.7°F4.8°C 32.0°F0.0°C 71% 9.0 mph WSW14.5 kmh WSW 13.0 mph20.9 kmh 30.24 in1024.0 mb 0.00 in0.0 mm 0.00 in/hr0.0 mm/hr 0.00 in0.0 mm
06:04 PM 40.7°F4.8°C 31.7°F-0.2°C 70% 9.0 mph WNW14.5 kmh WNW 17.0 mph27.4 kmh 30.24 in1024.0 mb 0.00 in0.0 mm 0.00 in/hr0.0 mm/hr 0.00 in0.0 mm
06:06 PM 40.7°F4.8°C 32.0°F0.0°C 71% 11.0 mph WNW17.7 kmh WNW 20.0 mph32.2 kmh 30.24 in1024.0 mb 0.00 in0.0 mm 0.00 in/hr0.0 mm/hr 0.00 in0.0 mm
06:07 PM 40.7°F4.8°C 31.7°F-0.2°C 70% 9.0 mph WNW14.5 kmh WNW 20.0 mph32.2 kmh 30.24 in1024.0 mb 0.00 in0.0 mm 0.00 in/hr0.0 mm/hr 0.00 in0.0 mm
06:08 PM 40.8°F4.9°C 32.1°F0.1°C 71% 8.0 mph W12.9 kmh W 20.0 mph32.2 kmh 30.24 in1024.0 mb 0.00 in0.0 mm 0.00 in/hr0.0 mm/hr 0.00 in0.0 mm
06:10 PM 40.8°F4.9°C 32.1°F0.1°C 71% 7.0 mph WNW11.3 kmh WNW 20.0 mph32.2 kmh 30.24 in1024.0 mb 0.00 in0.0 mm 0.00 in/hr0.0 mm/hr 0.00 in0.0 mm
06:11 PM 40.8°F4.9°C 32.1°F0.1°C 71% 12.0 mph WNW19.3 kmh WNW 20.0 mph32.2 kmh 30.24 in1024.0 mb 0.00 in0.0 mm 0.00 in/hr0.0 mm/hr 0.00 in0.0 mm
06:13 PM 40.7°F4.8°C 32.0°F0.0°C 71% 9.0 mph NW14.5 kmh NW 20.0 mph32.2 kmh 30.24 in1024.0 mb 0.00 in0.0 mm 0.00 in/hr0.0 mm/hr 0.00 in0.0 mm
06:14 PM 40.7°F4.8°C 32.0°F0.0°C 71% 7.0 mph W11.3 kmh W 20.0 mph32.2 kmh 30.24 in1024.0 mb 0.00 in0.0 mm 0.00 in/hr0.0 mm/hr 0.00 in0.0 mm
06:15 PM 40.7°F4.8°C 32.0°F0.0°C 71% 11.0 mph NW17.7 kmh NW 20.0 mph32.2 kmh 30.24 in1024.0 mb 0.00 in0.0 mm 0.00 in/hr0.0 mm/hr 0.00 in0.0 mm
06:16 PM 40.7°F4.8°C 32.0°F0.0°C 71% 8.0 mph NW12.9 kmh NW 20.0 mph32.2 kmh 30.24 in1024.0 mb 0.00 in0.0 mm 0.00 in/hr0.0 mm/hr 0.00 in0.0 mm
06:18 PM 40.7°F4.8°C 32.4°F0.2°C 72% 9.0 mph WNW14.5 kmh WNW 20.0 mph32.2 kmh 30.24 in1024.0 mb 0.00 in0.0 mm 0.00 in/hr0.0 mm/hr 0.00 in0.0 mm
06:20 PM 40.6°F4.8°C 32.3°F0.2°C 72% 13.0 mph NW20.9 kmh NW 20.0 mph32.2 kmh 30.25 in1024.4 mb 0.00 in0.0 mm 0.00 in/hr0.0 mm/hr 0.00 in0.0 mm
06:21 PM 40.6°F4.8°C 32.3°F0.2°C 72% 12.0 mph W19.3 kmh W 20.0 mph32.2 kmh 30.25 in1024.4 mb 0.00 in0.0 mm 0.00 in/hr0.0 mm/hr 0.00 in0.0 mm
06:23 PM 40.7°F4.8°C 32.4°F0.2°C 72% 13.0 mph WNW20.9 kmh WNW 20.0 mph32.2 kmh 30.25 in1024.4 mb 0.00 in0.0 mm 0.00 in/hr0.0 mm/hr 0.00 in0.0 mm
06:25 PM 40.8°F4.9°C 32.1°F0.1°C 71% 14.0 mph WNW22.5 kmh WNW 20.0 mph32.2 kmh 30.25 in1024.4 mb 0.00 in0.0 mm 0.00 in/hr0.0 mm/hr 0.00 in0.0 mm
06:27 PM 40.9°F4.9°C 31.9°F-0.1°C 70% 15.0 mph WNW24.1 kmh WNW 20.0 mph32.2 kmh 30.25 in1024.4 mb 0.00 in0.0 mm 0.00 in/hr0.0 mm/hr 0.00 in0.0 mm
06:28 PM 41.0°F5.0°C 32.3°F0.2°C 71% 15.0 mph NW24.1 kmh NW 20.0 mph32.2 kmh 30.25 in1024.4 mb 0.00 in0.0 mm 0.00 in/hr0.0 mm/hr 0.00 in0.0 mm
06:30 PM 41.0°F5.0°C 32.3°F0.2°C 71% 15.0 mph NW24.1 kmh NW 16.0 mph25.7 kmh 30.26 in1024.7 mb 0.00 in0.0 mm 0.00 in/hr0.0 mm/hr 0.00 in0.0 mm
06:31 PM 41.0°F5.0°C 32.3°F0.2°C 71% 14.0 mph WNW22.5 kmh WNW 17.0 mph27.4 kmh 30.26 in1024.7 mb 0.00 in0.0 mm 0.00 in/hr0.0 mm/hr 0.00 in0.0 mm
06:33 PM 40.9°F4.9°C 32.6°F0.3°C 72% 15.0 mph NW24.1 kmh NW 18.0 mph29.0 kmh 30.26 in1024.7 mb 0.00 in0.0 mm 0.00 in/hr0.0 mm/hr 0.00 in0.0 mm
06:34 PM 40.8°F4.9°C 32.5°F0.3°C 72% 18.0 mph NW29.0 kmh NW 20.0 mph32.2 kmh 30.26 in1024.7 mb 0.00 in0.0 mm 0.00 in/hr0.0 mm/hr 0.00 in0.0 mm
06:35 PM 40.7°F4.8°C 32.0°F0.0°C 71% 22.0 mph NW35.4 kmh NW 22.0 mph35.4 kmh 30.26 in1024.7 mb 0.00 in0.0 mm 0.00 in/hr0.0 mm/hr 0.00 in0.0 mm
06:36 PM 40.7°F4.8°C 32.0°F0.0°C 71% 19.0 mph NW30.6 kmh NW 23.0 mph37.0 kmh 30.26 in1024.7 mb 0.00 in0.0 mm 0.00 in/hr0.0 mm/hr 0.00 in0.0 mm
06:38 PM 40.7°F4.8°C 32.0°F0.0°C 71% 33.0 mph NW53.1 kmh NW 33.0 mph53.1 kmh 30.27 in1025.1 mb 0.00 in0.0 mm 0.00 in/hr0.0 mm/hr 0.00 in0.0 mm
06:39 PM 40.6°F4.8°C 31.6°F-0.2°C 70% 25.0 mph NW40.2 kmh NW 33.0 mph53.1 kmh 30.26 in1024.7 mb 0.00 in0.0 mm 0.00 in/hr0.0 mm/hr 0.00 in0.0 mm
06:40 PM 40.4°F4.7°C 31.8°F-0.1°C 71% 27.0 mph NNW43.5 kmh NNW 33.0 mph53.1 kmh 30.27 in1025.1 mb 0.00 in0.0 mm 0.00 in/hr0.0 mm/hr 0.00 in0.0 mm
06:42 PM 40.0°F4.4°C 31.4°F-0.3°C 71% 20.0 mph NW32.2 kmh NW 33.0 mph53.1 kmh 30.27 in1025.1 mb 0.00 in0.0 mm 0.00 in/hr0.0 mm/hr 0.00 in0.0 mm
06:43 PM 39.8°F4.3°C 31.5°F-0.3°C 72% 27.0 mph NNW43.5 kmh NNW 33.0 mph53.1 kmh 30.27 in1025.1 mb 0.00 in0.0 mm 0.00 in/hr0.0 mm/hr 0.00 in0.0 mm
06:44 PM 39.6°F4.2°C 31.3°F-0.4°C 72% 17.0 mph NW27.4 kmh NW 33.0 mph53.1 kmh 30.27 in1025.1 mb 0.00 in0.0 mm 0.00 in/hr0.0 mm/hr 0.00 in0.0 mm
06:45 PM 39.5°F4.2°C 31.6°F-0.2°C 73% 24.0 mph NW38.6 kmh NW 33.0 mph53.1 kmh 30.27 in1025.1 mb 0.00 in0.0 mm 0.00 in/hr0.0 mm/hr 0.00 in0.0 mm
06:47 PM 39.1°F3.9°C 31.2°F-0.4°C 73% 25.0 mph NW40.2 kmh NW 33.0 mph53.1 kmh 30.28 in1025.4 mb 0.00 in0.0 mm 0.00 in/hr0.0 mm/hr 0.00 in0.0 mm
06:49 PM 38.9°F3.8°C 31.3°F-0.4°C 74% 24.0 mph NNW38.6 kmh NNW 33.0 mph53.1 kmh 30.28 in1025.4 mb 0.00 in0.0 mm 0.00 in/hr0.0 mm/hr 0.00 in0.0 mm
06:50 PM 38.7°F3.7°C 31.5°F-0.3°C 75% 26.0 mph NNW41.8 kmh NNW 33.0 mph53.1 kmh 30.28 in1025.4 mb 0.00 in0.0 mm 0.00 in/hr0.0 mm/hr 0.00 in0.0 mm
06:51 PM 38.7°F3.7°C 31.1°F-0.5°C 74% 28.0 mph NNW45.1 kmh NNW 33.0 mph53.1 kmh 30.28 in1025.4 mb 0.00 in0.0 mm 0.00 in/hr0.0 mm/hr 0.00 in0.0 mm
06:52 PM 38.6°F3.7°C 31.4°F-0.3°C 75% 22.0 mph NW35.4 kmh NW 34.0 mph54.7 kmh 30.28 in1025.4 mb 0.00 in0.0 mm 0.00 in/hr0.0 mm/hr 0.00 in0.0 mm
06:53 PM 38.4°F3.6°C 31.2°F-0.4°C 75% 26.0 mph NW41.8 kmh NW 34.0 mph54.7 kmh 30.29 in1025.7 mb 0.00 in0.0 mm 0.00 in/hr0.0 mm/hr 0.00 in0.0 mm
06:54 PM 38.3°F3.5°C 31.4°F-0.3°C 76% 24.0 mph NNW38.6 kmh NNW 34.0 mph54.7 kmh 30.28 in1025.4 mb 0.00 in0.0 mm 0.00 in/hr0.0 mm/hr 0.00 in0.0 mm
06:55 PM 38.0°F3.3°C 31.1°F-0.5°C 76% 21.0 mph NW33.8 kmh NW 34.0 mph54.7 kmh 30.29 in1025.7 mb 0.00 in0.0 mm 0.00 in/hr0.0 mm/hr 0.00 in0.0 mm
06:57 PM 37.9°F3.3°C 31.0°F-0.6°C 76% 25.0 mph NW40.2 kmh NW 34.0 mph54.7 kmh 30.29 in1025.7 mb 0.00 in0.0 mm 0.00 in/hr0.0 mm/hr 0.00 in0.0 mm
06:58 PM 37.8°F3.2°C 31.3°F-0.4°C 77% 22.0 mph NW35.4 kmh NW 34.0 mph54.7 kmh 30.28 in1025.4 mb 0.00 in0.0 mm 0.00 in/hr0.0 mm/hr 0.00 in0.0 mm
07:00 PM 37.6°F3.1°C 31.1°F-0.5°C 77% 19.0 mph NW30.6 kmh NW 22.0 mph35.4 kmh 30.29 in1025.7 mb 0.00 in0.0 mm 0.00 in/hr0.0 mm/hr 0.00 in0.0 mm
07:01 PM 37.5°F3.1°C 31.0°F-0.6°C 77% 23.0 mph NW37.0 kmh NW 25.0 mph40.2 kmh 30.29 in1025.7 mb 0.00 in0.0 mm 0.00 in/hr0.0 mm/hr 0.00 in0.0 mm
07:02 PM 37.5°F3.1°C 30.6°F-0.8°C 76% 23.0 mph NW37.0 kmh NW 34.0 mph54.7 kmh 30.29 in1025.7 mb 0.00 in0.0 mm 0.00 in/hr0.0 mm/hr 0.00 in0.0 mm
07:03 PM 37.4°F3.0°C 30.5°F-0.8°C 76% 20.0 mph NW32.2 kmh NW 34.0 mph54.7 kmh 30.29 in1025.7 mb 0.00 in0.0 mm 0.00 in/hr0.0 mm/hr 0.00 in0.0 mm
07:04 PM 37.4°F3.0°C 30.5°F-0.8°C 76% 19.0 mph NW30.6 kmh NW 34.0 mph54.7 kmh 30.29 in1025.7 mb 0.00 in0.0 mm 0.00 in/hr0.0 mm/hr 0.00 in0.0 mm
07:05 PM 37.3°F2.9°C 29.8°F-1.2°C 74% 24.0 mph NW38.6 kmh NW 34.0 mph54.7 kmh 30.29 in1025.7 mb 0.00 in0.0 mm 0.00 in/hr0.0 mm/hr 0.00 in0.0 mm
07:07 PM 37.3°F2.9°C 29.5°F-1.4°C 73% 20.0 mph NW32.2 kmh NW 34.0 mph54.7 kmh 30.29 in1025.7 mb 0.00 in0.0 mm 0.00 in/hr0.0 mm/hr 0.00 in0.0 mm
07:08 PM 37.3°F2.9°C 29.8°F-1.2°C 74% 22.0 mph NW35.4 kmh NW 34.0 mph54.7 kmh 30.29 in1025.7 mb 0.00 in0.0 mm 0.00 in/hr0.0 mm/hr 0.00 in0.0 mm
07:09 PM 37.2°F2.9°C 29.4°F-1.4°C 73% 19.0 mph NW30.6 kmh NW 34.0 mph54.7 kmh 30.29 in1025.7 mb 0.00 in0.0 mm 0.00 in/hr0.0 mm/hr 0.00 in0.0 mm
07:10 PM 37.1°F2.8°C 28.6°F-1.9°C 71% 25.0 mph NW40.2 kmh NW 34.0 mph54.7 kmh 30.29 in1025.7 mb 0.00 in0.0 mm 0.00 in/hr0.0 mm/hr 0.00 in0.0 mm
07:11 PM 37.1°F2.8°C 28.2°F-2.1°C 70% 25.0 mph NW40.2 kmh NW 34.0 mph54.7 kmh 30.29 in1025.7 mb 0.00 in0.0 mm 0.00 in/hr0.0 mm/hr 0.00 in0.0 mm
07:13 PM 37.1°F2.8°C 27.9°F-2.3°C 69% 22.0 mph NW35.4 kmh NW 34.0 mph54.7 kmh 30.30 in1026.1 mb 0.00 in0.0 mm 0.00 in/hr0.0 mm/hr 0.00 in0.0 mm
07:14 PM 37.1°F2.8°C 28.2°F-2.1°C 70% 21.0 mph NW33.8 kmh NW 34.0 mph54.7 kmh 30.30 in1026.1 mb 0.00 in0.0 mm 0.00 in/hr0.0 mm/hr 0.00 in0.0 mm
07:15 PM 37.0°F2.8°C 28.1°F-2.2°C 70% 19.0 mph NNW30.6 kmh NNW 34.0 mph54.7 kmh 30.30 in1026.1 mb 0.00 in0.0 mm 0.00 in/hr0.0 mm/hr 0.00 in0.0 mm
07:16 PM 37.0°F2.8°C 27.8°F-2.3°C 69% 18.0 mph NW29.0 kmh NW 34.0 mph54.7 kmh 30.30 in1026.1 mb 0.00 in0.0 mm 0.00 in/hr0.0 mm/hr 0.00 in0.0 mm
07:17 PM 36.9°F2.7°C 28.0°F-2.2°C 70% 25.0 mph NW40.2 kmh NW 34.0 mph54.7 kmh 30.30 in1026.1 mb 0.00 in0.0 mm 0.00 in/hr0.0 mm/hr 0.00 in0.0 mm
07:18 PM 36.9°F2.7°C 28.0°F-2.2°C 70% 22.0 mph NW35.4 kmh NW 34.0 mph54.7 kmh 30.30 in1026.1 mb 0.00 in0.0 mm 0.00 in/hr0.0 mm/hr 0.00 in0.0 mm
07:20 PM 36.7°F2.6°C 27.9°F-2.3°C 70% 25.0 mph NW40.2 kmh NW 34.0 mph54.7 kmh 30.30 in1026.1 mb 0.00 in0.0 mm 0.00 in/hr0.0 mm/hr 0.00 in0.0 mm
07:21 PM 36.7°F2.6°C 27.9°F-2.3°C 70% 21.0 mph NW33.8 kmh NW 34.0 mph54.7 kmh 30.30 in1026.1 mb 0.00 in0.0 mm 0.00 in/hr0.0 mm/hr 0.00 in0.0 mm
07:23 PM 36.6°F2.6°C 28.1°F-2.2°C 71% 17.0 mph NW27.4 kmh NW 34.0 mph54.7 kmh 30.30 in1026.1 mb 0.00 in0.0 mm 0.00 in/hr0.0 mm/hr 0.00 in0.0 mm
07:25 PM 36.5°F2.5°C 28.0°F-2.2°C 71% 24.0 mph NW38.6 kmh NW 34.0 mph54.7 kmh 30.31 in1026.4 mb 0.00 in0.0 mm 0.00 in/hr0.0 mm/hr 0.00 in0.0 mm
07:26 PM 36.4°F2.4°C 28.3°F-2.1°C 72% 25.0 mph NW40.2 kmh NW 34.0 mph54.7 kmh 30.31 in1026.4 mb 0.00 in0.0 mm 0.00 in/hr0.0 mm/hr 0.00 in0.0 mm
07:28 PM 36.3°F2.4°C 28.2°F-2.1°C 72% 18.0 mph NW29.0 kmh NW 34.0 mph54.7 kmh 30.31 in1026.4 mb 0.00 in0.0 mm 0.00 in/hr0.0 mm/hr 0.00 in0.0 mm
07:29 PM 36.3°F2.4°C 28.2°F-2.1°C 72% 19.0 mph NW30.6 kmh NW 34.0 mph54.7 kmh 30.31 in1026.4 mb 0.00 in0.0 mm 0.00 in/hr0.0 mm/hr 0.00 in0.0 mm
07:30 PM 36.2°F2.3°C 28.4°F-2.0°C 73% 14.0 mph NNW22.5 kmh NNW 34.0 mph54.7 kmh 30.31 in1026.4 mb 0.00 in0.0 mm 0.00 in/hr0.0 mm/hr 0.00 in0.0 mm
07:31 PM 36.2°F2.3°C 28.7°F-1.8°C 74% 16.0 mph NW25.7 kmh NW 18.0 mph29.0 kmh 30.31 in1026.4 mb 0.00 in0.0 mm 0.00 in/hr0.0 mm/hr 0.00 in0.0 mm
07:33 PM 36.0°F2.2°C 28.5°F-1.9°C 74% 22.0 mph NW35.4 kmh NW 27.0 mph43.5 kmh 30.32 in1026.8 mb 0.00 in0.0 mm 0.00 in/hr0.0 mm/hr 0.00 in0.0 mm
07:34 PM 36.0°F2.2°C 28.2°F-2.1°C 73% 27.0 mph NNW43.5 kmh NNW 28.0 mph45.1 kmh 30.32 in1026.8 mb 0.00 in0.0 mm 0.00 in/hr0.0 mm/hr 0.00 in0.0 mm
07:35 PM 35.9°F2.2°C 28.4°F-2.0°C 74% 25.0 mph NW40.2 kmh NW 28.0 mph45.1 kmh 30.32 in1026.8 mb 0.00 in0.0 mm 0.00 in/hr0.0 mm/hr 0.00 in0.0 mm
07:37 PM 35.8°F2.1°C 28.0°F-2.2°C 73% 24.0 mph NW38.6 kmh NW 28.0 mph45.1 kmh 30.31 in1026.4 mb 0.00 in0.0 mm 0.00 in/hr0.0 mm/hr 0.00 in0.0 mm
07:38 PM 35.7°F2.1°C 27.6°F-2.4°C 72% 29.0 mph NW46.7 kmh NW 31.0 mph49.9 kmh 30.32 in1026.8 mb 0.00 in0.0 mm 0.00 in/hr0.0 mm/hr 0.00 in0.0 mm
07:40 PM 35.6°F2.0°C 27.5°F-2.5°C 72% 24.0 mph NW38.6 kmh NW 31.0 mph49.9 kmh 30.32 in1026.8 mb 0.00 in0.0 mm 0.00 in/hr0.0 mm/hr 0.00 in0.0 mm
07:41 PM 35.6°F2.0°C 27.8°F-2.3°C 73% 22.0 mph NNW35.4 kmh NNW 31.0 mph49.9 kmh 30.32 in1026.8 mb 0.00 in0.0 mm 0.00 in/hr0.0 mm/hr 0.00 in0.0 mm
07:43 PM 35.4°F1.9°C 27.3°F-2.6°C 72% 25.0 mph NNW40.2 kmh NNW 31.0 mph49.9 kmh 30.32 in1026.8 mb 0.00 in0.0 mm 0.00 in/hr0.0 mm/hr 0.00 in0.0 mm
07:45 PM 35.2°F1.8°C 27.4°F-2.6°C 73% 22.0 mph NW35.4 kmh NW 31.0 mph49.9 kmh 30.32 in1026.8 mb 0.00 in0.0 mm 0.00 in/hr0.0 mm/hr 0.00 in0.0 mm
07:47 PM 35.1°F1.7°C 27.7°F-2.4°C 74% 18.0 mph NW29.0 kmh NW 31.0 mph49.9 kmh 30.32 in1026.8 mb 0.00 in0.0 mm 0.00 in/hr0.0 mm/hr 0.00 in0.0 mm
07:48 PM 35.0°F1.7°C 27.9°F-2.3°C 75% 23.0 mph NW37.0 kmh NW 31.0 mph49.9 kmh 30.32 in1026.8 mb 0.00 in0.0 mm 0.00 in/hr0.0 mm/hr 0.00 in0.0 mm
07:49 PM 35.0°F1.7°C 27.6°F-2.4°C 74% 27.0 mph NW43.5 kmh NW 31.0 mph49.9 kmh 30.32 in1026.8 mb 0.00 in0.0 mm 0.00 in/hr0.0 mm/hr 0.00 in0.0 mm
07:50 PM 34.9°F1.6°C 27.5°F-2.5°C 74% 23.0 mph NNW37.0 kmh NNW 31.0 mph49.9 kmh 30.32 in1026.8 mb 0.00 in0.0 mm 0.00 in/hr0.0 mm/hr 0.00 in0.0 mm
07:52 PM 34.8°F1.6°C 27.4°F-2.6°C 74% 18.0 mph NW29.0 kmh NW 31.0 mph49.9 kmh 30.33 in1027.1 mb 0.00 in0.0 mm 0.00 in/hr0.0 mm/hr 0.00 in0.0 mm
07:54 PM 34.7°F1.5°C 27.6°F-2.4°C 75% 19.0 mph NNW30.6 kmh NNW 31.0 mph49.9 kmh 30.33 in1027.1 mb 0.00 in0.0 mm 0.00 in/hr0.0 mm/hr 0.00 in0.0 mm
07:55 PM 34.6°F1.4°C 27.8°F-2.3°C 76% 20.0 mph NW32.2 kmh NW 31.0 mph49.9 kmh 30.33 in1027.1 mb 0.00 in0.0 mm 0.00 in/hr0.0 mm/hr 0.00 in0.0 mm
07:57 PM 34.4°F1.3°C 27.6°F-2.4°C 76% 18.0 mph NNW29.0 kmh NNW 31.0 mph49.9 kmh 30.34 in1027.4 mb 0.00 in0.0 mm 0.00 in/hr0.0 mm/hr 0.00 in0.0 mm
07:59 PM 34.3°F1.3°C 27.5°F-2.5°C 76% 18.0 mph NNW29.0 kmh NNW 31.0 mph49.9 kmh 30.34 in1027.4 mb 0.00 in0.0 mm 0.00 in/hr0.0 mm/hr 0.00 in0.0 mm
08:00 PM 34.3°F1.3°C 27.5°F-2.5°C 76% 22.0 mph NW35.4 kmh NW 31.0 mph49.9 kmh 30.34 in1027.4 mb 0.00 in0.0 mm 0.00 in/hr0.0 mm/hr 0.00 in0.0 mm
08:02 PM 34.3°F1.3°C 27.5°F-2.5°C 76% 26.0 mph NNW41.8 kmh NNW 26.0 mph41.8 kmh 30.34 in1027.4 mb 0.00 in0.0 mm 0.00 in/hr0.0 mm/hr 0.00 in0.0 mm
08:04 PM 34.3°F1.3°C 27.5°F-2.5°C 76% 21.0 mph NW33.8 kmh NW 26.0 mph41.8 kmh 30.34 in1027.4 mb 0.00 in0.0 mm 0.00 in/hr0.0 mm/hr 0.00 in0.0 mm
08:05 PM 34.2°F1.2°C 27.8°F-2.3°C 77% 29.0 mph NNW46.7 kmh NNW 29.0 mph46.7 kmh 30.34 in1027.4 mb 0.00 in0.0 mm 0.00 in/hr0.0 mm/hr 0.00 in0.0 mm
08:06 PM 34.2°F1.2°C 27.1°F-2.7°C 75% 22.0 mph NW35.4 kmh NW 31.0 mph49.9 kmh 30.34 in1027.4 mb 0.00 in0.0 mm 0.00 in/hr0.0 mm/hr 0.00 in0.0 mm
08:08 PM 34.1°F1.2°C 26.7°F-2.9°C 74% 24.0 mph NNW38.6 kmh NNW 31.0 mph49.9 kmh 30.35 in1027.8 mb 0.00 in0.0 mm 0.00 in/hr0.0 mm/hr 0.00 in0.0 mm
08:10 PM 34.0°F1.1°C 26.3°F-3.2°C 73% 28.0 mph NNW45.1 kmh NNW 31.0 mph49.9 kmh 30.35 in1027.8 mb 0.00 in0.0 mm 0.00 in/hr0.0 mm/hr 0.00 in0.0 mm
08:11 PM 34.0°F1.1°C 26.3°F-3.2°C 73% 22.0 mph NW35.4 kmh NW 31.0 mph49.9 kmh 30.35 in1027.8 mb 0.00 in0.0 mm 0.00 in/hr0.0 mm/hr 0.00 in0.0 mm
08:13 PM 33.9°F1.1°C 26.2°F-3.2°C 73% 24.0 mph NW38.6 kmh NW 31.0 mph49.9 kmh 30.35 in1027.8 mb 0.00 in0.0 mm 0.00 in/hr0.0 mm/hr 0.00 in0.0 mm
08:14 PM 33.8°F1.0°C 26.1°F-3.3°C 73% 25.0 mph NNW40.2 kmh NNW 31.0 mph49.9 kmh 30.35 in1027.8 mb 0.00 in0.0 mm 0.00 in/hr0.0 mm/hr 0.00 in0.0 mm
08:16 PM 33.7°F0.9°C 26.0°F-3.3°C 73% 21.0 mph NNW33.8 kmh NNW 31.0 mph49.9 kmh 30.36 in1028.1 mb 0.00 in0.0 mm 0.00 in/hr0.0 mm/hr 0.00 in0.0 mm
08:17 PM 33.7°F0.9°C 25.7°F-3.5°C 72% 27.0 mph NW43.5 kmh NW 31.0 mph49.9 kmh 30.36 in1028.1 mb 0.00 in0.0 mm 0.00 in/hr0.0 mm/hr 0.00 in0.0 mm
08:18 PM 33.6°F0.9°C 25.2°F-3.8°C 71% 22.0 mph NNW35.4 kmh NNW 31.0 mph49.9 kmh 30.36 in1028.1 mb 0.00 in0.0 mm 0.00 in/hr0.0 mm/hr 0.00 in0.0 mm
08:20 PM 33.5°F0.8°C 25.8°F-3.4°C 73% 22.0 mph NW35.4 kmh NW 31.0 mph49.9 kmh 30.36 in1028.1 mb 0.00 in0.0 mm 0.00 in/hr0.0 mm/hr 0.00 in0.0 mm
08:21 PM 33.5°F0.8°C 25.8°F-3.4°C 73% 16.0 mph NNW25.7 kmh NNW 31.0 mph49.9 kmh 30.36 in1028.1 mb 0.00 in0.0 mm 0.00 in/hr0.0 mm/hr 0.00 in0.0 mm
08:23 PM 33.4°F0.8°C 25.4°F-3.7°C 72% 18.0 mph NNW29.0 kmh NNW 31.0 mph49.9 kmh 30.37 in1028.4 mb 0.00 in0.0 mm 0.00 in/hr0.0 mm/hr 0.00 in0.0 mm
08:24 PM 33.3°F0.7°C 25.3°F-3.7°C 72% 18.0 mph NW29.0 kmh NW 31.0 mph49.9 kmh 30.37 in1028.4 mb 0.00 in0.0 mm 0.00 in/hr0.0 mm/hr 0.00 in0.0 mm
08:26 PM 33.3°F0.7°C 25.6°F-3.6°C 73% 27.0 mph NNW43.5 kmh NNW 31.0 mph49.9 kmh 30.37 in1028.4 mb 0.00 in0.0 mm 0.00 in/hr0.0 mm/hr 0.00 in0.0 mm
08:27 PM 33.2°F0.7°C 24.8°F-4.0°C 71% 26.0 mph NW41.8 kmh NW 31.0 mph49.9 kmh 30.37 in1028.4 mb 0.00 in0.0 mm 0.00 in/hr0.0 mm/hr 0.00 in0.0 mm
08:29 PM 33.2°F0.7°C 25.2°F-3.8°C 72% 18.0 mph NW29.0 kmh NW 31.0 mph49.9 kmh 30.37 in1028.4 mb 0.00 in0.0 mm 0.00 in/hr0.0 mm/hr 0.00 in0.0 mm
08:30 PM 33.1°F0.6°C 25.4°F-3.7°C 73% 17.0 mph NW27.4 kmh NW 31.0 mph49.9 kmh 30.37 in1028.4 mb 0.00 in0.0 mm 0.00 in/hr0.0 mm/hr 0.00 in0.0 mm
08:31 PM 33.0°F0.6°C 25.3°F-3.7°C 73% 23.0 mph NW37.0 kmh NW 25.0 mph40.2 kmh 30.37 in1028.4 mb 0.00 in0.0 mm 0.00 in/hr0.0 mm/hr 0.00 in0.0 mm
08:33 PM 33.0°F0.6°C 25.3°F-3.7°C 73% 22.0 mph NW35.4 kmh NW 25.0 mph40.2 kmh 30.37 in1028.4 mb 0.00 in0.0 mm 0.00 in/hr0.0 mm/hr 0.00 in0.0 mm
08:34 PM 32.9°F0.5°C 25.2°F-3.8°C 73% 19.0 mph NW30.6 kmh NW 25.0 mph40.2 kmh 30.37 in1028.4 mb 0.00 in0.0 mm 0.00 in/hr0.0 mm/hr 0.00 in0.0 mm
08:35 PM 32.9°F0.5°C 25.2°F-3.8°C 73% 17.0 mph NNW27.4 kmh NNW 25.0 mph40.2 kmh 30.37 in1028.4 mb 0.00 in0.0 mm 0.00 in/hr0.0 mm/hr 0.00 in0.0 mm
08:36 PM 32.9°F0.5°C 25.5°F-3.6°C 74% 16.0 mph NW25.7 kmh NW 25.0 mph40.2 kmh 30.38 in1028.8 mb 0.00 in0.0 mm 0.00 in/hr0.0 mm/hr 0.00 in0.0 mm
08:37 PM 32.8°F0.4°C 25.4°F-3.7°C 74% 22.0 mph NW35.4 kmh NW 30.0 mph48.3 kmh 30.37 in1028.4 mb 0.00 in0.0 mm 0.00 in/hr0.0 mm/hr 0.00 in0.0 mm
08:38 PM 32.8°F0.4°C 24.5°F-4.2°C 71% 26.0 mph NW41.8 kmh NW 30.0 mph48.3 kmh 30.38 in1028.8 mb 0.00 in0.0 mm 0.00 in/hr0.0 mm/hr 0.00 in0.0 mm
08:40 PM 32.8°F0.4°C 24.5°F-4.2°C 71% 25.0 mph NNW40.2 kmh NNW 30.0 mph48.3 kmh 30.38 in1028.8 mb 0.00 in0.0 mm 0.00 in/hr0.0 mm/hr 0.00 in0.0 mm
08:41 PM 32.8°F0.4°C 24.1°F-4.4°C 70% 23.0 mph NW37.0 kmh NW 30.0 mph48.3 kmh 30.38 in1028.8 mb 0.00 in0.0 mm 0.00 in/hr0.0 mm/hr 0.00 in0.0 mm
08:42 PM 32.7°F0.4°C 23.3°F-4.8°C 68% 24.0 mph NW38.6 kmh NW 30.0 mph48.3 kmh 30.38 in1028.8 mb 0.00 in0.0 mm 0.00 in/hr0.0 mm/hr 0.00 in0.0 mm
08:43 PM 32.7°F0.4°C 23.3°F-4.8°C 68% 24.0 mph NNW38.6 kmh NNW 30.0 mph48.3 kmh 30.38 in1028.8 mb 0.00 in0.0 mm 0.00 in/hr0.0 mm/hr 0.00 in0.0 mm
08:45 PM 32.7°F0.4°C 23.3°F-4.8°C 68% 27.0 mph NNW43.5 kmh NNW 31.0 mph49.9 kmh 30.38 in1028.8 mb 0.00 in0.0 mm 0.00 in/hr0.0 mm/hr 0.00 in0.0 mm
08:46 PM 32.6°F0.3°C 22.9°F-5.1°C 67% 23.0 mph NW37.0 kmh NW 31.0 mph49.9 kmh 30.38 in1028.8 mb 0.00 in0.0 mm 0.00 in/hr0.0 mm/hr 0.00 in0.0 mm
08:47 PM 32.6°F0.3°C 23.2°F-4.9°C 68% 23.0 mph NW37.0 kmh NW 31.0 mph49.9 kmh 30.38 in1028.8 mb 0.00 in0.0 mm 0.00 in/hr0.0 mm/hr 0.00 in0.0 mm
08:49 PM 32.6°F0.3°C 23.2°F-4.9°C 68% 26.0 mph NNW41.8 kmh NNW 31.0 mph49.9 kmh 30.39 in1029.1 mb 0.00 in0.0 mm 0.00 in/hr0.0 mm/hr 0.00 in0.0 mm
08:50 PM 32.5°F0.3°C 22.8°F-5.1°C 67% 17.0 mph NNW27.4 kmh NNW 31.0 mph49.9 kmh 30.39 in1029.1 mb 0.00 in0.0 mm 0.00 in/hr0.0 mm/hr 0.00 in0.0 mm
08:52 PM 32.5°F0.3°C 22.8°F-5.1°C 67% 27.0 mph NW43.5 kmh NW 31.0 mph49.9 kmh 30.39 in1029.1 mb 0.00 in0.0 mm 0.00 in/hr0.0 mm/hr 0.00 in0.0 mm
08:53 PM 32.5°F0.3°C 22.4°F-5.3°C 66% 20.0 mph NNW32.2 kmh NNW 31.0 mph49.9 kmh 30.39 in1029.1 mb 0.00 in0.0 mm 0.00 in/hr0.0 mm/hr 0.00 in0.0 mm
08:54 PM 32.5°F0.3°C 22.8°F-5.1°C 67% 26.0 mph NW41.8 kmh NW 31.0 mph49.9 kmh 30.39 in1029.1 mb 0.00 in0.0 mm 0.00 in/hr0.0 mm/hr 0.00 in0.0 mm
08:55 PM 32.4°F0.2°C 22.7°F-5.2°C 67% 19.0 mph NNW30.6 kmh NNW 31.0 mph49.9 kmh 30.39 in1029.1 mb 0.00 in0.0 mm 0.00 in/hr0.0 mm/hr 0.00 in0.0 mm
08:56 PM 32.4°F0.2°C 23.0°F-5.0°C 68% 21.0 mph NW33.8 kmh NW 31.0 mph49.9 kmh 30.39 in1029.1 mb 0.00 in0.0 mm 0.00 in/hr0.0 mm/hr 0.00 in0.0 mm
08:57 PM 32.4°F0.2°C 22.7°F-5.2°C 67% 19.0 mph NW30.6 kmh NW 31.0 mph49.9 kmh 30.39 in1029.1 mb 0.00 in0.0 mm 0.00 in/hr0.0 mm/hr 0.00 in0.0 mm
08:58 PM 32.3°F0.2°C 22.6°F-5.2°C 67% 26.0 mph NW41.8 kmh NW 31.0 mph49.9 kmh 30.39 in1029.1 mb 0.00 in0.0 mm 0.00 in/hr0.0 mm/hr 0.00 in0.0 mm
09:00 PM 32.3°F0.2°C 22.6°F-5.2°C 67% 18.0 mph NW29.0 kmh NW 21.0 mph33.8 kmh 30.39 in1029.1 mb 0.00 in0.0 mm 0.00 in/hr0.0 mm/hr 0.00 in0.0 mm
09:01 PM 32.2°F0.1°C 22.5°F-5.3°C 67% 23.0 mph NW37.0 kmh NW 24.0 mph38.6 kmh 30.39 in1029.1 mb 0.00 in0.0 mm 0.00 in/hr0.0 mm/hr 0.00 in0.0 mm
09:02 PM 32.2°F0.1°C 22.5°F-5.3°C 67% 20.0 mph NNW32.2 kmh NNW 26.0 mph41.8 kmh 30.39 in1029.1 mb 0.00 in0.0 mm 0.00 in/hr0.0 mm/hr 0.00 in0.0 mm
09:03 PM 32.2°F0.1°C 22.8°F-5.1°C 68% 17.0 mph NNW27.4 kmh NNW 26.0 mph41.8 kmh 30.40 in1029.5 mb 0.00 in0.0 mm 0.00 in/hr0.0 mm/hr 0.00 in0.0 mm
09:04 PM 32.1°F0.1°C 23.1°F-4.9°C 69% 14.0 mph NW22.5 kmh NW 26.0 mph41.8 kmh 30.40 in1029.5 mb 0.00 in0.0 mm 0.00 in/hr0.0 mm/hr 0.00 in0.0 mm
09:05 PM 32.1°F0.1°C 23.4°F-4.8°C 70% 16.0 mph NW25.7 kmh NW 26.0 mph41.8 kmh 30.40 in1029.5 mb 0.00 in0.0 mm 0.00 in/hr0.0 mm/hr 0.00 in0.0 mm
09:07 PM 32.0°F0.0°C 23.0°F-5.0°C 69% 16.0 mph NW25.7 kmh NW 26.0 mph41.8 kmh 30.40 in1029.5 mb 0.00 in0.0 mm 0.00 in/hr0.0 mm/hr 0.00 in0.0 mm
09:09 PM 31.9°F-0.1°C 22.9°F-5.1°C 69% 20.0 mph NW32.2 kmh NW 26.0 mph41.8 kmh 30.40 in1029.5 mb 0.00 in0.0 mm 0.00 in/hr0.0 mm/hr 0.00 in0.0 mm
09:10 PM 31.9°F-0.1°C 22.9°F-5.1°C 69% 17.0 mph NW27.4 kmh NW 26.0 mph41.8 kmh 30.40 in1029.5 mb 0.00 in0.0 mm 0.00 in/hr0.0 mm/hr 0.00 in0.0 mm
09:12 PM 31.9°F-0.1°C 23.6°F-4.7°C 71% 21.0 mph NW33.8 kmh NW 26.0 mph41.8 kmh 30.40 in1029.5 mb 0.00 in0.0 mm 0.00 in/hr0.0 mm/hr 0.00 in0.0 mm
09:13 PM 31.9°F-0.1°C 23.6°F-4.7°C 71% 17.0 mph NW27.4 kmh NW 26.0 mph41.8 kmh 30.40 in1029.5 mb 0.00 in0.0 mm 0.00 in/hr0.0 mm/hr 0.00 in0.0 mm
09:15 PM 31.8°F-0.1°C 23.2°F-4.9°C 70% 16.0 mph NW25.7 kmh NW 26.0 mph41.8 kmh 30.40 in1029.5 mb 0.00 in0.0 mm 0.00 in/hr0.0 mm/hr 0.00 in0.0 mm
09:16 PM 31.8°F-0.1°C 23.2°F-4.9°C 70% 17.0 mph NW27.4 kmh NW 26.0 mph41.8 kmh 30.40 in1029.5 mb 0.00 in0.0 mm 0.00 in/hr0.0 mm/hr 0.00 in0.0 mm
09:17 PM 31.8°F-0.1°C 23.2°F-4.9°C 70% 18.0 mph NW29.0 kmh NW 26.0 mph41.8 kmh 30.41 in1029.8 mb 0.00 in0.0 mm 0.00 in/hr0.0 mm/hr 0.00 in0.0 mm
09:18 PM 31.7°F-0.2°C 23.4°F-4.8°C 71% 12.0 mph NW19.3 kmh NW 26.0 mph41.8 kmh 30.41 in1029.8 mb 0.00 in0.0 mm 0.00 in/hr0.0 mm/hr 0.00 in0.0 mm
09:20 PM 31.7°F-0.2°C 23.4°F-4.8°C 71% 21.0 mph NW33.8 kmh NW 26.0 mph41.8 kmh 30.41 in1029.8 mb 0.00 in0.0 mm 0.00 in/hr0.0 mm/hr 0.00 in0.0 mm
09:21 PM 31.7°F-0.2°C 23.4°F-4.8°C 71% 19.0 mph NW30.6 kmh NW 26.0 mph41.8 kmh 30.41 in1029.8 mb 0.00 in0.0 mm 0.00 in/hr0.0 mm/hr 0.00 in0.0 mm
09:23 PM 31.7°F-0.2°C 23.7°F-4.6°C 72% 13.0 mph NW20.9 kmh NW 26.0 mph41.8 kmh 30.41 in1029.8 mb 0.00 in0.0 mm 0.00 in/hr0.0 mm/hr 0.00 in0.0 mm
09:24 PM 31.6°F-0.2°C 24.0°F-4.4°C 73% 15.0 mph NNW24.1 kmh NNW 26.0 mph41.8 kmh 30.41 in1029.8 mb 0.00 in0.0 mm 0.00 in/hr0.0 mm/hr 0.00 in0.0 mm
09:25 PM 31.6°F-0.2°C 24.0°F-4.4°C 73% 12.0 mph NNW19.3 kmh NNW 26.0 mph41.8 kmh 30.42 in1030.1 mb 0.00 in0.0 mm 0.00 in/hr0.0 mm/hr 0.00 in0.0 mm
09:26 PM 31.6°F-0.2°C 23.6°F-4.7°C 72% 12.0 mph NNW19.3 kmh NNW 26.0 mph41.8 kmh 30.42 in1030.1 mb 0.00 in0.0 mm 0.00 in/hr0.0 mm/hr 0.00 in0.0 mm
09:27 PM 31.5°F-0.3°C 23.9°F-4.5°C 73% 15.0 mph NW24.1 kmh NW 26.0 mph41.8 kmh 30.42 in1030.1 mb 0.00 in0.0 mm 0.00 in/hr0.0 mm/hr 0.00 in0.0 mm
09:28 PM 31.5°F-0.3°C 23.9°F-4.5°C 73% 16.0 mph NW25.7 kmh NW 26.0 mph41.8 kmh 30.42 in1030.1 mb 0.00 in0.0 mm 0.00 in/hr0.0 mm/hr 0.00 in0.0 mm
09:29 PM 31.5°F-0.3°C 23.9°F-4.5°C 73% 14.0 mph NNW22.5 kmh NNW 26.0 mph41.8 kmh 30.42 in1030.1 mb 0.00 in0.0 mm 0.00 in/hr0.0 mm/hr 0.00 in0.0 mm
09:30 PM 31.5°F-0.3°C 23.9°F-4.5°C 73% 14.0 mph NW22.5 kmh NW 26.0 mph41.8 kmh 30.42 in1030.1 mb 0.00 in0.0 mm 0.00 in/hr0.0 mm/hr 0.00 in0.0 mm
09:31 PM 31.5°F-0.3°C 24.2°F-4.3°C 74% 14.0 mph NNW22.5 kmh NNW 15.0 mph24.1 kmh 30.42 in1030.1 mb 0.00 in0.0 mm 0.00 in/hr0.0 mm/hr 0.00 in0.0 mm
09:32 PM 31.4°F-0.3°C 24.1°F-4.4°C 74% 12.0 mph NW19.3 kmh NW 15.0 mph24.1 kmh 30.42 in1030.1 mb 0.00 in0.0 mm 0.00 in/hr0.0 mm/hr 0.00 in0.0 mm
09:34 PM 31.4°F-0.3°C 24.1°F-4.4°C 74% 13.0 mph NW20.9 kmh NW 18.0 mph29.0 kmh 30.42 in1030.1 mb 0.00 in0.0 mm 0.00 in/hr0.0 mm/hr 0.00 in0.0 mm
09:35 PM 31.3°F-0.4°C 24.0°F-4.4°C 74% 11.0 mph NNW17.7 kmh NNW 18.0 mph29.0 kmh 30.42 in1030.1 mb 0.00 in0.0 mm 0.00 in/hr0.0 mm/hr 0.00 in0.0 mm
09:36 PM 31.3°F-0.4°C 24.3°F-4.3°C 75% 13.0 mph NNW20.9 kmh NNW 18.0 mph29.0 kmh 30.43 in1030.5 mb 0.00 in0.0 mm 0.00 in/hr0.0 mm/hr 0.00 in0.0 mm
09:38 PM 31.2°F-0.4°C 24.2°F-4.3°C 75% 16.0 mph NNW25.7 kmh NNW 18.0 mph29.0 kmh 30.43 in1030.5 mb 0.00 in0.0 mm 0.00 in/hr0.0 mm/hr 0.00 in0.0 mm
09:39 PM 31.2°F-0.4°C 23.9°F-4.5°C 74% 14.0 mph NNW22.5 kmh NNW 18.0 mph29.0 kmh 30.43 in1030.5 mb 0.00 in0.0 mm 0.00 in/hr0.0 mm/hr 0.00 in0.0 mm
09:40 PM 31.2°F-0.4°C 23.9°F-4.5°C 74% 12.0 mph NW19.3 kmh NW 18.0 mph29.0 kmh 30.43 in1030.5 mb 0.00 in0.0 mm 0.00 in/hr0.0 mm/hr 0.00 in0.0 mm
09:42 PM 31.2°F-0.4°C 23.9°F-4.5°C 74% 11.0 mph NW17.7 kmh NW 19.0 mph30.6 kmh 30.43 in1030.5 mb 0.00 in0.0 mm 0.00 in/hr0.0 mm/hr 0.00 in0.0 mm
09:43 PM 31.1°F-0.5°C 24.1°F-4.4°C 75% 15.0 mph NNW24.1 kmh NNW 19.0 mph30.6 kmh 30.43 in1030.5 mb 0.00 in0.0 mm 0.00 in/hr0.0 mm/hr 0.00 in0.0 mm
09:45 PM 31.1°F-0.5°C 24.1°F-4.4°C 75% 10.0 mph NW16.1 kmh NW 19.0 mph30.6 kmh 30.43 in1030.5 mb 0.00 in0.0 mm 0.00 in/hr0.0 mm/hr 0.00 in0.0 mm
09:46 PM 31.1°F-0.5°C 24.4°F-4.2°C 76% 14.0 mph NNW22.5 kmh NNW 19.0 mph30.6 kmh 30.43 in1030.5 mb 0.00 in0.0 mm 0.00 in/hr0.0 mm/hr 0.00 in0.0 mm
09:47 PM 31.1°F-0.5°C 24.4°F-4.2°C 76% 14.0 mph N22.5 kmh N 19.0 mph30.6 kmh 30.43 in1030.5 mb 0.00 in0.0 mm 0.00 in/hr0.0 mm/hr 0.00 in0.0 mm
09:48 PM 31.0°F-0.6°C 24.3°F-4.3°C 76% 12.0 mph NNW19.3 kmh NNW 19.0 mph30.6 kmh 30.43 in1030.5 mb 0.00 in0.0 mm 0.00 in/hr0.0 mm/hr 0.00 in0.0 mm
09:50 PM 31.0°F-0.6°C 24.3°F-4.3°C 76% 15.0 mph NW24.1 kmh NW 19.0 mph30.6 kmh 30.43 in1030.5 mb 0.00 in0.0 mm 0.00 in/hr0.0 mm/hr 0.00 in0.0 mm
09:51 PM 31.0°F-0.6°C 24.3°F-4.3°C 76% 11.0 mph NW17.7 kmh NW 19.0 mph30.6 kmh 30.43 in1030.5 mb 0.00 in0.0 mm 0.00 in/hr0.0 mm/hr 0.00 in0.0 mm
09:52 PM 30.9°F-0.6°C 24.2°F-4.3°C 76% 12.0 mph NNW19.3 kmh NNW 19.0 mph30.6 kmh 30.43 in1030.5 mb 0.00 in0.0 mm 0.00 in/hr0.0 mm/hr 0.00 in0.0 mm
09:54 PM 30.9°F-0.6°C 24.2°F-4.3°C 76% 12.0 mph NW19.3 kmh NW 19.0 mph30.6 kmh 30.43 in1030.5 mb 0.00 in0.0 mm 0.00 in/hr0.0 mm/hr 0.00 in0.0 mm
09:55 PM 30.8°F-0.7°C 24.1°F-4.4°C 76% 14.0 mph NNW22.5 kmh NNW 19.0 mph30.6 kmh 30.43 in1030.5 mb 0.00 in0.0 mm 0.00 in/hr0.0 mm/hr 0.00 in0.0 mm
09:56 PM 30.8°F-0.7°C 24.1°F-4.4°C 76% 13.0 mph NW20.9 kmh NW 19.0 mph30.6 kmh 30.43 in1030.5 mb 0.00 in0.0 mm 0.00 in/hr0.0 mm/hr 0.00 in0.0 mm
09:57 PM 30.8°F-0.7°C 24.1°F-4.4°C 76% 11.0 mph NNW17.7 kmh NNW 19.0 mph30.6 kmh 30.43 in1030.5 mb 0.00 in0.0 mm 0.00 in/hr0.0 mm/hr 0.00 in0.0 mm
09:58 PM 30.7°F-0.7°C 23.4°F-4.8°C 74% 11.0 mph N17.7 kmh N 19.0 mph30.6 kmh 30.43 in1030.5 mb 0.00 in0.0 mm 0.00 in/hr0.0 mm/hr 0.00 in0.0 mm
10:00 PM 30.7°F-0.7°C 23.1°F-4.9°C 73% 13.0 mph NW20.9 kmh NW 19.0 mph30.6 kmh 30.43 in1030.5 mb 0.00 in0.0 mm 0.00 in/hr0.0 mm/hr 0.00 in0.0 mm
10:01 PM 30.7°F-0.7°C 23.1°F-4.9°C 73% 22.0 mph NNW35.4 kmh NNW 22.0 mph35.4 kmh 30.43 in1030.5 mb 0.00 in0.0 mm 0.00 in/hr0.0 mm/hr 0.00 in0.0 mm
10:02 PM 30.7°F-0.7°C 23.1°F-4.9°C 73% 16.0 mph NNW25.7 kmh NNW 22.0 mph35.4 kmh 30.43 in1030.5 mb 0.00 in0.0 mm 0.00 in/hr0.0 mm/hr 0.00 in0.0 mm
10:04 PM 30.6°F-0.8°C 23.0°F-5.0°C 73% 18.0 mph N29.0 kmh N 22.0 mph35.4 kmh 30.43 in1030.5 mb 0.00 in0.0 mm 0.00 in/hr0.0 mm/hr 0.00 in0.0 mm
10:05 PM 30.6°F-0.8°C 22.7°F-5.2°C 72% 18.0 mph NW29.0 kmh NW 23.0 mph37.0 kmh 30.43 in1030.5 mb 0.00 in0.0 mm 0.00 in/hr0.0 mm/hr 0.00 in0.0 mm
10:07 PM 30.5°F-0.8°C 21.9°F-5.6°C 70% 15.0 mph NNW24.1 kmh NNW 24.0 mph38.6 kmh 30.43 in1030.5 mb 0.00 in0.0 mm 0.00 in/hr0.0 mm/hr 0.00 in0.0 mm
10:09 PM 30.4°F-0.9°C 22.1°F-5.5°C 71% 16.0 mph NNW25.7 kmh NNW 24.0 mph38.6 kmh 30.43 in1030.5 mb 0.00 in0.0 mm 0.00 in/hr0.0 mm/hr 0.00 in0.0 mm
10:10 PM 30.3°F-0.9°C 22.0°F-5.6°C 71% 21.0 mph NW33.8 kmh NW 24.0 mph38.6 kmh 30.43 in1030.5 mb 0.00 in0.0 mm 0.00 in/hr0.0 mm/hr 0.00 in0.0 mm
10:11 PM 30.3°F-0.9°C 21.7°F-5.7°C 70% 19.0 mph NNW30.6 kmh NNW 24.0 mph38.6 kmh 30.43 in1030.5 mb 0.00 in0.0 mm 0.00 in/hr0.0 mm/hr 0.00 in0.0 mm
10:12 PM 30.2°F-1.0°C 21.6°F-5.8°C 70% 19.0 mph NNW30.6 kmh NNW 24.0 mph38.6 kmh 30.43 in1030.5 mb 0.00 in0.0 mm 0.00 in/hr0.0 mm/hr 0.00 in0.0 mm
10:13 PM 30.1°F-1.1°C 21.5°F-5.8°C 70% 23.0 mph NNW37.0 kmh NNW 24.0 mph38.6 kmh 30.43 in1030.5 mb 0.00 in0.0 mm 0.00 in/hr0.0 mm/hr 0.00 in0.0 mm
10:15 PM 30.1°F-1.1°C 21.5°F-5.8°C 70% 24.0 mph NNW38.6 kmh NNW 27.0 mph43.5 kmh 30.43 in1030.5 mb 0.00 in0.0 mm 0.00 in/hr0.0 mm/hr 0.00 in0.0 mm
10:16 PM 30.1°F-1.1°C 21.2°F-6.0°C 69% 18.0 mph NW29.0 kmh NW 27.0 mph43.5 kmh 30.43 in1030.5 mb 0.00 in0.0 mm 0.00 in/hr0.0 mm/hr 0.00 in0.0 mm
10:18 PM 30.0°F-1.1°C 21.4°F-5.9°C 70% 14.0 mph NW22.5 kmh NW 27.0 mph43.5 kmh 30.44 in1030.8 mb 0.00 in0.0 mm 0.00 in/hr0.0 mm/hr 0.00 in0.0 mm
10:19 PM 29.9°F-1.2°C 21.7°F-5.7°C 71% 22.0 mph NW35.4 kmh NW 27.0 mph43.5 kmh 30.43 in1030.5 mb 0.00 in0.0 mm 0.00 in/hr0.0 mm/hr 0.00 in0.0 mm
10:20 PM 29.9°F-1.2°C 21.3°F-5.9°C 70% 21.0 mph NNW33.8 kmh NNW 27.0 mph43.5 kmh 30.43 in1030.5 mb 0.00 in0.0 mm 0.00 in/hr0.0 mm/hr 0.00 in0.0 mm
10:22 PM 29.8°F-1.2°C 21.2°F-6.0°C 70% 20.0 mph NW32.2 kmh NW 27.0 mph43.5 kmh 30.44 in1030.8 mb 0.00 in0.0 mm 0.00 in/hr0.0 mm/hr 0.00 in0.0 mm
10:23 PM 29.8°F-1.2°C 21.6°F-5.8°C 71% 23.0 mph NNW37.0 kmh NNW 27.0 mph43.5 kmh 30.44 in1030.8 mb 0.00 in0.0 mm 0.00 in/hr0.0 mm/hr 0.00 in0.0 mm
10:24 PM 29.8°F-1.2°C 21.9°F-5.6°C 72% 15.0 mph NW24.1 kmh NW 27.0 mph43.5 kmh 30.44 in1030.8 mb 0.00 in0.0 mm 0.00 in/hr0.0 mm/hr 0.00 in0.0 mm
10:25 PM 29.7°F-1.3°C 22.1°F-5.5°C 73% 15.0 mph NW24.1 kmh NW 27.0 mph43.5 kmh 30.44 in1030.8 mb 0.00 in0.0 mm 0.00 in/hr0.0 mm/hr 0.00 in0.0 mm
10:26 PM 29.6°F-1.3°C 21.7°F-5.7°C 72% 16.0 mph NNW25.7 kmh NNW 27.0 mph43.5 kmh 30.44 in1030.8 mb 0.00 in0.0 mm 0.00 in/hr0.0 mm/hr 0.00 in0.0 mm
10:28 PM 29.6°F-1.3°C 21.7°F-5.7°C 72% 16.0 mph NNW25.7 kmh NNW 27.0 mph43.5 kmh 30.44 in1030.8 mb 0.00 in0.0 mm 0.00 in/hr0.0 mm/hr 0.00 in0.0 mm
10:29 PM 29.6°F-1.3°C 21.4°F-5.9°C 71% 13.0 mph N20.9 kmh N 27.0 mph43.5 kmh 30.45 in1031.2 mb 0.00 in0.0 mm 0.00 in/hr0.0 mm/hr 0.00 in0.0 mm
10:30 PM 29.5°F-1.4°C 21.9°F-5.6°C 73% 15.0 mph N24.1 kmh N 27.0 mph43.5 kmh 30.44 in1030.8 mb 0.00 in0.0 mm 0.00 in/hr0.0 mm/hr 0.00 in0.0 mm
10:31 PM 29.4°F-1.4°C 21.5°F-5.8°C 72% 14.0 mph NNW22.5 kmh NNW 15.0 mph24.1 kmh 30.45 in1031.2 mb 0.00 in0.0 mm 0.00 in/hr0.0 mm/hr 0.00 in0.0 mm
10:33 PM 29.4°F-1.4°C 21.8°F-5.7°C 73% 13.0 mph NNW20.9 kmh NNW 15.0 mph24.1 kmh 30.45 in1031.2 mb 0.00 in0.0 mm 0.00 in/hr0.0 mm/hr 0.00 in0.0 mm
10:35 PM 29.4°F-1.4°C 21.5°F-5.8°C 72% 14.0 mph NNW22.5 kmh NNW 18.0 mph29.0 kmh 30.45 in1031.2 mb 0.00 in0.0 mm 0.00 in/hr0.0 mm/hr 0.00 in0.0 mm
10:36 PM 29.3°F-1.5°C 21.4°F-5.9°C 72% 12.0 mph NNW19.3 kmh NNW 18.0 mph29.0 kmh 30.45 in1031.2 mb 0.00 in0.0 mm 0.00 in/hr0.0 mm/hr 0.00 in0.0 mm
10:37 PM 29.3°F-1.5°C 21.4°F-5.9°C 72% 12.0 mph NNW19.3 kmh NNW 18.0 mph29.0 kmh 30.45 in1031.2 mb 0.00 in0.0 mm 0.00 in/hr0.0 mm/hr 0.00 in0.0 mm
10:39 PM 29.3°F-1.5°C 21.4°F-5.9°C 72% 13.0 mph N20.9 kmh N 18.0 mph29.0 kmh 30.45 in1031.2 mb 0.00 in0.0 mm 0.00 in/hr0.0 mm/hr 0.00 in0.0 mm
10:40 PM 29.2°F-1.6°C 21.3°F-5.9°C 72% 16.0 mph NW25.7 kmh NW 18.0 mph29.0 kmh 30.45 in1031.2 mb 0.00 in0.0 mm 0.00 in/hr0.0 mm/hr 0.00 in0.0 mm
10:42 PM 29.2°F-1.6°C 21.0°F-6.1°C 71% 12.0 mph NW19.3 kmh NW 19.0 mph30.6 kmh 30.45 in1031.2 mb 0.00 in0.0 mm 0.00 in/hr0.0 mm/hr 0.00 in0.0 mm
10:43 PM 29.1°F-1.6°C 20.9°F-6.2°C 71% 12.0 mph N19.3 kmh N 19.0 mph30.6 kmh 30.45 in1031.2 mb 0.00 in0.0 mm 0.00 in/hr0.0 mm/hr 0.00 in0.0 mm
10:45 PM 29.1°F-1.6°C 20.9°F-6.2°C 71% 12.0 mph NNW19.3 kmh NNW 19.0 mph30.6 kmh 30.45 in1031.2 mb 0.00 in0.0 mm 0.00 in/hr0.0 mm/hr 0.00 in0.0 mm
10:46 PM 29.1°F-1.6°C 21.2°F-6.0°C 72% 16.0 mph NNW25.7 kmh NNW 19.0 mph30.6 kmh 30.45 in1031.2 mb 0.00 in0.0 mm 0.00 in/hr0.0 mm/hr 0.00 in0.0 mm
10:47 PM 29.0°F-1.7°C 21.1°F-6.1°C 72% 10.0 mph NNW16.1 kmh NNW 19.0 mph30.6 kmh 30.45 in1031.2 mb 0.00 in0.0 mm 0.00 in/hr0.0 mm/hr 0.00 in0.0 mm
10:49 PM 29.0°F-1.7°C 21.4°F-5.9°C 73% 12.0 mph NW19.3 kmh NW 19.0 mph30.6 kmh 30.45 in1031.2 mb 0.00 in0.0 mm 0.00 in/hr0.0 mm/hr 0.00 in0.0 mm
10:50 PM 29.0°F-1.7°C 21.1°F-6.1°C 72% 9.0 mph NW14.5 kmh NW 19.0 mph30.6 kmh 30.45 in1031.2 mb 0.00 in0.0 mm 0.00 in/hr0.0 mm/hr 0.00 in0.0 mm
10:52 PM 28.9°F-1.7°C 21.4°F-5.9°C 73% 8.0 mph NW12.9 kmh NW 19.0 mph30.6 kmh 30.45 in1031.2 mb 0.00 in0.0 mm 0.00 in/hr0.0 mm/hr 0.00 in0.0 mm
10:54 PM 28.9°F-1.7°C 22.0°F-5.6°C 75% 9.0 mph NNW14.5 kmh NNW 19.0 mph30.6 kmh 30.45 in1031.2 mb 0.00 in0.0 mm 0.00 in/hr0.0 mm/hr 0.00 in0.0 mm
10:55 PM 28.8°F-1.8°C 21.9°F-5.6°C 75% 8.0 mph NW12.9 kmh NW 19.0 mph30.6 kmh 30.46 in1031.5 mb 0.00 in0.0 mm 0.00 in/hr0.0 mm/hr 0.00 in0.0 mm
10:56 PM 28.8°F-1.8°C 21.9°F-5.6°C 75% 9.0 mph NW14.5 kmh NW 19.0 mph30.6 kmh 30.46 in1031.5 mb 0.00 in0.0 mm 0.00 in/hr0.0 mm/hr 0.00 in0.0 mm
10:58 PM 28.7°F-1.8°C 21.8°F-5.7°C 75% 12.0 mph NW19.3 kmh NW 19.0 mph30.6 kmh 30.46 in1031.5 mb 0.00 in0.0 mm 0.00 in/hr0.0 mm/hr 0.00 in0.0 mm
11:00 PM 28.6°F-1.9°C 21.7°F-5.7°C 75% 12.0 mph NW19.3 kmh NW 12.0 mph19.3 kmh 30.46 in1031.5 mb 0.00 in0.0 mm 0.00 in/hr0.0 mm/hr 0.00 in0.0 mm
11:01 PM 28.6°F-1.9°C 21.7°F-5.7°C 75% 10.0 mph NW16.1 kmh NW 12.0 mph19.3 kmh 30.46 in1031.5 mb 0.00 in0.0 mm 0.00 in/hr0.0 mm/hr 0.00 in0.0 mm
11:03 PM 28.5°F-1.9°C 21.9°F-5.6°C 76% 13.0 mph NW20.9 kmh NW 14.0 mph22.5 kmh 30.46 in1031.5 mb 0.00 in0.0 mm 0.00 in/hr0.0 mm/hr 0.00 in0.0 mm
11:04 PM 28.5°F-1.9°C 21.6°F-5.8°C 75% 11.0 mph NW17.7 kmh NW 14.0 mph22.5 kmh 30.46 in1031.5 mb 0.00 in0.0 mm 0.00 in/hr0.0 mm/hr 0.00 in0.0 mm
11:05 PM 28.4°F-2.0°C 21.5°F-5.8°C 75% 11.0 mph NW17.7 kmh NW 14.0 mph22.5 kmh 30.46 in1031.5 mb 0.00 in0.0 mm 0.00 in/hr0.0 mm/hr 0.00 in0.0 mm
11:06 PM 28.4°F-2.0°C 21.8°F-5.7°C 76% 11.0 mph NW17.7 kmh NW 14.0 mph22.5 kmh 30.46 in1031.5 mb 0.00 in0.0 mm 0.00 in/hr0.0 mm/hr 0.00 in0.0 mm
11:07 PM 28.4°F-2.0°C 21.8°F-5.7°C 76% 15.0 mph NW24.1 kmh NW 15.0 mph24.1 kmh 30.46 in1031.5 mb 0.00 in0.0 mm 0.00 in/hr0.0 mm/hr 0.00 in0.0 mm
11:08 PM 28.4°F-2.0°C 21.5°F-5.8°C 75% 12.0 mph N19.3 kmh N 15.0 mph24.1 kmh 30.46 in1031.5 mb 0.00 in0.0 mm 0.00 in/hr0.0 mm/hr 0.00 in0.0 mm
11:10 PM 28.3°F-2.1°C 21.7°F-5.7°C 76% 8.0 mph NNW12.9 kmh NNW 15.0 mph24.1 kmh 30.47 in1031.8 mb 0.00 in0.0 mm 0.00 in/hr0.0 mm/hr 0.00 in0.0 mm
11:11 PM 28.3°F-2.1°C 21.7°F-5.7°C 76% 9.0 mph NW14.5 kmh NW 15.0 mph24.1 kmh 30.47 in1031.8 mb 0.00 in0.0 mm 0.00 in/hr0.0 mm/hr 0.00 in0.0 mm
11:12 PM 28.3°F-2.1°C 22.0°F-5.6°C 77% 10.0 mph NNW16.1 kmh NNW 15.0 mph24.1 kmh 30.47 in1031.8 mb 0.00 in0.0 mm 0.00 in/hr0.0 mm/hr 0.00 in0.0 mm
11:14 PM 28.3°F-2.1°C 22.0°F-5.6°C 77% 8.0 mph NNW12.9 kmh NNW 15.0 mph24.1 kmh 30.47 in1031.8 mb 0.00 in0.0 mm 0.00 in/hr0.0 mm/hr 0.00 in0.0 mm
11:15 PM 28.2°F-2.1°C 21.6°F-5.8°C 76% 10.0 mph NW16.1 kmh NW 15.0 mph24.1 kmh 30.47 in1031.8 mb 0.00 in0.0 mm 0.00 in/hr0.0 mm/hr 0.00 in0.0 mm
11:17 PM 28.2°F-2.1°C 21.6°F-5.8°C 76% 5.0 mph NNW8.0 kmh NNW 15.0 mph24.1 kmh 30.47 in1031.8 mb 0.00 in0.0 mm 0.00 in/hr0.0 mm/hr 0.00 in0.0 mm
11:18 PM 28.1°F-2.2°C 21.5°F-5.8°C 76% 6.0 mph NNW9.7 kmh NNW 15.0 mph24.1 kmh 30.47 in1031.8 mb 0.00 in0.0 mm 0.00 in/hr0.0 mm/hr 0.00 in0.0 mm
11:20 PM 28.1°F-2.2°C 21.5°F-5.8°C 76% 7.0 mph NNW11.3 kmh NNW 15.0 mph24.1 kmh 30.47 in1031.8 mb 0.00 in0.0 mm 0.00 in/hr0.0 mm/hr 0.00 in0.0 mm
11:21 PM 28.1°F-2.2°C 21.8°F-5.7°C 77% 9.0 mph NNW14.5 kmh NNW 15.0 mph24.1 kmh 30.47 in1031.8 mb 0.00 in0.0 mm 0.00 in/hr0.0 mm/hr 0.00 in0.0 mm
11:22 PM 28.0°F-2.2°C 21.7°F-5.7°C 77% 7.0 mph N11.3 kmh N 15.0 mph24.1 kmh 30.47 in1031.8 mb 0.00 in0.0 mm 0.00 in/hr0.0 mm/hr 0.00 in0.0 mm
11:24 PM 28.1°F-2.2°C 21.8°F-5.7°C 77% 10.0 mph NNW16.1 kmh NNW 15.0 mph24.1 kmh 30.47 in1031.8 mb 0.00 in0.0 mm 0.00 in/hr0.0 mm/hr 0.00 in0.0 mm
11:25 PM 28.0°F-2.2°C 21.7°F-5.7°C 77% 10.0 mph N16.1 kmh N 15.0 mph24.1 kmh 30.47 in1031.8 mb 0.00 in0.0 mm 0.00 in/hr0.0 mm/hr 0.00 in0.0 mm
11:26 PM 27.9°F-2.3°C 21.0°F-6.1°C 75% 13.0 mph NNW20.9 kmh NNW 16.0 mph25.7 kmh 30.48 in1032.2 mb 0.00 in0.0 mm 0.00 in/hr0.0 mm/hr 0.00 in0.0 mm
11:28 PM 27.9°F-2.3°C 21.0°F-6.1°C 75% 11.0 mph NNW17.7 kmh NNW 16.0 mph25.7 kmh 30.48 in1032.2 mb 0.00 in0.0 mm 0.00 in/hr0.0 mm/hr 0.00 in0.0 mm
11:30 PM 27.8°F-2.3°C 20.3°F-6.5°C 73% 10.0 mph NW16.1 kmh NW 12.0 mph19.3 kmh 30.48 in1032.2 mb 0.00 in0.0 mm 0.00 in/hr0.0 mm/hr 0.00 in0.0 mm
11:31 PM 27.8°F-2.3°C 20.3°F-6.5°C 73% 13.0 mph NW20.9 kmh NW 16.0 mph25.7 kmh 30.48 in1032.2 mb 0.00 in0.0 mm 0.00 in/hr0.0 mm/hr 0.00 in0.0 mm
11:32 PM 27.7°F-2.4°C 19.9°F-6.7°C 72% 13.0 mph N20.9 kmh N 16.0 mph25.7 kmh 30.48 in1032.2 mb 0.00 in0.0 mm 0.00 in/hr0.0 mm/hr 0.00 in0.0 mm
11:34 PM 27.6°F-2.4°C 19.4°F-7.0°C 71% 13.0 mph NW20.9 kmh NW 21.0 mph33.8 kmh 30.48 in1032.2 mb 0.00 in0.0 mm 0.00 in/hr0.0 mm/hr 0.00 in0.0 mm
11:35 PM 27.6°F-2.4°C 19.8°F-6.8°C 72% 17.0 mph NNW27.4 kmh NNW 21.0 mph33.8 kmh 30.48 in1032.2 mb 0.00 in0.0 mm 0.00 in/hr0.0 mm/hr 0.00 in0.0 mm
11:37 PM 27.5°F-2.5°C 19.7°F-6.8°C 72% 10.0 mph NNW16.1 kmh NNW 21.0 mph33.8 kmh 30.48 in1032.2 mb 0.00 in0.0 mm 0.00 in/hr0.0 mm/hr 0.00 in0.0 mm
11:38 PM 27.5°F-2.5°C 19.7°F-6.8°C 72% 9.0 mph NNW14.5 kmh NNW 21.0 mph33.8 kmh 30.48 in1032.2 mb 0.00 in0.0 mm 0.00 in/hr0.0 mm/hr 0.00 in0.0 mm
11:40 PM 27.4°F-2.6°C 19.9°F-6.7°C 73% 14.0 mph NW22.5 kmh NW 21.0 mph33.8 kmh 30.48 in1032.2 mb 0.00 in0.0 mm 0.00 in/hr0.0 mm/hr 0.00 in0.0 mm
11:41 PM 27.4°F-2.6°C 19.9°F-6.7°C 73% 20.0 mph NNW32.2 kmh NNW 24.0 mph38.6 kmh 30.48 in1032.2 mb 0.00 in0.0 mm 0.00 in/hr0.0 mm/hr 0.00 in0.0 mm
11:43 PM 27.3°F-2.6°C 19.5°F-6.9°C 72% 17.0 mph NW27.4 kmh NW 24.0 mph38.6 kmh 30.48 in1032.2 mb 0.00 in0.0 mm 0.00 in/hr0.0 mm/hr 0.00 in0.0 mm
11:44 PM 27.3°F-2.6°C 19.8°F-6.8°C 73% 18.0 mph NNW29.0 kmh NNW 24.0 mph38.6 kmh 30.48 in1032.2 mb 0.00 in0.0 mm 0.00 in/hr0.0 mm/hr 0.00 in0.0 mm
11:45 PM 27.3°F-2.6°C 19.8°F-6.8°C 73% 18.0 mph NW29.0 kmh NW 24.0 mph38.6 kmh 30.48 in1032.2 mb 0.00 in0.0 mm 0.00 in/hr0.0 mm/hr 0.00 in0.0 mm
11:46 PM 27.2°F-2.7°C 19.4°F-7.0°C 72% 15.0 mph NNW24.1 kmh NNW 24.0 mph38.6 kmh 30.48 in1032.2 mb 0.00 in0.0 mm 0.00 in/hr0.0 mm/hr 0.00 in0.0 mm
11:47 PM 27.2°F-2.7°C 19.7°F-6.8°C 73% 14.0 mph NW22.5 kmh NW 24.0 mph38.6 kmh 30.48 in1032.2 mb 0.00 in0.0 mm 0.00 in/hr0.0 mm/hr 0.00 in0.0 mm
11:48 PM 27.2°F-2.7°C 19.7°F-6.8°C 73% 16.0 mph NNW25.7 kmh NNW 24.0 mph38.6 kmh 30.48 in1032.2 mb 0.00 in0.0 mm 0.00 in/hr0.0 mm/hr 0.00 in0.0 mm
11:50 PM 27.1°F-2.7°C 19.6°F-6.9°C 73% 17.0 mph NW27.4 kmh NW 24.0 mph38.6 kmh 30.48 in1032.2 mb 0.00 in0.0 mm 0.00 in/hr0.0 mm/hr 0.00 in0.0 mm
11:51 PM 27.1°F-2.7°C 19.6°F-6.9°C 73% 19.0 mph NW30.6 kmh NW 24.0 mph38.6 kmh 30.48 in1032.2 mb 0.00 in0.0 mm 0.00 in/hr0.0 mm/hr 0.00 in0.0 mm
11:52 PM 27.1°F-2.7°C 19.6°F-6.9°C 73% 18.0 mph NW29.0 kmh NW 24.0 mph38.6 kmh 30.48 in1032.2 mb 0.00 in0.0 mm 0.00 in/hr0.0 mm/hr 0.00 in0.0 mm
11:53 PM 27.0°F-2.8°C 19.5°F-6.9°C 73% 19.0 mph NNW30.6 kmh NNW 24.0 mph38.6 kmh 30.48 in1032.2 mb 0.00 in0.0 mm 0.00 in/hr0.0 mm/hr 0.00 in0.0 mm
11:55 PM 27.0°F-2.8°C 19.5°F-6.9°C 73% 15.0 mph NNW24.1 kmh NNW 24.0 mph38.6 kmh 30.48 in1032.2 mb 0.00 in0.0 mm 0.00 in/hr0.0 mm/hr 0.00 in0.0 mm
11:56 PM 26.9°F-2.8°C 19.4°F-7.0°C 73% 20.0 mph NW32.2 kmh NW 24.0 mph38.6 kmh 30.48 in1032.2 mb 0.00 in0.0 mm 0.00 in/hr0.0 mm/hr 0.00 in0.0 mm
11:57 PM 26.9°F-2.8°C 19.4°F-7.0°C 73% 18.0 mph NNW29.0 kmh NNW 24.0 mph38.6 kmh 30.48 in1032.2 mb 0.00 in0.0 mm 0.00 in/hr0.0 mm/hr 0.00 in0.0 mm
11:59 PM 26.8°F-2.9°C 19.3°F-7.1°C 73% 17.0 mph NW27.4 kmh NW 24.0 mph38.6 kmh 30.49 in1032.5 mb 0.00 in0.0 mm 0.00 in/hr0.0 mm/hr 0.00 in0.0 mm